<?xml version="1.0" encoding="UTF-8" standalone="no" ?>
<gpx xmlns="http://www.topografix.com/GPX/1/1" xmlns:xsi="http://www.w3.org/2001/XMLSchema-instance" xsi:schemaLocation="http://www.topografix.com/GPX/1/1 http://www.topografix.com/GPX/1/1/gpx.xsd" version="1.1" creator="VisuGPX - https://www.visugpx.com">
  <metadata>
    <name>cabane d'araing ,pic d'araing ,tuc de serau carrière de marbre en boucle</name>
    <desc><![CDATA[[b][i][url][img][/img][/url][/i][/b]]]></desc>
  </metadata>
  <trk>
    <name><![CDATA[Pic araing serau janv2019]]></name>
    <trkseg>
      <trkpt lat="42.8842" lon="0.98301">
        <ele>944.63</ele>
        <time>2019-01-06T07:54:21Z</time>
      </trkpt>
      <trkpt lat="42.8842" lon="0.98301">
        <ele>944.63</ele>
        <time>2019-01-06T07:54:22Z</time>
      </trkpt>
      <trkpt lat="42.88417" lon="0.98298">
        <ele>944.15</ele>
        <time>2019-01-06T07:54:53Z</time>
      </trkpt>
      <trkpt lat="42.88417" lon="0.98297">
        <ele>943.19</ele>
        <time>2019-01-06T07:55:24Z</time>
      </trkpt>
      <trkpt lat="42.88422" lon="0.98299">
        <ele>943.67</ele>
        <time>2019-01-06T07:56:01Z</time>
      </trkpt>
      <trkpt lat="42.8842" lon="0.98297">
        <ele>944.15</ele>
        <time>2019-01-06T07:57:14Z</time>
      </trkpt>
      <trkpt lat="42.88419" lon="0.98301">
        <ele>944.15</ele>
        <time>2019-01-06T07:57:53Z</time>
      </trkpt>
      <trkpt lat="42.88418" lon="0.98303">
        <ele>944.15</ele>
        <time>2019-01-06T07:58:46Z</time>
      </trkpt>
      <trkpt lat="42.88418" lon="0.98304">
        <ele>944.15</ele>
        <time>2019-01-06T07:59:18Z</time>
      </trkpt>
      <trkpt lat="42.88418" lon="0.98301">
        <ele>944.63</ele>
        <time>2019-01-06T07:59:58Z</time>
      </trkpt>
      <trkpt lat="42.88417" lon="0.98296">
        <ele>945.11</ele>
        <time>2019-01-06T08:00:19Z</time>
      </trkpt>
      <trkpt lat="42.88418" lon="0.98301">
        <ele>945.11</ele>
        <time>2019-01-06T08:00:45Z</time>
      </trkpt>
      <trkpt lat="42.88421" lon="0.98292">
        <ele>945.11</ele>
        <time>2019-01-06T08:00:59Z</time>
      </trkpt>
      <trkpt lat="42.88423" lon="0.98288">
        <ele>945.11</ele>
        <time>2019-01-06T08:01:01Z</time>
      </trkpt>
      <trkpt lat="42.88431" lon="0.98275">
        <ele>945.59</ele>
        <time>2019-01-06T08:01:15Z</time>
      </trkpt>
      <trkpt lat="42.88435" lon="0.9827">
        <ele>946.07</ele>
        <time>2019-01-06T08:01:31Z</time>
      </trkpt>
      <trkpt lat="42.88442" lon="0.98269">
        <ele>948.48</ele>
        <time>2019-01-06T08:01:45Z</time>
      </trkpt>
      <trkpt lat="42.88449" lon="0.98267">
        <ele>951.36</ele>
        <time>2019-01-06T08:01:57Z</time>
      </trkpt>
      <trkpt lat="42.88455" lon="0.98266">
        <ele>953.28</ele>
        <time>2019-01-06T08:02:05Z</time>
      </trkpt>
      <trkpt lat="42.88456" lon="0.98263">
        <ele>953.77</ele>
        <time>2019-01-06T08:02:08Z</time>
      </trkpt>
      <trkpt lat="42.88457" lon="0.98258">
        <ele>954.25</ele>
        <time>2019-01-06T08:02:13Z</time>
      </trkpt>
      <trkpt lat="42.88458" lon="0.98246">
        <ele>957.61</ele>
        <time>2019-01-06T08:02:27Z</time>
      </trkpt>
      <trkpt lat="42.88459" lon="0.98245">
        <ele>957.61</ele>
        <time>2019-01-06T08:02:28Z</time>
      </trkpt>
      <trkpt lat="42.88462" lon="0.9823">
        <ele>960.01</ele>
        <time>2019-01-06T08:02:40Z</time>
      </trkpt>
      <trkpt lat="42.88465" lon="0.98222">
        <ele>962.9</ele>
        <time>2019-01-06T08:02:52Z</time>
      </trkpt>
      <trkpt lat="42.88473" lon="0.98214">
        <ele>965.78</ele>
        <time>2019-01-06T08:03:06Z</time>
      </trkpt>
      <trkpt lat="42.88481" lon="0.98206">
        <ele>968.67</ele>
        <time>2019-01-06T08:03:20Z</time>
      </trkpt>
      <trkpt lat="42.88488" lon="0.98199">
        <ele>971.55</ele>
        <time>2019-01-06T08:03:37Z</time>
      </trkpt>
      <trkpt lat="42.88495" lon="0.9819">
        <ele>974.43</ele>
        <time>2019-01-06T08:03:52Z</time>
      </trkpt>
      <trkpt lat="42.88501" lon="0.9818">
        <ele>976.84</ele>
        <time>2019-01-06T08:04:07Z</time>
      </trkpt>
      <trkpt lat="42.88507" lon="0.98168">
        <ele>980.2</ele>
        <time>2019-01-06T08:04:27Z</time>
      </trkpt>
      <trkpt lat="42.88513" lon="0.98161">
        <ele>983.57</ele>
        <time>2019-01-06T08:04:43Z</time>
      </trkpt>
      <trkpt lat="42.88517" lon="0.9818">
        <ele>985.97</ele>
        <time>2019-01-06T08:05:03Z</time>
      </trkpt>
      <trkpt lat="42.88519" lon="0.98195">
        <ele>989.33</ele>
        <time>2019-01-06T08:05:18Z</time>
      </trkpt>
      <trkpt lat="42.88524" lon="0.98209">
        <ele>992.22</ele>
        <time>2019-01-06T08:05:33Z</time>
      </trkpt>
      <trkpt lat="42.88533" lon="0.98218">
        <ele>995.58</ele>
        <time>2019-01-06T08:05:48Z</time>
      </trkpt>
      <trkpt lat="42.88539" lon="0.98219">
        <ele>997.02</ele>
        <time>2019-01-06T08:05:56Z</time>
      </trkpt>
      <trkpt lat="42.8855" lon="0.98226">
        <ele>998.95</ele>
        <time>2019-01-06T08:06:09Z</time>
      </trkpt>
      <trkpt lat="42.8856" lon="0.98224">
        <ele>1002.31</ele>
        <time>2019-01-06T08:06:23Z</time>
      </trkpt>
      <trkpt lat="42.88572" lon="0.98223">
        <ele>1004.72</ele>
        <time>2019-01-06T08:06:40Z</time>
      </trkpt>
      <trkpt lat="42.88581" lon="0.98218">
        <ele>1006.64</ele>
        <time>2019-01-06T08:06:53Z</time>
      </trkpt>
      <trkpt lat="42.8859" lon="0.98216">
        <ele>1008.56</ele>
        <time>2019-01-06T08:07:05Z</time>
      </trkpt>
      <trkpt lat="42.88601" lon="0.98209">
        <ele>1011.44</ele>
        <time>2019-01-06T08:07:24Z</time>
      </trkpt>
      <trkpt lat="42.88607" lon="0.98201">
        <ele>1014.33</ele>
        <time>2019-01-06T08:07:42Z</time>
      </trkpt>
      <trkpt lat="42.88617" lon="0.98196">
        <ele>1017.21</ele>
        <time>2019-01-06T08:07:59Z</time>
      </trkpt>
      <trkpt lat="42.88622" lon="0.98192">
        <ele>1020.58</ele>
        <time>2019-01-06T08:08:12Z</time>
      </trkpt>
      <trkpt lat="42.88631" lon="0.98188">
        <ele>1023.46</ele>
        <time>2019-01-06T08:08:26Z</time>
      </trkpt>
      <trkpt lat="42.88635" lon="0.98185">
        <ele>1024.42</ele>
        <time>2019-01-06T08:08:29Z</time>
      </trkpt>
      <trkpt lat="42.88645" lon="0.98183">
        <ele>1027.31</ele>
        <time>2019-01-06T08:08:46Z</time>
      </trkpt>
      <trkpt lat="42.88659" lon="0.98177">
        <ele>1030.19</ele>
        <time>2019-01-06T08:09:06Z</time>
      </trkpt>
      <trkpt lat="42.88666" lon="0.98177">
        <ele>1032.11</ele>
        <time>2019-01-06T08:09:15Z</time>
      </trkpt>
      <trkpt lat="42.88675" lon="0.98177">
        <ele>1035.96</ele>
        <time>2019-01-06T08:09:30Z</time>
      </trkpt>
      <trkpt lat="42.88685" lon="0.98174">
        <ele>1038.84</ele>
        <time>2019-01-06T08:09:45Z</time>
      </trkpt>
      <trkpt lat="42.88695" lon="0.9817">
        <ele>1042.21</ele>
        <time>2019-01-06T08:10:03Z</time>
      </trkpt>
      <trkpt lat="42.88701" lon="0.98168">
        <ele>1045.09</ele>
        <time>2019-01-06T08:10:18Z</time>
      </trkpt>
      <trkpt lat="42.88708" lon="0.98168">
        <ele>1048.45</ele>
        <time>2019-01-06T08:10:33Z</time>
      </trkpt>
      <trkpt lat="42.88716" lon="0.98163">
        <ele>1051.34</ele>
        <time>2019-01-06T08:10:51Z</time>
      </trkpt>
      <trkpt lat="42.88727" lon="0.98168">
        <ele>1054.22</ele>
        <time>2019-01-06T08:11:08Z</time>
      </trkpt>
      <trkpt lat="42.88734" lon="0.98169">
        <ele>1057.59</ele>
        <time>2019-01-06T08:11:24Z</time>
      </trkpt>
      <trkpt lat="42.88737" lon="0.98161">
        <ele>1060.95</ele>
        <time>2019-01-06T08:11:37Z</time>
      </trkpt>
      <trkpt lat="42.88741" lon="0.9815">
        <ele>1064.32</ele>
        <time>2019-01-06T08:11:51Z</time>
      </trkpt>
      <trkpt lat="42.88744" lon="0.98137">
        <ele>1066.72</ele>
        <time>2019-01-06T08:12:06Z</time>
      </trkpt>
      <trkpt lat="42.88746" lon="0.98121">
        <ele>1068.64</ele>
        <time>2019-01-06T08:12:24Z</time>
      </trkpt>
      <trkpt lat="42.88749" lon="0.98104">
        <ele>1072.01</ele>
        <time>2019-01-06T08:12:40Z</time>
      </trkpt>
      <trkpt lat="42.88752" lon="0.98086">
        <ele>1074.41</ele>
        <time>2019-01-06T08:12:59Z</time>
      </trkpt>
      <trkpt lat="42.8875" lon="0.9807">
        <ele>1076.33</ele>
        <time>2019-01-06T08:13:16Z</time>
      </trkpt>
      <trkpt lat="42.88746" lon="0.98059">
        <ele>1076.81</ele>
        <time>2019-01-06T08:13:24Z</time>
      </trkpt>
      <trkpt lat="42.88745" lon="0.98055">
        <ele>1076.81</ele>
        <time>2019-01-06T08:13:28Z</time>
      </trkpt>
      <trkpt lat="42.8874" lon="0.9804">
        <ele>1077.78</ele>
        <time>2019-01-06T08:13:43Z</time>
      </trkpt>
      <trkpt lat="42.88738" lon="0.98032">
        <ele>1077.78</ele>
        <time>2019-01-06T08:13:50Z</time>
      </trkpt>
      <trkpt lat="42.88738" lon="0.98014">
        <ele>1079.22</ele>
        <time>2019-01-06T08:14:05Z</time>
      </trkpt>
      <trkpt lat="42.88735" lon="0.97996">
        <ele>1080.66</ele>
        <time>2019-01-06T08:14:20Z</time>
      </trkpt>
      <trkpt lat="42.88735" lon="0.97981">
        <ele>1084.02</ele>
        <time>2019-01-06T08:14:35Z</time>
      </trkpt>
      <trkpt lat="42.88734" lon="0.97967">
        <ele>1086.91</ele>
        <time>2019-01-06T08:14:52Z</time>
      </trkpt>
      <trkpt lat="42.88735" lon="0.97956">
        <ele>1089.31</ele>
        <time>2019-01-06T08:15:09Z</time>
      </trkpt>
      <trkpt lat="42.88737" lon="0.97943">
        <ele>1091.71</ele>
        <time>2019-01-06T08:15:22Z</time>
      </trkpt>
      <trkpt lat="42.88736" lon="0.97929">
        <ele>1094.6</ele>
        <time>2019-01-06T08:15:36Z</time>
      </trkpt>
      <trkpt lat="42.88735" lon="0.97916">
        <ele>1097.96</ele>
        <time>2019-01-06T08:15:54Z</time>
      </trkpt>
      <trkpt lat="42.88732" lon="0.97904">
        <ele>1100.85</ele>
        <time>2019-01-06T08:16:12Z</time>
      </trkpt>
      <trkpt lat="42.88733" lon="0.97893">
        <ele>1102.77</ele>
        <time>2019-01-06T08:16:27Z</time>
      </trkpt>
      <trkpt lat="42.88735" lon="0.97872">
        <ele>1105.65</ele>
        <time>2019-01-06T08:16:42Z</time>
      </trkpt>
      <trkpt lat="42.8874" lon="0.97859">
        <ele>1109.02</ele>
        <time>2019-01-06T08:16:55Z</time>
      </trkpt>
      <trkpt lat="42.88745" lon="0.97847">
        <ele>1111.9</ele>
        <time>2019-01-06T08:17:11Z</time>
      </trkpt>
      <trkpt lat="42.88749" lon="0.97834">
        <ele>1114.79</ele>
        <time>2019-01-06T08:17:31Z</time>
      </trkpt>
      <trkpt lat="42.8875" lon="0.97823">
        <ele>1118.15</ele>
        <time>2019-01-06T08:17:47Z</time>
      </trkpt>
      <trkpt lat="42.88749" lon="0.97806">
        <ele>1121.03</ele>
        <time>2019-01-06T08:18:07Z</time>
      </trkpt>
      <trkpt lat="42.88746" lon="0.97792">
        <ele>1124.4</ele>
        <time>2019-01-06T08:18:25Z</time>
      </trkpt>
      <trkpt lat="42.88746" lon="0.9778">
        <ele>1127.76</ele>
        <time>2019-01-06T08:18:41Z</time>
      </trkpt>
      <trkpt lat="42.88748" lon="0.97769">
        <ele>1130.17</ele>
        <time>2019-01-06T08:18:59Z</time>
      </trkpt>
      <trkpt lat="42.88752" lon="0.97766">
        <ele>1133.05</ele>
        <time>2019-01-06T08:19:25Z</time>
      </trkpt>
      <trkpt lat="42.88754" lon="0.97757">
        <ele>1134.49</ele>
        <time>2019-01-06T08:19:44Z</time>
      </trkpt>
      <trkpt lat="42.88757" lon="0.97747">
        <ele>1137.38</ele>
        <time>2019-01-06T08:19:58Z</time>
      </trkpt>
      <trkpt lat="42.88762" lon="0.97736">
        <ele>1139.78</ele>
        <time>2019-01-06T08:20:12Z</time>
      </trkpt>
      <trkpt lat="42.88764" lon="0.97722">
        <ele>1142.18</ele>
        <time>2019-01-06T08:20:29Z</time>
      </trkpt>
      <trkpt lat="42.88768" lon="0.97707">
        <ele>1144.59</ele>
        <time>2019-01-06T08:20:45Z</time>
      </trkpt>
      <trkpt lat="42.88772" lon="0.97705">
        <ele>1147.47</ele>
        <time>2019-01-06T08:21:06Z</time>
      </trkpt>
      <trkpt lat="42.88776" lon="0.97692">
        <ele>1148.43</ele>
        <time>2019-01-06T08:21:21Z</time>
      </trkpt>
      <trkpt lat="42.88781" lon="0.97678">
        <ele>1151.8</ele>
        <time>2019-01-06T08:21:36Z</time>
      </trkpt>
      <trkpt lat="42.88786" lon="0.97665">
        <ele>1154.68</ele>
        <time>2019-01-06T08:21:52Z</time>
      </trkpt>
      <trkpt lat="42.8879" lon="0.97653">
        <ele>1157.56</ele>
        <time>2019-01-06T08:22:06Z</time>
      </trkpt>
      <trkpt lat="42.88795" lon="0.97645">
        <ele>1160.93</ele>
        <time>2019-01-06T08:22:19Z</time>
      </trkpt>
      <trkpt lat="42.88801" lon="0.97632">
        <ele>1164.29</ele>
        <time>2019-01-06T08:22:36Z</time>
      </trkpt>
      <trkpt lat="42.88807" lon="0.9762">
        <ele>1167.18</ele>
        <time>2019-01-06T08:22:51Z</time>
      </trkpt>
      <trkpt lat="42.88813" lon="0.97607">
        <ele>1170.54</ele>
        <time>2019-01-06T08:23:07Z</time>
      </trkpt>
      <trkpt lat="42.88821" lon="0.97594">
        <ele>1173.91</ele>
        <time>2019-01-06T08:23:24Z</time>
      </trkpt>
      <trkpt lat="42.88827" lon="0.97583">
        <ele>1176.79</ele>
        <time>2019-01-06T08:23:42Z</time>
      </trkpt>
      <trkpt lat="42.88836" lon="0.97571">
        <ele>1179.67</ele>
        <time>2019-01-06T08:24:00Z</time>
      </trkpt>
      <trkpt lat="42.88837" lon="0.9757">
        <ele>1181.6</ele>
        <time>2019-01-06T08:24:18Z</time>
      </trkpt>
      <trkpt lat="42.88834" lon="0.97583">
        <ele>1181.6</ele>
        <time>2019-01-06T08:24:55Z</time>
      </trkpt>
      <trkpt lat="42.88839" lon="0.97572">
        <ele>1182.56</ele>
        <time>2019-01-06T08:25:38Z</time>
      </trkpt>
      <trkpt lat="42.88844" lon="0.97565">
        <ele>1181.6</ele>
        <time>2019-01-06T08:26:19Z</time>
      </trkpt>
      <trkpt lat="42.88835" lon="0.97563">
        <ele>1182.56</ele>
        <time>2019-01-06T08:26:57Z</time>
      </trkpt>
      <trkpt lat="42.88838" lon="0.97556">
        <ele>1183.04</ele>
        <time>2019-01-06T08:27:18Z</time>
      </trkpt>
      <trkpt lat="42.88845" lon="0.97542">
        <ele>1184.96</ele>
        <time>2019-01-06T08:27:33Z</time>
      </trkpt>
      <trkpt lat="42.88846" lon="0.97541">
        <ele>1184.96</ele>
        <time>2019-01-06T08:27:34Z</time>
      </trkpt>
      <trkpt lat="42.88851" lon="0.97528">
        <ele>1188.33</ele>
        <time>2019-01-06T08:27:46Z</time>
      </trkpt>
      <trkpt lat="42.88857" lon="0.97516">
        <ele>1190.73</ele>
        <time>2019-01-06T08:27:59Z</time>
      </trkpt>
      <trkpt lat="42.88861" lon="0.97506">
        <ele>1193.61</ele>
        <time>2019-01-06T08:28:12Z</time>
      </trkpt>
      <trkpt lat="42.88866" lon="0.97492">
        <ele>1196.5</ele>
        <time>2019-01-06T08:28:27Z</time>
      </trkpt>
      <trkpt lat="42.88871" lon="0.97482">
        <ele>1197.46</ele>
        <time>2019-01-06T08:28:33Z</time>
      </trkpt>
      <trkpt lat="42.88882" lon="0.97476">
        <ele>1199.38</ele>
        <time>2019-01-06T08:28:44Z</time>
      </trkpt>
      <trkpt lat="42.88889" lon="0.97475">
        <ele>1201.3</ele>
        <time>2019-01-06T08:28:56Z</time>
      </trkpt>
      <trkpt lat="42.88897" lon="0.97481">
        <ele>1204.67</ele>
        <time>2019-01-06T08:29:13Z</time>
      </trkpt>
      <trkpt lat="42.88906" lon="0.97487">
        <ele>1207.07</ele>
        <time>2019-01-06T08:29:26Z</time>
      </trkpt>
      <trkpt lat="42.88907" lon="0.97488">
        <ele>1207.55</ele>
        <time>2019-01-06T08:29:27Z</time>
      </trkpt>
      <trkpt lat="42.88923" lon="0.97496">
        <ele>1210.44</ele>
        <time>2019-01-06T08:29:45Z</time>
      </trkpt>
      <trkpt lat="42.88929" lon="0.97503">
        <ele>1213.32</ele>
        <time>2019-01-06T08:29:58Z</time>
      </trkpt>
      <trkpt lat="42.88938" lon="0.9751">
        <ele>1216.69</ele>
        <time>2019-01-06T08:30:11Z</time>
      </trkpt>
      <trkpt lat="42.88945" lon="0.9751">
        <ele>1218.61</ele>
        <time>2019-01-06T08:30:20Z</time>
      </trkpt>
      <trkpt lat="42.88958" lon="0.9751">
        <ele>1221.01</ele>
        <time>2019-01-06T08:30:35Z</time>
      </trkpt>
      <trkpt lat="42.88969" lon="0.9751">
        <ele>1224.38</ele>
        <time>2019-01-06T08:30:52Z</time>
      </trkpt>
      <trkpt lat="42.88979" lon="0.97511">
        <ele>1227.26</ele>
        <time>2019-01-06T08:31:06Z</time>
      </trkpt>
      <trkpt lat="42.88989" lon="0.97509">
        <ele>1230.14</ele>
        <time>2019-01-06T08:31:21Z</time>
      </trkpt>
      <trkpt lat="42.88989" lon="0.97525">
        <ele>1233.51</ele>
        <time>2019-01-06T08:31:36Z</time>
      </trkpt>
      <trkpt lat="42.88985" lon="0.97538">
        <ele>1236.39</ele>
        <time>2019-01-06T08:31:52Z</time>
      </trkpt>
      <trkpt lat="42.88981" lon="0.97553">
        <ele>1239.76</ele>
        <time>2019-01-06T08:32:09Z</time>
      </trkpt>
      <trkpt lat="42.8898" lon="0.97555">
        <ele>1240.24</ele>
        <time>2019-01-06T08:32:11Z</time>
      </trkpt>
      <trkpt lat="42.88976" lon="0.97567">
        <ele>1242.16</ele>
        <time>2019-01-06T08:32:23Z</time>
      </trkpt>
      <trkpt lat="42.88973" lon="0.97578">
        <ele>1246.01</ele>
        <time>2019-01-06T08:32:37Z</time>
      </trkpt>
      <trkpt lat="42.88972" lon="0.97592">
        <ele>1247.93</ele>
        <time>2019-01-06T08:32:51Z</time>
      </trkpt>
      <trkpt lat="42.8897" lon="0.97595">
        <ele>1249.37</ele>
        <time>2019-01-06T08:33:18Z</time>
      </trkpt>
      <trkpt lat="42.88968" lon="0.97594">
        <ele>1249.37</ele>
        <time>2019-01-06T08:34:09Z</time>
      </trkpt>
      <trkpt lat="42.88969" lon="0.97598">
        <ele>1249.37</ele>
        <time>2019-01-06T08:34:49Z</time>
      </trkpt>
      <trkpt lat="42.88969" lon="0.97597">
        <ele>1249.85</ele>
        <time>2019-01-06T08:35:05Z</time>
      </trkpt>
      <trkpt lat="42.8897" lon="0.97596">
        <ele>1249.85</ele>
        <time>2019-01-06T08:35:29Z</time>
      </trkpt>
      <trkpt lat="42.88971" lon="0.976">
        <ele>1249.37</ele>
        <time>2019-01-06T08:35:48Z</time>
      </trkpt>
      <trkpt lat="42.88974" lon="0.97604">
        <ele>1249.37</ele>
        <time>2019-01-06T08:35:52Z</time>
      </trkpt>
      <trkpt lat="42.88979" lon="0.97612">
        <ele>1249.85</ele>
        <time>2019-01-06T08:35:58Z</time>
      </trkpt>
      <trkpt lat="42.8899" lon="0.97627">
        <ele>1252.25</ele>
        <time>2019-01-06T08:36:10Z</time>
      </trkpt>
      <trkpt lat="42.88996" lon="0.97649">
        <ele>1255.62</ele>
        <time>2019-01-06T08:36:26Z</time>
      </trkpt>
      <trkpt lat="42.89001" lon="0.97661">
        <ele>1257.54</ele>
        <time>2019-01-06T08:36:39Z</time>
      </trkpt>
      <trkpt lat="42.89005" lon="0.97674">
        <ele>1258.98</ele>
        <time>2019-01-06T08:36:51Z</time>
      </trkpt>
      <trkpt lat="42.89011" lon="0.97691">
        <ele>1261.39</ele>
        <time>2019-01-06T08:37:06Z</time>
      </trkpt>
      <trkpt lat="42.89015" lon="0.9771">
        <ele>1263.79</ele>
        <time>2019-01-06T08:37:22Z</time>
      </trkpt>
      <trkpt lat="42.89016" lon="0.97715">
        <ele>1264.27</ele>
        <time>2019-01-06T08:37:27Z</time>
      </trkpt>
      <trkpt lat="42.89019" lon="0.97722">
        <ele>1264.75</ele>
        <time>2019-01-06T08:37:33Z</time>
      </trkpt>
      <trkpt lat="42.89025" lon="0.97736">
        <ele>1266.67</ele>
        <time>2019-01-06T08:37:46Z</time>
      </trkpt>
      <trkpt lat="42.89032" lon="0.97747">
        <ele>1268.12</ele>
        <time>2019-01-06T08:37:59Z</time>
      </trkpt>
      <trkpt lat="42.89038" lon="0.97759">
        <ele>1270.04</ele>
        <time>2019-01-06T08:38:12Z</time>
      </trkpt>
      <trkpt lat="42.89039" lon="0.97762">
        <ele>1270.04</ele>
        <time>2019-01-06T08:38:15Z</time>
      </trkpt>
      <trkpt lat="42.89041" lon="0.97765">
        <ele>1270.52</ele>
        <time>2019-01-06T08:38:18Z</time>
      </trkpt>
      <trkpt lat="42.89048" lon="0.97779">
        <ele>1271.96</ele>
        <time>2019-01-06T08:38:31Z</time>
      </trkpt>
      <trkpt lat="42.89053" lon="0.97791">
        <ele>1273.88</ele>
        <time>2019-01-06T08:38:43Z</time>
      </trkpt>
      <trkpt lat="42.89056" lon="0.97795">
        <ele>1274.36</ele>
        <time>2019-01-06T08:38:47Z</time>
      </trkpt>
      <trkpt lat="42.89059" lon="0.978">
        <ele>1274.85</ele>
        <time>2019-01-06T08:38:52Z</time>
      </trkpt>
      <trkpt lat="42.89065" lon="0.97813">
        <ele>1277.25</ele>
        <time>2019-01-06T08:39:06Z</time>
      </trkpt>
      <trkpt lat="42.89066" lon="0.97814">
        <ele>1277.73</ele>
        <time>2019-01-06T08:39:08Z</time>
      </trkpt>
      <trkpt lat="42.89073" lon="0.97827">
        <ele>1280.61</ele>
        <time>2019-01-06T08:39:21Z</time>
      </trkpt>
      <trkpt lat="42.89073" lon="0.97829">
        <ele>1280.61</ele>
        <time>2019-01-06T08:39:22Z</time>
      </trkpt>
      <trkpt lat="42.89075" lon="0.97832">
        <ele>1281.57</ele>
        <time>2019-01-06T08:39:25Z</time>
      </trkpt>
      <trkpt lat="42.89082" lon="0.97842">
        <ele>1283.5</ele>
        <time>2019-01-06T08:39:39Z</time>
      </trkpt>
      <trkpt lat="42.89086" lon="0.97846">
        <ele>1284.94</ele>
        <time>2019-01-06T08:39:46Z</time>
      </trkpt>
      <trkpt lat="42.8909" lon="0.97849">
        <ele>1285.9</ele>
        <time>2019-01-06T08:39:53Z</time>
      </trkpt>
      <trkpt lat="42.89098" lon="0.97857">
        <ele>1288.3</ele>
        <time>2019-01-06T08:40:05Z</time>
      </trkpt>
      <trkpt lat="42.89103" lon="0.97864">
        <ele>1290.71</ele>
        <time>2019-01-06T08:40:16Z</time>
      </trkpt>
      <trkpt lat="42.89113" lon="0.97875">
        <ele>1293.59</ele>
        <time>2019-01-06T08:40:32Z</time>
      </trkpt>
      <trkpt lat="42.8912" lon="0.97886">
        <ele>1295.99</ele>
        <time>2019-01-06T08:40:47Z</time>
      </trkpt>
      <trkpt lat="42.89127" lon="0.97898">
        <ele>1299.36</ele>
        <time>2019-01-06T08:41:01Z</time>
      </trkpt>
      <trkpt lat="42.89134" lon="0.97908">
        <ele>1301.76</ele>
        <time>2019-01-06T08:41:15Z</time>
      </trkpt>
      <trkpt lat="42.89137" lon="0.97921">
        <ele>1304.17</ele>
        <time>2019-01-06T08:41:29Z</time>
      </trkpt>
      <trkpt lat="42.89143" lon="0.97933">
        <ele>1306.57</ele>
        <time>2019-01-06T08:41:44Z</time>
      </trkpt>
      <trkpt lat="42.89151" lon="0.97941">
        <ele>1309.93</ele>
        <time>2019-01-06T08:41:57Z</time>
      </trkpt>
      <trkpt lat="42.89156" lon="0.97953">
        <ele>1312.34</ele>
        <time>2019-01-06T08:42:13Z</time>
      </trkpt>
      <trkpt lat="42.89164" lon="0.97964">
        <ele>1314.74</ele>
        <time>2019-01-06T08:42:26Z</time>
      </trkpt>
      <trkpt lat="42.89171" lon="0.97977">
        <ele>1317.62</ele>
        <time>2019-01-06T08:42:43Z</time>
      </trkpt>
      <trkpt lat="42.89177" lon="0.97988">
        <ele>1319.55</ele>
        <time>2019-01-06T08:42:56Z</time>
      </trkpt>
      <trkpt lat="42.89184" lon="0.97999">
        <ele>1322.43</ele>
        <time>2019-01-06T08:43:11Z</time>
      </trkpt>
      <trkpt lat="42.8919" lon="0.98007">
        <ele>1324.35</ele>
        <time>2019-01-06T08:43:21Z</time>
      </trkpt>
      <trkpt lat="42.89195" lon="0.98018">
        <ele>1326.76</ele>
        <time>2019-01-06T08:43:35Z</time>
      </trkpt>
      <trkpt lat="42.89203" lon="0.98029">
        <ele>1329.16</ele>
        <time>2019-01-06T08:43:49Z</time>
      </trkpt>
      <trkpt lat="42.89205" lon="0.9803">
        <ele>1329.16</ele>
        <time>2019-01-06T08:43:51Z</time>
      </trkpt>
      <trkpt lat="42.89215" lon="0.9804">
        <ele>1332.52</ele>
        <time>2019-01-06T08:44:08Z</time>
      </trkpt>
      <trkpt lat="42.89226" lon="0.98051">
        <ele>1335.41</ele>
        <time>2019-01-06T08:44:23Z</time>
      </trkpt>
      <trkpt lat="42.8923" lon="0.98055">
        <ele>1336.37</ele>
        <time>2019-01-06T08:44:30Z</time>
      </trkpt>
      <trkpt lat="42.89238" lon="0.98062">
        <ele>1338.77</ele>
        <time>2019-01-06T08:44:41Z</time>
      </trkpt>
      <trkpt lat="42.89247" lon="0.98071">
        <ele>1342.14</ele>
        <time>2019-01-06T08:44:56Z</time>
      </trkpt>
      <trkpt lat="42.89249" lon="0.98072">
        <ele>1342.62</ele>
        <time>2019-01-06T08:44:58Z</time>
      </trkpt>
      <trkpt lat="42.89258" lon="0.98079">
        <ele>1345.02</ele>
        <time>2019-01-06T08:45:11Z</time>
      </trkpt>
      <trkpt lat="42.89266" lon="0.98087">
        <ele>1347.43</ele>
        <time>2019-01-06T08:45:26Z</time>
      </trkpt>
      <trkpt lat="42.89277" lon="0.98098">
        <ele>1349.83</ele>
        <time>2019-01-06T08:45:41Z</time>
      </trkpt>
      <trkpt lat="42.89278" lon="0.981">
        <ele>1350.79</ele>
        <time>2019-01-06T08:45:44Z</time>
      </trkpt>
      <trkpt lat="42.89288" lon="0.98103">
        <ele>1352.71</ele>
        <time>2019-01-06T08:45:57Z</time>
      </trkpt>
      <trkpt lat="42.89295" lon="0.98109">
        <ele>1354.63</ele>
        <time>2019-01-06T08:46:10Z</time>
      </trkpt>
      <trkpt lat="42.89305" lon="0.98116">
        <ele>1357.04</ele>
        <time>2019-01-06T08:46:24Z</time>
      </trkpt>
      <trkpt lat="42.8931" lon="0.98118">
        <ele>1358</ele>
        <time>2019-01-06T08:46:30Z</time>
      </trkpt>
      <trkpt lat="42.89315" lon="0.98121">
        <ele>1358.48</ele>
        <time>2019-01-06T08:46:35Z</time>
      </trkpt>
      <trkpt lat="42.89326" lon="0.98131">
        <ele>1360.4</ele>
        <time>2019-01-06T08:46:48Z</time>
      </trkpt>
      <trkpt lat="42.89333" lon="0.98137">
        <ele>1362.81</ele>
        <time>2019-01-06T08:46:59Z</time>
      </trkpt>
      <trkpt lat="42.89336" lon="0.98138">
        <ele>1363.29</ele>
        <time>2019-01-06T08:47:02Z</time>
      </trkpt>
      <trkpt lat="42.89345" lon="0.98141">
        <ele>1365.21</ele>
        <time>2019-01-06T08:47:12Z</time>
      </trkpt>
      <trkpt lat="42.8935" lon="0.98143">
        <ele>1365.69</ele>
        <time>2019-01-06T08:47:16Z</time>
      </trkpt>
      <trkpt lat="42.89356" lon="0.98143">
        <ele>1366.65</ele>
        <time>2019-01-06T08:47:23Z</time>
      </trkpt>
      <trkpt lat="42.89359" lon="0.98144">
        <ele>1367.13</ele>
        <time>2019-01-06T08:47:25Z</time>
      </trkpt>
      <trkpt lat="42.89368" lon="0.98144">
        <ele>1369.54</ele>
        <time>2019-01-06T08:47:38Z</time>
      </trkpt>
      <trkpt lat="42.89371" lon="0.98143">
        <ele>1370.02</ele>
        <time>2019-01-06T08:47:41Z</time>
      </trkpt>
      <trkpt lat="42.89383" lon="0.9814">
        <ele>1373.38</ele>
        <time>2019-01-06T08:47:57Z</time>
      </trkpt>
      <trkpt lat="42.89392" lon="0.98133">
        <ele>1375.3</ele>
        <time>2019-01-06T08:48:12Z</time>
      </trkpt>
      <trkpt lat="42.89393" lon="0.98131">
        <ele>1376.75</ele>
        <time>2019-01-06T08:48:36Z</time>
      </trkpt>
      <trkpt lat="42.89397" lon="0.98126">
        <ele>1377.23</ele>
        <time>2019-01-06T08:49:34Z</time>
      </trkpt>
      <trkpt lat="42.89397" lon="0.98125">
        <ele>1377.23</ele>
        <time>2019-01-06T08:49:35Z</time>
      </trkpt>
      <trkpt lat="42.89398" lon="0.98123">
        <ele>1377.23</ele>
        <time>2019-01-06T08:49:37Z</time>
      </trkpt>
      <trkpt lat="42.89402" lon="0.98104">
        <ele>1380.11</ele>
        <time>2019-01-06T08:49:55Z</time>
      </trkpt>
      <trkpt lat="42.89401" lon="0.98102">
        <ele>1380.59</ele>
        <time>2019-01-06T08:49:58Z</time>
      </trkpt>
      <trkpt lat="42.894" lon="0.98102">
        <ele>1382.99</ele>
        <time>2019-01-06T08:50:15Z</time>
      </trkpt>
      <trkpt lat="42.89402" lon="0.98099">
        <ele>1382.99</ele>
        <time>2019-01-06T08:50:34Z</time>
      </trkpt>
      <trkpt lat="42.89405" lon="0.98097">
        <ele>1382.99</ele>
        <time>2019-01-06T08:50:45Z</time>
      </trkpt>
      <trkpt lat="42.8941" lon="0.9809">
        <ele>1383.47</ele>
        <time>2019-01-06T08:51:00Z</time>
      </trkpt>
      <trkpt lat="42.89411" lon="0.98086">
        <ele>1384.44</ele>
        <time>2019-01-06T08:51:07Z</time>
      </trkpt>
      <trkpt lat="42.8942" lon="0.98063">
        <ele>1386.36</ele>
        <time>2019-01-06T08:51:25Z</time>
      </trkpt>
      <trkpt lat="42.89424" lon="0.98049">
        <ele>1387.8</ele>
        <time>2019-01-06T08:51:39Z</time>
      </trkpt>
      <trkpt lat="42.89426" lon="0.98032">
        <ele>1389.24</ele>
        <time>2019-01-06T08:51:54Z</time>
      </trkpt>
      <trkpt lat="42.8943" lon="0.9802">
        <ele>1391.17</ele>
        <time>2019-01-06T08:52:10Z</time>
      </trkpt>
      <trkpt lat="42.89428" lon="0.9801">
        <ele>1392.61</ele>
        <time>2019-01-06T08:52:19Z</time>
      </trkpt>
      <trkpt lat="42.89427" lon="0.97999">
        <ele>1394.53</ele>
        <time>2019-01-06T08:52:31Z</time>
      </trkpt>
      <trkpt lat="42.89428" lon="0.97986">
        <ele>1397.41</ele>
        <time>2019-01-06T08:52:46Z</time>
      </trkpt>
      <trkpt lat="42.89428" lon="0.97976">
        <ele>1399.82</ele>
        <time>2019-01-06T08:53:02Z</time>
      </trkpt>
      <trkpt lat="42.89429" lon="0.97963">
        <ele>1401.26</ele>
        <time>2019-01-06T08:53:17Z</time>
      </trkpt>
      <trkpt lat="42.89429" lon="0.97949">
        <ele>1404.62</ele>
        <time>2019-01-06T08:53:32Z</time>
      </trkpt>
      <trkpt lat="42.89429" lon="0.9794">
        <ele>1407.03</ele>
        <time>2019-01-06T08:53:50Z</time>
      </trkpt>
      <trkpt lat="42.89425" lon="0.97932">
        <ele>1409.91</ele>
        <time>2019-01-06T08:54:05Z</time>
      </trkpt>
      <trkpt lat="42.89425" lon="0.97931">
        <ele>1410.87</ele>
        <time>2019-01-06T08:54:31Z</time>
      </trkpt>
      <trkpt lat="42.89426" lon="0.97928">
        <ele>1411.35</ele>
        <time>2019-01-06T08:55:00Z</time>
      </trkpt>
      <trkpt lat="42.89426" lon="0.97926">
        <ele>1411.83</ele>
        <time>2019-01-06T08:55:14Z</time>
      </trkpt>
      <trkpt lat="42.89426" lon="0.97927">
        <ele>1411.83</ele>
        <time>2019-01-06T08:55:56Z</time>
      </trkpt>
      <trkpt lat="42.89427" lon="0.97923">
        <ele>1412.31</ele>
        <time>2019-01-06T08:56:42Z</time>
      </trkpt>
      <trkpt lat="42.89428" lon="0.9791">
        <ele>1413.28</ele>
        <time>2019-01-06T08:56:58Z</time>
      </trkpt>
      <trkpt lat="42.89427" lon="0.97899">
        <ele>1415.68</ele>
        <time>2019-01-06T08:57:12Z</time>
      </trkpt>
      <trkpt lat="42.89428" lon="0.97887">
        <ele>1418.08</ele>
        <time>2019-01-06T08:57:29Z</time>
      </trkpt>
      <trkpt lat="42.89429" lon="0.97872">
        <ele>1420.49</ele>
        <time>2019-01-06T08:57:46Z</time>
      </trkpt>
      <trkpt lat="42.89427" lon="0.97856">
        <ele>1423.37</ele>
        <time>2019-01-06T08:58:03Z</time>
      </trkpt>
      <trkpt lat="42.89427" lon="0.97842">
        <ele>1426.25</ele>
        <time>2019-01-06T08:58:20Z</time>
      </trkpt>
      <trkpt lat="42.89428" lon="0.97827">
        <ele>1429.62</ele>
        <time>2019-01-06T08:58:36Z</time>
      </trkpt>
      <trkpt lat="42.89429" lon="0.97813">
        <ele>1432.5</ele>
        <time>2019-01-06T08:58:53Z</time>
      </trkpt>
      <trkpt lat="42.8943" lon="0.97802">
        <ele>1435.39</ele>
        <time>2019-01-06T08:59:06Z</time>
      </trkpt>
      <trkpt lat="42.89429" lon="0.97787">
        <ele>1437.79</ele>
        <time>2019-01-06T08:59:21Z</time>
      </trkpt>
      <trkpt lat="42.89431" lon="0.97774">
        <ele>1440.67</ele>
        <time>2019-01-06T08:59:38Z</time>
      </trkpt>
      <trkpt lat="42.89434" lon="0.97758">
        <ele>1443.56</ele>
        <time>2019-01-06T08:59:55Z</time>
      </trkpt>
      <trkpt lat="42.89436" lon="0.9774">
        <ele>1446.92</ele>
        <time>2019-01-06T09:00:13Z</time>
      </trkpt>
      <trkpt lat="42.89437" lon="0.97735">
        <ele>1447.4</ele>
        <time>2019-01-06T09:00:17Z</time>
      </trkpt>
      <trkpt lat="42.89445" lon="0.97709">
        <ele>1450.29</ele>
        <time>2019-01-06T09:00:38Z</time>
      </trkpt>
      <trkpt lat="42.89452" lon="0.97689">
        <ele>1453.65</ele>
        <time>2019-01-06T09:00:54Z</time>
      </trkpt>
      <trkpt lat="42.89456" lon="0.97674">
        <ele>1456.05</ele>
        <time>2019-01-06T09:01:13Z</time>
      </trkpt>
      <trkpt lat="42.89461" lon="0.97676">
        <ele>1457.02</ele>
        <time>2019-01-06T09:01:25Z</time>
      </trkpt>
      <trkpt lat="42.89464" lon="0.97684">
        <ele>1458.46</ele>
        <time>2019-01-06T09:01:33Z</time>
      </trkpt>
      <trkpt lat="42.89472" lon="0.97698">
        <ele>1460.38</ele>
        <time>2019-01-06T09:01:45Z</time>
      </trkpt>
      <trkpt lat="42.89473" lon="0.977">
        <ele>1460.86</ele>
        <time>2019-01-06T09:01:47Z</time>
      </trkpt>
      <trkpt lat="42.89478" lon="0.97713">
        <ele>1463.74</ele>
        <time>2019-01-06T09:02:00Z</time>
      </trkpt>
      <trkpt lat="42.89485" lon="0.97727">
        <ele>1465.67</ele>
        <time>2019-01-06T09:02:13Z</time>
      </trkpt>
      <trkpt lat="42.89492" lon="0.97733">
        <ele>1468.07</ele>
        <time>2019-01-06T09:02:25Z</time>
      </trkpt>
      <trkpt lat="42.89497" lon="0.97739">
        <ele>1471.44</ele>
        <time>2019-01-06T09:02:39Z</time>
      </trkpt>
      <trkpt lat="42.89501" lon="0.97737">
        <ele>1473.36</ele>
        <time>2019-01-06T09:02:57Z</time>
      </trkpt>
      <trkpt lat="42.89504" lon="0.97723">
        <ele>1476.24</ele>
        <time>2019-01-06T09:03:14Z</time>
      </trkpt>
      <trkpt lat="42.89508" lon="0.97711">
        <ele>1478.65</ele>
        <time>2019-01-06T09:03:30Z</time>
      </trkpt>
      <trkpt lat="42.89511" lon="0.977">
        <ele>1482.01</ele>
        <time>2019-01-06T09:03:42Z</time>
      </trkpt>
      <trkpt lat="42.89513" lon="0.97684">
        <ele>1484.89</ele>
        <time>2019-01-06T09:03:58Z</time>
      </trkpt>
      <trkpt lat="42.8952" lon="0.97668">
        <ele>1487.78</ele>
        <time>2019-01-06T09:04:16Z</time>
      </trkpt>
      <trkpt lat="42.89522" lon="0.97658">
        <ele>1490.66</ele>
        <time>2019-01-06T09:04:28Z</time>
      </trkpt>
      <trkpt lat="42.89521" lon="0.97655">
        <ele>1493.06</ele>
        <time>2019-01-06T09:04:52Z</time>
      </trkpt>
      <trkpt lat="42.8952" lon="0.97648">
        <ele>1493.06</ele>
        <time>2019-01-06T09:05:13Z</time>
      </trkpt>
      <trkpt lat="42.89522" lon="0.97637">
        <ele>1495.47</ele>
        <time>2019-01-06T09:05:30Z</time>
      </trkpt>
      <trkpt lat="42.89523" lon="0.9763">
        <ele>1497.39</ele>
        <time>2019-01-06T09:05:45Z</time>
      </trkpt>
      <trkpt lat="42.89526" lon="0.97618">
        <ele>1499.79</ele>
        <time>2019-01-06T09:06:02Z</time>
      </trkpt>
      <trkpt lat="42.89529" lon="0.97606">
        <ele>1502.68</ele>
        <time>2019-01-06T09:06:18Z</time>
      </trkpt>
      <trkpt lat="42.8953" lon="0.97593">
        <ele>1505.56</ele>
        <time>2019-01-06T09:06:34Z</time>
      </trkpt>
      <trkpt lat="42.89531" lon="0.97584">
        <ele>1509.41</ele>
        <time>2019-01-06T09:06:50Z</time>
      </trkpt>
      <trkpt lat="42.89529" lon="0.97572">
        <ele>1512.29</ele>
        <time>2019-01-06T09:07:05Z</time>
      </trkpt>
      <trkpt lat="42.89528" lon="0.97562">
        <ele>1513.73</ele>
        <time>2019-01-06T09:07:20Z</time>
      </trkpt>
      <trkpt lat="42.89528" lon="0.97551">
        <ele>1516.62</ele>
        <time>2019-01-06T09:07:34Z</time>
      </trkpt>
      <trkpt lat="42.89528" lon="0.97545">
        <ele>1519.5</ele>
        <time>2019-01-06T09:07:51Z</time>
      </trkpt>
      <trkpt lat="42.89529" lon="0.9754">
        <ele>1522.39</ele>
        <time>2019-01-06T09:08:07Z</time>
      </trkpt>
      <trkpt lat="42.89526" lon="0.97527">
        <ele>1524.79</ele>
        <time>2019-01-06T09:08:27Z</time>
      </trkpt>
      <trkpt lat="42.89524" lon="0.97513">
        <ele>1527.67</ele>
        <time>2019-01-06T09:08:40Z</time>
      </trkpt>
      <trkpt lat="42.89523" lon="0.975">
        <ele>1530.08</ele>
        <time>2019-01-06T09:08:57Z</time>
      </trkpt>
      <trkpt lat="42.89523" lon="0.97498">
        <ele>1531.04</ele>
        <time>2019-01-06T09:09:00Z</time>
      </trkpt>
      <trkpt lat="42.89524" lon="0.97487">
        <ele>1532.96</ele>
        <time>2019-01-06T09:09:22Z</time>
      </trkpt>
      <trkpt lat="42.89525" lon="0.97481">
        <ele>1534.88</ele>
        <time>2019-01-06T09:09:34Z</time>
      </trkpt>
      <trkpt lat="42.89527" lon="0.97473">
        <ele>1535.36</ele>
        <time>2019-01-06T09:09:42Z</time>
      </trkpt>
      <trkpt lat="42.8953" lon="0.97462">
        <ele>1535.84</ele>
        <time>2019-01-06T09:09:52Z</time>
      </trkpt>
      <trkpt lat="42.8953" lon="0.97458">
        <ele>1536.32</ele>
        <time>2019-01-06T09:09:58Z</time>
      </trkpt>
      <trkpt lat="42.89539" lon="0.97447">
        <ele>1537.29</ele>
        <time>2019-01-06T09:10:09Z</time>
      </trkpt>
      <trkpt lat="42.89543" lon="0.97437">
        <ele>1539.69</ele>
        <time>2019-01-06T09:10:19Z</time>
      </trkpt>
      <trkpt lat="42.89544" lon="0.97435">
        <ele>1540.17</ele>
        <time>2019-01-06T09:10:20Z</time>
      </trkpt>
      <trkpt lat="42.89542" lon="0.97432">
        <ele>1541.61</ele>
        <time>2019-01-06T09:10:28Z</time>
      </trkpt>
      <trkpt lat="42.89546" lon="0.97428">
        <ele>1543.05</ele>
        <time>2019-01-06T09:10:34Z</time>
      </trkpt>
      <trkpt lat="42.89548" lon="0.97423">
        <ele>1543.53</ele>
        <time>2019-01-06T09:10:38Z</time>
      </trkpt>
      <trkpt lat="42.89545" lon="0.9742">
        <ele>1545.46</ele>
        <time>2019-01-06T09:10:48Z</time>
      </trkpt>
      <trkpt lat="42.89546" lon="0.9742">
        <ele>1548.34</ele>
        <time>2019-01-06T09:11:04Z</time>
      </trkpt>
      <trkpt lat="42.89549" lon="0.97409">
        <ele>1551.22</ele>
        <time>2019-01-06T09:11:19Z</time>
      </trkpt>
      <trkpt lat="42.89555" lon="0.97398">
        <ele>1553.15</ele>
        <time>2019-01-06T09:11:36Z</time>
      </trkpt>
      <trkpt lat="42.89556" lon="0.97389">
        <ele>1555.55</ele>
        <time>2019-01-06T09:11:50Z</time>
      </trkpt>
      <trkpt lat="42.89556" lon="0.97382">
        <ele>1556.99</ele>
        <time>2019-01-06T09:12:03Z</time>
      </trkpt>
      <trkpt lat="42.8956" lon="0.97368">
        <ele>1559.4</ele>
        <time>2019-01-06T09:12:25Z</time>
      </trkpt>
      <trkpt lat="42.89558" lon="0.97366">
        <ele>1559.88</ele>
        <time>2019-01-06T09:12:56Z</time>
      </trkpt>
      <trkpt lat="42.89557" lon="0.97367">
        <ele>1560.36</ele>
        <time>2019-01-06T09:14:00Z</time>
      </trkpt>
      <trkpt lat="42.89554" lon="0.97362">
        <ele>1559.88</ele>
        <time>2019-01-06T09:14:33Z</time>
      </trkpt>
      <trkpt lat="42.89552" lon="0.97373">
        <ele>1559.88</ele>
        <time>2019-01-06T09:15:16Z</time>
      </trkpt>
      <trkpt lat="42.89563" lon="0.97388">
        <ele>1563.24</ele>
        <time>2019-01-06T09:15:34Z</time>
      </trkpt>
      <trkpt lat="42.89563" lon="0.97393">
        <ele>1566.61</ele>
        <time>2019-01-06T09:15:46Z</time>
      </trkpt>
      <trkpt lat="42.89565" lon="0.97402">
        <ele>1567.57</ele>
        <time>2019-01-06T09:16:03Z</time>
      </trkpt>
      <trkpt lat="42.89566" lon="0.9741">
        <ele>1569.97</ele>
        <time>2019-01-06T09:16:23Z</time>
      </trkpt>
      <trkpt lat="42.8957" lon="0.97421">
        <ele>1572.85</ele>
        <time>2019-01-06T09:16:41Z</time>
      </trkpt>
      <trkpt lat="42.89574" lon="0.97427">
        <ele>1575.26</ele>
        <time>2019-01-06T09:17:01Z</time>
      </trkpt>
      <trkpt lat="42.8958" lon="0.97434">
        <ele>1577.66</ele>
        <time>2019-01-06T09:17:15Z</time>
      </trkpt>
      <trkpt lat="42.89584" lon="0.97438">
        <ele>1580.06</ele>
        <time>2019-01-06T09:17:40Z</time>
      </trkpt>
      <trkpt lat="42.89591" lon="0.97443">
        <ele>1582.95</ele>
        <time>2019-01-06T09:17:57Z</time>
      </trkpt>
      <trkpt lat="42.89595" lon="0.97444">
        <ele>1585.83</ele>
        <time>2019-01-06T09:18:13Z</time>
      </trkpt>
      <trkpt lat="42.89601" lon="0.97448">
        <ele>1589.2</ele>
        <time>2019-01-06T09:18:30Z</time>
      </trkpt>
      <trkpt lat="42.89606" lon="0.97462">
        <ele>1590.64</ele>
        <time>2019-01-06T09:18:44Z</time>
      </trkpt>
      <trkpt lat="42.8961" lon="0.97473">
        <ele>1592.56</ele>
        <time>2019-01-06T09:18:58Z</time>
      </trkpt>
      <trkpt lat="42.89618" lon="0.97486">
        <ele>1594</ele>
        <time>2019-01-06T09:19:14Z</time>
      </trkpt>
      <trkpt lat="42.89625" lon="0.97494">
        <ele>1595.45</ele>
        <time>2019-01-06T09:19:28Z</time>
      </trkpt>
      <trkpt lat="42.89631" lon="0.97504">
        <ele>1597.37</ele>
        <time>2019-01-06T09:19:43Z</time>
      </trkpt>
      <trkpt lat="42.89636" lon="0.97512">
        <ele>1598.81</ele>
        <time>2019-01-06T09:20:00Z</time>
      </trkpt>
      <trkpt lat="42.89643" lon="0.97516">
        <ele>1600.25</ele>
        <time>2019-01-06T09:20:20Z</time>
      </trkpt>
      <trkpt lat="42.89651" lon="0.97523">
        <ele>1600.73</ele>
        <time>2019-01-06T09:20:39Z</time>
      </trkpt>
      <trkpt lat="42.89658" lon="0.97525">
        <ele>1602.66</ele>
        <time>2019-01-06T09:20:57Z</time>
      </trkpt>
      <trkpt lat="42.89668" lon="0.97529">
        <ele>1605.06</ele>
        <time>2019-01-06T09:21:19Z</time>
      </trkpt>
      <trkpt lat="42.89677" lon="0.97544">
        <ele>1606.98</ele>
        <time>2019-01-06T09:21:39Z</time>
      </trkpt>
      <trkpt lat="42.89691" lon="0.97564">
        <ele>1606.5</ele>
        <time>2019-01-06T09:22:00Z</time>
      </trkpt>
      <trkpt lat="42.89704" lon="0.97572">
        <ele>1608.42</ele>
        <time>2019-01-06T09:22:19Z</time>
      </trkpt>
      <trkpt lat="42.89712" lon="0.97582">
        <ele>1610.83</ele>
        <time>2019-01-06T09:22:39Z</time>
      </trkpt>
      <trkpt lat="42.89718" lon="0.97593">
        <ele>1613.71</ele>
        <time>2019-01-06T09:23:00Z</time>
      </trkpt>
      <trkpt lat="42.89719" lon="0.97594">
        <ele>1615.15</ele>
        <time>2019-01-06T09:23:43Z</time>
      </trkpt>
      <trkpt lat="42.89718" lon="0.97586">
        <ele>1616.11</ele>
        <time>2019-01-06T09:24:08Z</time>
      </trkpt>
      <trkpt lat="42.8972" lon="0.97571">
        <ele>1619.48</ele>
        <time>2019-01-06T09:24:24Z</time>
      </trkpt>
      <trkpt lat="42.89719" lon="0.97567">
        <ele>1622.36</ele>
        <time>2019-01-06T09:24:41Z</time>
      </trkpt>
      <trkpt lat="42.89726" lon="0.97566">
        <ele>1623.32</ele>
        <time>2019-01-06T09:24:58Z</time>
      </trkpt>
      <trkpt lat="42.89736" lon="0.97575">
        <ele>1626.21</ele>
        <time>2019-01-06T09:25:12Z</time>
      </trkpt>
      <trkpt lat="42.89742" lon="0.97585">
        <ele>1629.57</ele>
        <time>2019-01-06T09:25:27Z</time>
      </trkpt>
      <trkpt lat="42.89746" lon="0.97594">
        <ele>1632.46</ele>
        <time>2019-01-06T09:25:45Z</time>
      </trkpt>
      <trkpt lat="42.89751" lon="0.97606">
        <ele>1634.38</ele>
        <time>2019-01-06T09:26:03Z</time>
      </trkpt>
      <trkpt lat="42.89758" lon="0.97615">
        <ele>1637.74</ele>
        <time>2019-01-06T09:26:17Z</time>
      </trkpt>
      <trkpt lat="42.89768" lon="0.97625">
        <ele>1640.15</ele>
        <time>2019-01-06T09:26:33Z</time>
      </trkpt>
      <trkpt lat="42.8977" lon="0.97628">
        <ele>1643.03</ele>
        <time>2019-01-06T09:26:50Z</time>
      </trkpt>
      <trkpt lat="42.89772" lon="0.97626">
        <ele>1643.99</ele>
        <time>2019-01-06T09:27:26Z</time>
      </trkpt>
      <trkpt lat="42.89773" lon="0.97616">
        <ele>1645.43</ele>
        <time>2019-01-06T09:27:42Z</time>
      </trkpt>
      <trkpt lat="42.89773" lon="0.97603">
        <ele>1647.36</ele>
        <time>2019-01-06T09:27:58Z</time>
      </trkpt>
      <trkpt lat="42.89771" lon="0.97587">
        <ele>1650.72</ele>
        <time>2019-01-06T09:28:15Z</time>
      </trkpt>
      <trkpt lat="42.89771" lon="0.97584">
        <ele>1651.2</ele>
        <time>2019-01-06T09:28:18Z</time>
      </trkpt>
      <trkpt lat="42.89774" lon="0.97574">
        <ele>1653.6</ele>
        <time>2019-01-06T09:28:36Z</time>
      </trkpt>
      <trkpt lat="42.89785" lon="0.97585">
        <ele>1656.49</ele>
        <time>2019-01-06T09:28:55Z</time>
      </trkpt>
      <trkpt lat="42.89791" lon="0.97588">
        <ele>1658.41</ele>
        <time>2019-01-06T09:29:14Z</time>
      </trkpt>
      <trkpt lat="42.89796" lon="0.97592">
        <ele>1660.33</ele>
        <time>2019-01-06T09:29:33Z</time>
      </trkpt>
      <trkpt lat="42.89799" lon="0.97594">
        <ele>1661.3</ele>
        <time>2019-01-06T09:29:51Z</time>
      </trkpt>
      <trkpt lat="42.89801" lon="0.97597">
        <ele>1661.78</ele>
        <time>2019-01-06T09:31:00Z</time>
      </trkpt>
      <trkpt lat="42.89801" lon="0.97597">
        <ele>1662.26</ele>
        <time>2019-01-06T09:31:30Z</time>
      </trkpt>
      <trkpt lat="42.898" lon="0.97596">
        <ele>1662.74</ele>
        <time>2019-01-06T09:32:14Z</time>
      </trkpt>
      <trkpt lat="42.898" lon="0.97593">
        <ele>1663.7</ele>
        <time>2019-01-06T09:33:01Z</time>
      </trkpt>
      <trkpt lat="42.89802" lon="0.97592">
        <ele>1664.18</ele>
        <time>2019-01-06T09:33:42Z</time>
      </trkpt>
      <trkpt lat="42.89801" lon="0.97587">
        <ele>1663.7</ele>
        <time>2019-01-06T09:34:38Z</time>
      </trkpt>
      <trkpt lat="42.898" lon="0.97576">
        <ele>1664.66</ele>
        <time>2019-01-06T09:34:51Z</time>
      </trkpt>
      <trkpt lat="42.89798" lon="0.97563">
        <ele>1667.06</ele>
        <time>2019-01-06T09:35:07Z</time>
      </trkpt>
      <trkpt lat="42.89798" lon="0.97548">
        <ele>1670.43</ele>
        <time>2019-01-06T09:35:22Z</time>
      </trkpt>
      <trkpt lat="42.89795" lon="0.97536">
        <ele>1673.31</ele>
        <time>2019-01-06T09:35:36Z</time>
      </trkpt>
      <trkpt lat="42.89794" lon="0.97519">
        <ele>1676.2</ele>
        <time>2019-01-06T09:35:56Z</time>
      </trkpt>
      <trkpt lat="42.89794" lon="0.97511">
        <ele>1679.08</ele>
        <time>2019-01-06T09:36:15Z</time>
      </trkpt>
      <trkpt lat="42.89796" lon="0.97504">
        <ele>1679.56</ele>
        <time>2019-01-06T09:36:30Z</time>
      </trkpt>
      <trkpt lat="42.89797" lon="0.97503">
        <ele>1681</ele>
        <time>2019-01-06T09:37:04Z</time>
      </trkpt>
      <trkpt lat="42.89798" lon="0.97504">
        <ele>1680.52</ele>
        <time>2019-01-06T09:37:33Z</time>
      </trkpt>
      <trkpt lat="42.89797" lon="0.97504">
        <ele>1680.52</ele>
        <time>2019-01-06T09:38:27Z</time>
      </trkpt>
      <trkpt lat="42.89797" lon="0.97504">
        <ele>1680.52</ele>
        <time>2019-01-06T09:39:03Z</time>
      </trkpt>
      <trkpt lat="42.89797" lon="0.97504">
        <ele>1680.52</ele>
        <time>2019-01-06T09:39:44Z</time>
      </trkpt>
      <trkpt lat="42.89796" lon="0.97504">
        <ele>1680.04</ele>
        <time>2019-01-06T09:40:24Z</time>
      </trkpt>
      <trkpt lat="42.89795" lon="0.97503">
        <ele>1680.52</ele>
        <time>2019-01-06T09:41:07Z</time>
      </trkpt>
      <trkpt lat="42.89796" lon="0.97503">
        <ele>1680.52</ele>
        <time>2019-01-06T09:41:45Z</time>
      </trkpt>
      <trkpt lat="42.89797" lon="0.97502">
        <ele>1681</ele>
        <time>2019-01-06T09:42:46Z</time>
      </trkpt>
      <trkpt lat="42.89797" lon="0.97501">
        <ele>1680.52</ele>
        <time>2019-01-06T09:43:14Z</time>
      </trkpt>
      <trkpt lat="42.89804" lon="0.97491">
        <ele>1679.56</ele>
        <time>2019-01-06T09:43:29Z</time>
      </trkpt>
      <trkpt lat="42.89811" lon="0.9748">
        <ele>1677.16</ele>
        <time>2019-01-06T09:43:45Z</time>
      </trkpt>
      <trkpt lat="42.89811" lon="0.97473">
        <ele>1674.27</ele>
        <time>2019-01-06T09:43:55Z</time>
      </trkpt>
      <trkpt lat="42.89813" lon="0.97466">
        <ele>1671.39</ele>
        <time>2019-01-06T09:44:07Z</time>
      </trkpt>
      <trkpt lat="42.89819" lon="0.97455">
        <ele>1668.02</ele>
        <time>2019-01-06T09:44:20Z</time>
      </trkpt>
      <trkpt lat="42.89819" lon="0.97455">
        <ele>1667.06</ele>
        <time>2019-01-06T09:44:22Z</time>
      </trkpt>
      <trkpt lat="42.8982" lon="0.97441">
        <ele>1664.18</ele>
        <time>2019-01-06T09:44:37Z</time>
      </trkpt>
      <trkpt lat="42.8982" lon="0.97432">
        <ele>1660.81</ele>
        <time>2019-01-06T09:44:48Z</time>
      </trkpt>
      <trkpt lat="42.89824" lon="0.97422">
        <ele>1657.93</ele>
        <time>2019-01-06T09:45:01Z</time>
      </trkpt>
      <trkpt lat="42.89824" lon="0.97414">
        <ele>1654.57</ele>
        <time>2019-01-06T09:45:10Z</time>
      </trkpt>
      <trkpt lat="42.89825" lon="0.97409">
        <ele>1651.68</ele>
        <time>2019-01-06T09:45:19Z</time>
      </trkpt>
      <trkpt lat="42.89826" lon="0.97399">
        <ele>1648.8</ele>
        <time>2019-01-06T09:45:37Z</time>
      </trkpt>
      <trkpt lat="42.89831" lon="0.97384">
        <ele>1645.43</ele>
        <time>2019-01-06T09:45:53Z</time>
      </trkpt>
      <trkpt lat="42.8984" lon="0.97372">
        <ele>1642.55</ele>
        <time>2019-01-06T09:46:06Z</time>
      </trkpt>
      <trkpt lat="42.89848" lon="0.97356">
        <ele>1639.19</ele>
        <time>2019-01-06T09:46:18Z</time>
      </trkpt>
      <trkpt lat="42.89856" lon="0.9734">
        <ele>1637.74</ele>
        <time>2019-01-06T09:46:34Z</time>
      </trkpt>
      <trkpt lat="42.89867" lon="0.97314">
        <ele>1634.86</ele>
        <time>2019-01-06T09:46:53Z</time>
      </trkpt>
      <trkpt lat="42.8987" lon="0.97303">
        <ele>1633.9</ele>
        <time>2019-01-06T09:46:58Z</time>
      </trkpt>
      <trkpt lat="42.89873" lon="0.97294">
        <ele>1631.49</ele>
        <time>2019-01-06T09:47:03Z</time>
      </trkpt>
      <trkpt lat="42.89877" lon="0.97283">
        <ele>1629.09</ele>
        <time>2019-01-06T09:47:09Z</time>
      </trkpt>
      <trkpt lat="42.89878" lon="0.97281">
        <ele>1628.61</ele>
        <time>2019-01-06T09:47:10Z</time>
      </trkpt>
      <trkpt lat="42.89888" lon="0.97264">
        <ele>1627.65</ele>
        <time>2019-01-06T09:47:16Z</time>
      </trkpt>
      <trkpt lat="42.89896" lon="0.97247">
        <ele>1626.21</ele>
        <time>2019-01-06T09:47:30Z</time>
      </trkpt>
      <trkpt lat="42.89903" lon="0.97216">
        <ele>1626.21</ele>
        <time>2019-01-06T09:47:44Z</time>
      </trkpt>
      <trkpt lat="42.89907" lon="0.97199">
        <ele>1624.77</ele>
        <time>2019-01-06T09:47:54Z</time>
      </trkpt>
      <trkpt lat="42.8991" lon="0.97191">
        <ele>1623.8</ele>
        <time>2019-01-06T09:48:00Z</time>
      </trkpt>
      <trkpt lat="42.89917" lon="0.97176">
        <ele>1623.8</ele>
        <time>2019-01-06T09:48:10Z</time>
      </trkpt>
      <trkpt lat="42.89921" lon="0.97162">
        <ele>1622.84</ele>
        <time>2019-01-06T09:48:21Z</time>
      </trkpt>
      <trkpt lat="42.89925" lon="0.97139">
        <ele>1621.4</ele>
        <time>2019-01-06T09:48:38Z</time>
      </trkpt>
      <trkpt lat="42.89926" lon="0.97136">
        <ele>1621.4</ele>
        <time>2019-01-06T09:48:40Z</time>
      </trkpt>
      <trkpt lat="42.89931" lon="0.97115">
        <ele>1619.48</ele>
        <time>2019-01-06T09:48:56Z</time>
      </trkpt>
      <trkpt lat="42.89937" lon="0.97105">
        <ele>1618.52</ele>
        <time>2019-01-06T09:49:10Z</time>
      </trkpt>
      <trkpt lat="42.89943" lon="0.97086">
        <ele>1617.07</ele>
        <time>2019-01-06T09:49:26Z</time>
      </trkpt>
      <trkpt lat="42.89945" lon="0.97083">
        <ele>1617.07</ele>
        <time>2019-01-06T09:49:34Z</time>
      </trkpt>
      <trkpt lat="42.89951" lon="0.97059">
        <ele>1616.11</ele>
        <time>2019-01-06T09:49:48Z</time>
      </trkpt>
      <trkpt lat="42.89954" lon="0.97036">
        <ele>1615.15</ele>
        <time>2019-01-06T09:50:03Z</time>
      </trkpt>
      <trkpt lat="42.89956" lon="0.9703">
        <ele>1614.67</ele>
        <time>2019-01-06T09:50:07Z</time>
      </trkpt>
      <trkpt lat="42.89955" lon="0.97017">
        <ele>1614.67</ele>
        <time>2019-01-06T09:50:11Z</time>
      </trkpt>
      <trkpt lat="42.89957" lon="0.96999">
        <ele>1612.27</ele>
        <time>2019-01-06T09:50:24Z</time>
      </trkpt>
      <trkpt lat="42.89962" lon="0.96998">
        <ele>1614.19</ele>
        <time>2019-01-06T09:51:16Z</time>
      </trkpt>
      <trkpt lat="42.89963" lon="0.96999">
        <ele>1614.19</ele>
        <time>2019-01-06T09:51:40Z</time>
      </trkpt>
      <trkpt lat="42.89967" lon="0.97002">
        <ele>1614.19</ele>
        <time>2019-01-06T09:52:45Z</time>
      </trkpt>
      <trkpt lat="42.89962" lon="0.96988">
        <ele>1615.63</ele>
        <time>2019-01-06T09:53:15Z</time>
      </trkpt>
      <trkpt lat="42.89961" lon="0.96973">
        <ele>1618.52</ele>
        <time>2019-01-06T09:53:28Z</time>
      </trkpt>
      <trkpt lat="42.89961" lon="0.96971">
        <ele>1619</ele>
        <time>2019-01-06T09:53:30Z</time>
      </trkpt>
      <trkpt lat="42.89961" lon="0.96946">
        <ele>1621.88</ele>
        <time>2019-01-06T09:53:51Z</time>
      </trkpt>
      <trkpt lat="42.89961" lon="0.96943">
        <ele>1621.88</ele>
        <time>2019-01-06T09:53:54Z</time>
      </trkpt>
      <trkpt lat="42.89963" lon="0.96931">
        <ele>1622.36</ele>
        <time>2019-01-06T09:54:03Z</time>
      </trkpt>
      <trkpt lat="42.89965" lon="0.96907">
        <ele>1622.84</ele>
        <time>2019-01-06T09:54:15Z</time>
      </trkpt>
      <trkpt lat="42.89972" lon="0.96882">
        <ele>1623.32</ele>
        <time>2019-01-06T09:54:31Z</time>
      </trkpt>
      <trkpt lat="42.89972" lon="0.96866">
        <ele>1624.28</ele>
        <time>2019-01-06T09:54:47Z</time>
      </trkpt>
      <trkpt lat="42.89971" lon="0.96856">
        <ele>1624.28</ele>
        <time>2019-01-06T09:54:54Z</time>
      </trkpt>
      <trkpt lat="42.89971" lon="0.96845">
        <ele>1623.32</ele>
        <time>2019-01-06T09:55:06Z</time>
      </trkpt>
      <trkpt lat="42.89973" lon="0.96826">
        <ele>1623.32</ele>
        <time>2019-01-06T09:55:21Z</time>
      </trkpt>
      <trkpt lat="42.89976" lon="0.96807">
        <ele>1623.8</ele>
        <time>2019-01-06T09:55:37Z</time>
      </trkpt>
      <trkpt lat="42.89978" lon="0.968">
        <ele>1623.8</ele>
        <time>2019-01-06T09:55:43Z</time>
      </trkpt>
      <trkpt lat="42.89982" lon="0.96786">
        <ele>1624.77</ele>
        <time>2019-01-06T09:55:59Z</time>
      </trkpt>
      <trkpt lat="42.89988" lon="0.96781">
        <ele>1624.77</ele>
        <time>2019-01-06T09:56:59Z</time>
      </trkpt>
      <trkpt lat="42.89987" lon="0.96784">
        <ele>1624.28</ele>
        <time>2019-01-06T09:57:49Z</time>
      </trkpt>
      <trkpt lat="42.89988" lon="0.96781">
        <ele>1624.77</ele>
        <time>2019-01-06T09:59:06Z</time>
      </trkpt>
      <trkpt lat="42.89989" lon="0.96776">
        <ele>1624.77</ele>
        <time>2019-01-06T10:00:09Z</time>
      </trkpt>
      <trkpt lat="42.89994" lon="0.96763">
        <ele>1627.17</ele>
        <time>2019-01-06T10:00:24Z</time>
      </trkpt>
      <trkpt lat="42.89998" lon="0.96751">
        <ele>1628.61</ele>
        <time>2019-01-06T10:00:34Z</time>
      </trkpt>
      <trkpt lat="42.90004" lon="0.9673">
        <ele>1631.49</ele>
        <time>2019-01-06T10:00:53Z</time>
      </trkpt>
      <trkpt lat="42.90006" lon="0.9672">
        <ele>1633.9</ele>
        <time>2019-01-06T10:01:16Z</time>
      </trkpt>
      <trkpt lat="42.90009" lon="0.96714">
        <ele>1636.78</ele>
        <time>2019-01-06T10:01:31Z</time>
      </trkpt>
      <trkpt lat="42.90015" lon="0.96701">
        <ele>1639.67</ele>
        <time>2019-01-06T10:01:45Z</time>
      </trkpt>
      <trkpt lat="42.90017" lon="0.9669">
        <ele>1643.03</ele>
        <time>2019-01-06T10:01:59Z</time>
      </trkpt>
      <trkpt lat="42.9002" lon="0.9668">
        <ele>1644.47</ele>
        <time>2019-01-06T10:02:11Z</time>
      </trkpt>
      <trkpt lat="42.90019" lon="0.96672">
        <ele>1645.43</ele>
        <time>2019-01-06T10:02:16Z</time>
      </trkpt>
      <trkpt lat="42.90018" lon="0.9666">
        <ele>1646.4</ele>
        <time>2019-01-06T10:02:25Z</time>
      </trkpt>
      <trkpt lat="42.9002" lon="0.9664">
        <ele>1648.32</ele>
        <time>2019-01-06T10:02:43Z</time>
      </trkpt>
      <trkpt lat="42.9002" lon="0.9663">
        <ele>1651.2</ele>
        <time>2019-01-06T10:03:01Z</time>
      </trkpt>
      <trkpt lat="42.90023" lon="0.96636">
        <ele>1651.2</ele>
        <time>2019-01-06T10:03:26Z</time>
      </trkpt>
      <trkpt lat="42.90029" lon="0.96635">
        <ele>1651.68</ele>
        <time>2019-01-06T10:03:49Z</time>
      </trkpt>
      <trkpt lat="42.90025" lon="0.96624">
        <ele>1653.6</ele>
        <time>2019-01-06T10:04:10Z</time>
      </trkpt>
      <trkpt lat="42.90024" lon="0.96618">
        <ele>1654.57</ele>
        <time>2019-01-06T10:04:16Z</time>
      </trkpt>
      <trkpt lat="42.9002" lon="0.96607">
        <ele>1655.53</ele>
        <time>2019-01-06T10:04:31Z</time>
      </trkpt>
      <trkpt lat="42.90016" lon="0.96598">
        <ele>1656.01</ele>
        <time>2019-01-06T10:04:55Z</time>
      </trkpt>
      <trkpt lat="42.90017" lon="0.96584">
        <ele>1656.01</ele>
        <time>2019-01-06T10:05:11Z</time>
      </trkpt>
      <trkpt lat="42.90021" lon="0.96572">
        <ele>1659.37</ele>
        <time>2019-01-06T10:05:28Z</time>
      </trkpt>
      <trkpt lat="42.90022" lon="0.96563">
        <ele>1662.26</ele>
        <time>2019-01-06T10:05:46Z</time>
      </trkpt>
      <trkpt lat="42.90025" lon="0.96556">
        <ele>1665.62</ele>
        <time>2019-01-06T10:06:05Z</time>
      </trkpt>
      <trkpt lat="42.90029" lon="0.96548">
        <ele>1668.51</ele>
        <time>2019-01-06T10:06:20Z</time>
      </trkpt>
      <trkpt lat="42.90029" lon="0.96542">
        <ele>1671.39</ele>
        <time>2019-01-06T10:06:33Z</time>
      </trkpt>
      <trkpt lat="42.90029" lon="0.96535">
        <ele>1673.79</ele>
        <time>2019-01-06T10:06:54Z</time>
      </trkpt>
      <trkpt lat="42.90028" lon="0.96527">
        <ele>1676.68</ele>
        <time>2019-01-06T10:07:10Z</time>
      </trkpt>
      <trkpt lat="42.9003" lon="0.96518">
        <ele>1679.56</ele>
        <time>2019-01-06T10:07:30Z</time>
      </trkpt>
      <trkpt lat="42.90032" lon="0.96505">
        <ele>1681.96</ele>
        <time>2019-01-06T10:07:46Z</time>
      </trkpt>
      <trkpt lat="42.90033" lon="0.9649">
        <ele>1684.85</ele>
        <time>2019-01-06T10:08:01Z</time>
      </trkpt>
      <trkpt lat="42.90032" lon="0.96488">
        <ele>1687.25</ele>
        <time>2019-01-06T10:08:27Z</time>
      </trkpt>
      <trkpt lat="42.90032" lon="0.96484">
        <ele>1687.25</ele>
        <time>2019-01-06T10:09:04Z</time>
      </trkpt>
      <trkpt lat="42.9003" lon="0.96478">
        <ele>1687.25</ele>
        <time>2019-01-06T10:09:21Z</time>
      </trkpt>
      <trkpt lat="42.90026" lon="0.96467">
        <ele>1686.77</ele>
        <time>2019-01-06T10:09:40Z</time>
      </trkpt>
      <trkpt lat="42.90025" lon="0.96459">
        <ele>1687.73</ele>
        <time>2019-01-06T10:09:57Z</time>
      </trkpt>
      <trkpt lat="42.90021" lon="0.96446">
        <ele>1687.73</ele>
        <time>2019-01-06T10:10:11Z</time>
      </trkpt>
      <trkpt lat="42.90019" lon="0.9644">
        <ele>1689.65</ele>
        <time>2019-01-06T10:10:42Z</time>
      </trkpt>
      <trkpt lat="42.90018" lon="0.96435">
        <ele>1689.17</ele>
        <time>2019-01-06T10:11:00Z</time>
      </trkpt>
      <trkpt lat="42.90016" lon="0.96439">
        <ele>1686.77</ele>
        <time>2019-01-06T10:11:22Z</time>
      </trkpt>
      <trkpt lat="42.90014" lon="0.9643">
        <ele>1685.81</ele>
        <time>2019-01-06T10:11:41Z</time>
      </trkpt>
      <trkpt lat="42.90014" lon="0.96429">
        <ele>1685.81</ele>
        <time>2019-01-06T10:11:42Z</time>
      </trkpt>
      <trkpt lat="42.90012" lon="0.96425">
        <ele>1685.81</ele>
        <time>2019-01-06T10:11:46Z</time>
      </trkpt>
      <trkpt lat="42.90007" lon="0.96418">
        <ele>1685.81</ele>
        <time>2019-01-06T10:12:01Z</time>
      </trkpt>
      <trkpt lat="42.90006" lon="0.96416">
        <ele>1685.81</ele>
        <time>2019-01-06T10:12:05Z</time>
      </trkpt>
      <trkpt lat="42.90005" lon="0.96407">
        <ele>1686.29</ele>
        <time>2019-01-06T10:12:13Z</time>
      </trkpt>
      <trkpt lat="42.89999" lon="0.96395">
        <ele>1687.73</ele>
        <time>2019-01-06T10:12:27Z</time>
      </trkpt>
      <trkpt lat="42.89997" lon="0.96388">
        <ele>1686.29</ele>
        <time>2019-01-06T10:12:43Z</time>
      </trkpt>
      <trkpt lat="42.89997" lon="0.96386">
        <ele>1685.81</ele>
        <time>2019-01-06T10:12:58Z</time>
      </trkpt>
      <trkpt lat="42.89995" lon="0.96387">
        <ele>1684.37</ele>
        <time>2019-01-06T10:13:16Z</time>
      </trkpt>
      <trkpt lat="42.89995" lon="0.96381">
        <ele>1683.41</ele>
        <time>2019-01-06T10:13:32Z</time>
      </trkpt>
      <trkpt lat="42.89995" lon="0.96379">
        <ele>1682.93</ele>
        <time>2019-01-06T10:13:36Z</time>
      </trkpt>
      <trkpt lat="42.89995" lon="0.96376">
        <ele>1681.48</ele>
        <time>2019-01-06T10:13:54Z</time>
      </trkpt>
      <trkpt lat="42.89993" lon="0.96369">
        <ele>1681</ele>
        <time>2019-01-06T10:14:09Z</time>
      </trkpt>
      <trkpt lat="42.89992" lon="0.96366">
        <ele>1680.52</ele>
        <time>2019-01-06T10:14:15Z</time>
      </trkpt>
      <trkpt lat="42.89991" lon="0.96361">
        <ele>1679.56</ele>
        <time>2019-01-06T10:14:33Z</time>
      </trkpt>
      <trkpt lat="42.8999" lon="0.96356">
        <ele>1679.56</ele>
        <time>2019-01-06T10:14:56Z</time>
      </trkpt>
      <trkpt lat="42.89989" lon="0.96351">
        <ele>1678.6</ele>
        <time>2019-01-06T10:15:14Z</time>
      </trkpt>
      <trkpt lat="42.89987" lon="0.96343">
        <ele>1677.64</ele>
        <time>2019-01-06T10:15:39Z</time>
      </trkpt>
      <trkpt lat="42.89988" lon="0.96334">
        <ele>1678.6</ele>
        <time>2019-01-06T10:15:56Z</time>
      </trkpt>
      <trkpt lat="42.89987" lon="0.96327">
        <ele>1679.56</ele>
        <time>2019-01-06T10:16:19Z</time>
      </trkpt>
      <trkpt lat="42.89985" lon="0.96323">
        <ele>1679.56</ele>
        <time>2019-01-06T10:16:40Z</time>
      </trkpt>
      <trkpt lat="42.89983" lon="0.96315">
        <ele>1679.56</ele>
        <time>2019-01-06T10:16:47Z</time>
      </trkpt>
      <trkpt lat="42.89979" lon="0.96303">
        <ele>1677.64</ele>
        <time>2019-01-06T10:17:01Z</time>
      </trkpt>
      <trkpt lat="42.89977" lon="0.96295">
        <ele>1677.16</ele>
        <time>2019-01-06T10:17:17Z</time>
      </trkpt>
      <trkpt lat="42.89975" lon="0.96279">
        <ele>1675.23</ele>
        <time>2019-01-06T10:17:31Z</time>
      </trkpt>
      <trkpt lat="42.89976" lon="0.96277">
        <ele>1675.23</ele>
        <time>2019-01-06T10:17:33Z</time>
      </trkpt>
      <trkpt lat="42.89971" lon="0.96264">
        <ele>1672.83</ele>
        <time>2019-01-06T10:17:48Z</time>
      </trkpt>
      <trkpt lat="42.89968" lon="0.96253">
        <ele>1670.91</ele>
        <time>2019-01-06T10:18:04Z</time>
      </trkpt>
      <trkpt lat="42.89967" lon="0.96243">
        <ele>1670.43</ele>
        <time>2019-01-06T10:18:16Z</time>
      </trkpt>
      <trkpt lat="42.89967" lon="0.96236">
        <ele>1670.43</ele>
        <time>2019-01-06T10:18:22Z</time>
      </trkpt>
      <trkpt lat="42.89962" lon="0.96224">
        <ele>1670.43</ele>
        <time>2019-01-06T10:18:37Z</time>
      </trkpt>
      <trkpt lat="42.89962" lon="0.96221">
        <ele>1670.43</ele>
        <time>2019-01-06T10:18:40Z</time>
      </trkpt>
      <trkpt lat="42.89959" lon="0.96212">
        <ele>1669.47</ele>
        <time>2019-01-06T10:18:47Z</time>
      </trkpt>
      <trkpt lat="42.89957" lon="0.96196">
        <ele>1668.02</ele>
        <time>2019-01-06T10:19:02Z</time>
      </trkpt>
      <trkpt lat="42.89954" lon="0.96185">
        <ele>1667.06</ele>
        <time>2019-01-06T10:19:17Z</time>
      </trkpt>
      <trkpt lat="42.89955" lon="0.96166">
        <ele>1664.66</ele>
        <time>2019-01-06T10:19:33Z</time>
      </trkpt>
      <trkpt lat="42.89954" lon="0.96149">
        <ele>1663.7</ele>
        <time>2019-01-06T10:19:48Z</time>
      </trkpt>
      <trkpt lat="42.89953" lon="0.96134">
        <ele>1662.74</ele>
        <time>2019-01-06T10:20:07Z</time>
      </trkpt>
      <trkpt lat="42.89952" lon="0.96114">
        <ele>1664.66</ele>
        <time>2019-01-06T10:20:32Z</time>
      </trkpt>
      <trkpt lat="42.89951" lon="0.96104">
        <ele>1666.58</ele>
        <time>2019-01-06T10:20:45Z</time>
      </trkpt>
      <trkpt lat="42.89951" lon="0.96102">
        <ele>1666.58</ele>
        <time>2019-01-06T10:20:47Z</time>
      </trkpt>
      <trkpt lat="42.8995" lon="0.96093">
        <ele>1667.06</ele>
        <time>2019-01-06T10:21:00Z</time>
      </trkpt>
      <trkpt lat="42.89951" lon="0.96075">
        <ele>1667.06</ele>
        <time>2019-01-06T10:21:19Z</time>
      </trkpt>
      <trkpt lat="42.89952" lon="0.96061">
        <ele>1666.58</ele>
        <time>2019-01-06T10:21:33Z</time>
      </trkpt>
      <trkpt lat="42.89953" lon="0.96056">
        <ele>1666.58</ele>
        <time>2019-01-06T10:21:38Z</time>
      </trkpt>
      <trkpt lat="42.89956" lon="0.9604">
        <ele>1667.06</ele>
        <time>2019-01-06T10:21:53Z</time>
      </trkpt>
      <trkpt lat="42.89958" lon="0.96023">
        <ele>1666.1</ele>
        <time>2019-01-06T10:22:08Z</time>
      </trkpt>
      <trkpt lat="42.8996" lon="0.96">
        <ele>1664.18</ele>
        <time>2019-01-06T10:22:26Z</time>
      </trkpt>
      <trkpt lat="42.89961" lon="0.95991">
        <ele>1663.22</ele>
        <time>2019-01-06T10:22:34Z</time>
      </trkpt>
      <trkpt lat="42.89965" lon="0.95968">
        <ele>1660.81</ele>
        <time>2019-01-06T10:22:50Z</time>
      </trkpt>
      <trkpt lat="42.89966" lon="0.95965">
        <ele>1660.33</ele>
        <time>2019-01-06T10:22:52Z</time>
      </trkpt>
      <trkpt lat="42.89965" lon="0.95944">
        <ele>1658.41</ele>
        <time>2019-01-06T10:23:08Z</time>
      </trkpt>
      <trkpt lat="42.8997" lon="0.95915">
        <ele>1656.01</ele>
        <time>2019-01-06T10:23:24Z</time>
      </trkpt>
      <trkpt lat="42.89969" lon="0.95912">
        <ele>1655.53</ele>
        <time>2019-01-06T10:23:26Z</time>
      </trkpt>
      <trkpt lat="42.89966" lon="0.95896">
        <ele>1652.64</ele>
        <time>2019-01-06T10:23:36Z</time>
      </trkpt>
      <trkpt lat="42.89964" lon="0.95884">
        <ele>1648.8</ele>
        <time>2019-01-06T10:23:43Z</time>
      </trkpt>
      <trkpt lat="42.89965" lon="0.95882">
        <ele>1648.8</ele>
        <time>2019-01-06T10:23:44Z</time>
      </trkpt>
      <trkpt lat="42.89966" lon="0.95879">
        <ele>1645.91</ele>
        <time>2019-01-06T10:23:55Z</time>
      </trkpt>
      <trkpt lat="42.8997" lon="0.95872">
        <ele>1644.95</ele>
        <time>2019-01-06T10:24:32Z</time>
      </trkpt>
      <trkpt lat="42.89966" lon="0.95862">
        <ele>1642.07</ele>
        <time>2019-01-06T10:24:44Z</time>
      </trkpt>
      <trkpt lat="42.89968" lon="0.95855">
        <ele>1641.59</ele>
        <time>2019-01-06T10:24:48Z</time>
      </trkpt>
      <trkpt lat="42.89968" lon="0.95833">
        <ele>1638.22</ele>
        <time>2019-01-06T10:25:02Z</time>
      </trkpt>
      <trkpt lat="42.89967" lon="0.95831">
        <ele>1638.22</ele>
        <time>2019-01-06T10:25:03Z</time>
      </trkpt>
      <trkpt lat="42.89968" lon="0.95813">
        <ele>1634.38</ele>
        <time>2019-01-06T10:25:14Z</time>
      </trkpt>
      <trkpt lat="42.89971" lon="0.95788">
        <ele>1631.49</ele>
        <time>2019-01-06T10:25:29Z</time>
      </trkpt>
      <trkpt lat="42.89972" lon="0.95774">
        <ele>1631.49</ele>
        <time>2019-01-06T10:25:41Z</time>
      </trkpt>
      <trkpt lat="42.89972" lon="0.95772">
        <ele>1631.01</ele>
        <time>2019-01-06T10:25:42Z</time>
      </trkpt>
      <trkpt lat="42.89972" lon="0.95753">
        <ele>1629.57</ele>
        <time>2019-01-06T10:25:55Z</time>
      </trkpt>
      <trkpt lat="42.8997" lon="0.95741">
        <ele>1628.13</ele>
        <time>2019-01-06T10:26:09Z</time>
      </trkpt>
      <trkpt lat="42.8997" lon="0.9574">
        <ele>1627.65</ele>
        <time>2019-01-06T10:26:10Z</time>
      </trkpt>
      <trkpt lat="42.89967" lon="0.95733">
        <ele>1627.17</ele>
        <time>2019-01-06T10:26:22Z</time>
      </trkpt>
      <trkpt lat="42.89968" lon="0.95717">
        <ele>1627.17</ele>
        <time>2019-01-06T10:26:34Z</time>
      </trkpt>
      <trkpt lat="42.89967" lon="0.95707">
        <ele>1628.61</ele>
        <time>2019-01-06T10:26:45Z</time>
      </trkpt>
      <trkpt lat="42.89966" lon="0.95696">
        <ele>1631.49</ele>
        <time>2019-01-06T10:26:58Z</time>
      </trkpt>
      <trkpt lat="42.89968" lon="0.95683">
        <ele>1634.86</ele>
        <time>2019-01-06T10:27:16Z</time>
      </trkpt>
      <trkpt lat="42.89969" lon="0.95676">
        <ele>1635.82</ele>
        <time>2019-01-06T10:27:31Z</time>
      </trkpt>
      <trkpt lat="42.89968" lon="0.95667">
        <ele>1636.78</ele>
        <time>2019-01-06T10:27:46Z</time>
      </trkpt>
      <trkpt lat="42.89965" lon="0.95658">
        <ele>1636.78</ele>
        <time>2019-01-06T10:28:09Z</time>
      </trkpt>
      <trkpt lat="42.89964" lon="0.95648">
        <ele>1636.78</ele>
        <time>2019-01-06T10:28:25Z</time>
      </trkpt>
      <trkpt lat="42.89963" lon="0.95633">
        <ele>1637.26</ele>
        <time>2019-01-06T10:28:44Z</time>
      </trkpt>
      <trkpt lat="42.89964" lon="0.95629">
        <ele>1637.26</ele>
        <time>2019-01-06T10:28:47Z</time>
      </trkpt>
      <trkpt lat="42.89961" lon="0.95616">
        <ele>1637.74</ele>
        <time>2019-01-06T10:29:01Z</time>
      </trkpt>
      <trkpt lat="42.89962" lon="0.95601">
        <ele>1638.22</ele>
        <time>2019-01-06T10:29:13Z</time>
      </trkpt>
      <trkpt lat="42.89958" lon="0.95587">
        <ele>1639.19</ele>
        <time>2019-01-06T10:29:25Z</time>
      </trkpt>
      <trkpt lat="42.89954" lon="0.95569">
        <ele>1642.07</ele>
        <time>2019-01-06T10:29:39Z</time>
      </trkpt>
      <trkpt lat="42.89955" lon="0.95554">
        <ele>1644.47</ele>
        <time>2019-01-06T10:29:57Z</time>
      </trkpt>
      <trkpt lat="42.89954" lon="0.95551">
        <ele>1644.47</ele>
        <time>2019-01-06T10:29:59Z</time>
      </trkpt>
      <trkpt lat="42.89952" lon="0.95537">
        <ele>1644.95</ele>
        <time>2019-01-06T10:30:08Z</time>
      </trkpt>
      <trkpt lat="42.8995" lon="0.95528">
        <ele>1645.43</ele>
        <time>2019-01-06T10:30:22Z</time>
      </trkpt>
      <trkpt lat="42.89952" lon="0.95514">
        <ele>1648.32</ele>
        <time>2019-01-06T10:30:39Z</time>
      </trkpt>
      <trkpt lat="42.89954" lon="0.95505">
        <ele>1651.2</ele>
        <time>2019-01-06T10:30:52Z</time>
      </trkpt>
      <trkpt lat="42.89955" lon="0.95496">
        <ele>1654.57</ele>
        <time>2019-01-06T10:31:07Z</time>
      </trkpt>
      <trkpt lat="42.89956" lon="0.95494">
        <ele>1656.97</ele>
        <time>2019-01-06T10:31:42Z</time>
      </trkpt>
      <trkpt lat="42.89955" lon="0.95495">
        <ele>1656.97</ele>
        <time>2019-01-06T10:32:22Z</time>
      </trkpt>
      <trkpt lat="42.89955" lon="0.95495">
        <ele>1656.97</ele>
        <time>2019-01-06T10:32:51Z</time>
      </trkpt>
      <trkpt lat="42.89954" lon="0.95493">
        <ele>1656.97</ele>
        <time>2019-01-06T10:33:18Z</time>
      </trkpt>
      <trkpt lat="42.89952" lon="0.95479">
        <ele>1656.01</ele>
        <time>2019-01-06T10:33:29Z</time>
      </trkpt>
      <trkpt lat="42.89952" lon="0.95457">
        <ele>1654.57</ele>
        <time>2019-01-06T10:33:45Z</time>
      </trkpt>
      <trkpt lat="42.89952" lon="0.95455">
        <ele>1654.57</ele>
        <time>2019-01-06T10:33:46Z</time>
      </trkpt>
      <trkpt lat="42.89951" lon="0.95443">
        <ele>1655.53</ele>
        <time>2019-01-06T10:33:57Z</time>
      </trkpt>
      <trkpt lat="42.8995" lon="0.9544">
        <ele>1656.01</ele>
        <time>2019-01-06T10:34:00Z</time>
      </trkpt>
      <trkpt lat="42.89951" lon="0.95425">
        <ele>1655.53</ele>
        <time>2019-01-06T10:34:12Z</time>
      </trkpt>
      <trkpt lat="42.89954" lon="0.95406">
        <ele>1654.57</ele>
        <time>2019-01-06T10:34:25Z</time>
      </trkpt>
      <trkpt lat="42.89954" lon="0.95405">
        <ele>1654.57</ele>
        <time>2019-01-06T10:34:26Z</time>
      </trkpt>
      <trkpt lat="42.89956" lon="0.9538">
        <ele>1657.45</ele>
        <time>2019-01-06T10:34:41Z</time>
      </trkpt>
      <trkpt lat="42.89956" lon="0.95372">
        <ele>1657.93</ele>
        <time>2019-01-06T10:34:46Z</time>
      </trkpt>
      <trkpt lat="42.8996" lon="0.95349">
        <ele>1657.93</ele>
        <time>2019-01-06T10:34:59Z</time>
      </trkpt>
      <trkpt lat="42.89963" lon="0.95332">
        <ele>1658.41</ele>
        <time>2019-01-06T10:35:11Z</time>
      </trkpt>
      <trkpt lat="42.89966" lon="0.95316">
        <ele>1661.78</ele>
        <time>2019-01-06T10:35:28Z</time>
      </trkpt>
      <trkpt lat="42.89967" lon="0.95305">
        <ele>1664.66</ele>
        <time>2019-01-06T10:35:44Z</time>
      </trkpt>
      <trkpt lat="42.89971" lon="0.95295">
        <ele>1668.02</ele>
        <time>2019-01-06T10:36:01Z</time>
      </trkpt>
      <trkpt lat="42.89974" lon="0.95282">
        <ele>1670.91</ele>
        <time>2019-01-06T10:36:18Z</time>
      </trkpt>
      <trkpt lat="42.89973" lon="0.9527">
        <ele>1673.79</ele>
        <time>2019-01-06T10:36:33Z</time>
      </trkpt>
      <trkpt lat="42.89972" lon="0.9526">
        <ele>1677.16</ele>
        <time>2019-01-06T10:36:48Z</time>
      </trkpt>
      <trkpt lat="42.89972" lon="0.95249">
        <ele>1680.04</ele>
        <time>2019-01-06T10:37:06Z</time>
      </trkpt>
      <trkpt lat="42.8997" lon="0.95235">
        <ele>1681.96</ele>
        <time>2019-01-06T10:37:24Z</time>
      </trkpt>
      <trkpt lat="42.89969" lon="0.95225">
        <ele>1681.48</ele>
        <time>2019-01-06T10:37:37Z</time>
      </trkpt>
      <trkpt lat="42.89969" lon="0.95211">
        <ele>1681</ele>
        <time>2019-01-06T10:37:46Z</time>
      </trkpt>
      <trkpt lat="42.89969" lon="0.95195">
        <ele>1682.93</ele>
        <time>2019-01-06T10:38:00Z</time>
      </trkpt>
      <trkpt lat="42.89971" lon="0.95185">
        <ele>1685.81</ele>
        <time>2019-01-06T10:38:12Z</time>
      </trkpt>
      <trkpt lat="42.89972" lon="0.9517">
        <ele>1689.17</ele>
        <time>2019-01-06T10:38:25Z</time>
      </trkpt>
      <trkpt lat="42.89972" lon="0.95153">
        <ele>1691.58</ele>
        <time>2019-01-06T10:38:41Z</time>
      </trkpt>
      <trkpt lat="42.89971" lon="0.9515">
        <ele>1691.58</ele>
        <time>2019-01-06T10:38:43Z</time>
      </trkpt>
      <trkpt lat="42.89972" lon="0.95136">
        <ele>1694.94</ele>
        <time>2019-01-06T10:38:57Z</time>
      </trkpt>
      <trkpt lat="42.89972" lon="0.95125">
        <ele>1697.83</ele>
        <time>2019-01-06T10:39:13Z</time>
      </trkpt>
      <trkpt lat="42.89974" lon="0.95112">
        <ele>1701.19</ele>
        <time>2019-01-06T10:39:27Z</time>
      </trkpt>
      <trkpt lat="42.89976" lon="0.95098">
        <ele>1704.07</ele>
        <time>2019-01-06T10:39:45Z</time>
      </trkpt>
      <trkpt lat="42.89978" lon="0.95085">
        <ele>1707.44</ele>
        <time>2019-01-06T10:40:01Z</time>
      </trkpt>
      <trkpt lat="42.89978" lon="0.95068">
        <ele>1709.36</ele>
        <time>2019-01-06T10:40:18Z</time>
      </trkpt>
      <trkpt lat="42.89977" lon="0.95056">
        <ele>1709.84</ele>
        <time>2019-01-06T10:40:29Z</time>
      </trkpt>
      <trkpt lat="42.89984" lon="0.9505">
        <ele>1710.8</ele>
        <time>2019-01-06T10:40:43Z</time>
      </trkpt>
      <trkpt lat="42.89986" lon="0.95055">
        <ele>1713.21</ele>
        <time>2019-01-06T10:41:01Z</time>
      </trkpt>
      <trkpt lat="42.89989" lon="0.95059">
        <ele>1714.17</ele>
        <time>2019-01-06T10:41:20Z</time>
      </trkpt>
      <trkpt lat="42.89999" lon="0.95065">
        <ele>1717.53</ele>
        <time>2019-01-06T10:41:36Z</time>
      </trkpt>
      <trkpt lat="42.9" lon="0.95066">
        <ele>1720.42</ele>
        <time>2019-01-06T10:42:12Z</time>
      </trkpt>
      <trkpt lat="42.89998" lon="0.95065">
        <ele>1720.42</ele>
        <time>2019-01-06T10:42:43Z</time>
      </trkpt>
      <trkpt lat="42.89994" lon="0.95058">
        <ele>1718.49</ele>
        <time>2019-01-06T10:43:02Z</time>
      </trkpt>
      <trkpt lat="42.89992" lon="0.95058">
        <ele>1718.01</ele>
        <time>2019-01-06T10:43:04Z</time>
      </trkpt>
      <trkpt lat="42.89989" lon="0.95053">
        <ele>1715.61</ele>
        <time>2019-01-06T10:43:19Z</time>
      </trkpt>
      <trkpt lat="42.89989" lon="0.9505">
        <ele>1715.61</ele>
        <time>2019-01-06T10:43:24Z</time>
      </trkpt>
      <trkpt lat="42.89988" lon="0.95046">
        <ele>1715.13</ele>
        <time>2019-01-06T10:43:27Z</time>
      </trkpt>
      <trkpt lat="42.89987" lon="0.95041">
        <ele>1715.13</ele>
        <time>2019-01-06T10:43:31Z</time>
      </trkpt>
      <trkpt lat="42.89987" lon="0.95025">
        <ele>1713.21</ele>
        <time>2019-01-06T10:43:45Z</time>
      </trkpt>
      <trkpt lat="42.89983" lon="0.95016">
        <ele>1710.8</ele>
        <time>2019-01-06T10:44:01Z</time>
      </trkpt>
      <trkpt lat="42.89982" lon="0.95013">
        <ele>1710.8</ele>
        <time>2019-01-06T10:44:25Z</time>
      </trkpt>
      <trkpt lat="42.8998" lon="0.95004">
        <ele>1710.32</ele>
        <time>2019-01-06T10:45:00Z</time>
      </trkpt>
      <trkpt lat="42.89978" lon="0.94987">
        <ele>1709.84</ele>
        <time>2019-01-06T10:45:16Z</time>
      </trkpt>
      <trkpt lat="42.89978" lon="0.94986">
        <ele>1709.84</ele>
        <time>2019-01-06T10:45:17Z</time>
      </trkpt>
      <trkpt lat="42.89975" lon="0.94979">
        <ele>1708.88</ele>
        <time>2019-01-06T10:45:22Z</time>
      </trkpt>
      <trkpt lat="42.89975" lon="0.94976">
        <ele>1708.4</ele>
        <time>2019-01-06T10:45:25Z</time>
      </trkpt>
      <trkpt lat="42.89974" lon="0.94969">
        <ele>1706.48</ele>
        <time>2019-01-06T10:45:39Z</time>
      </trkpt>
      <trkpt lat="42.89973" lon="0.9497">
        <ele>1707.44</ele>
        <time>2019-01-06T10:46:21Z</time>
      </trkpt>
      <trkpt lat="42.89974" lon="0.9496">
        <ele>1707.44</ele>
        <time>2019-01-06T10:46:37Z</time>
      </trkpt>
      <trkpt lat="42.89973" lon="0.94948">
        <ele>1707.44</ele>
        <time>2019-01-06T10:46:49Z</time>
      </trkpt>
      <trkpt lat="42.89971" lon="0.94934">
        <ele>1707.92</ele>
        <time>2019-01-06T10:47:03Z</time>
      </trkpt>
      <trkpt lat="42.89971" lon="0.94925">
        <ele>1708.4</ele>
        <time>2019-01-06T10:47:11Z</time>
      </trkpt>
      <trkpt lat="42.8997" lon="0.94911">
        <ele>1709.36</ele>
        <time>2019-01-06T10:47:25Z</time>
      </trkpt>
      <trkpt lat="42.89968" lon="0.94906">
        <ele>1710.8</ele>
        <time>2019-01-06T10:47:37Z</time>
      </trkpt>
      <trkpt lat="42.89968" lon="0.94894">
        <ele>1713.21</ele>
        <time>2019-01-06T10:47:53Z</time>
      </trkpt>
      <trkpt lat="42.89973" lon="0.94886">
        <ele>1713.69</ele>
        <time>2019-01-06T10:48:08Z</time>
      </trkpt>
      <trkpt lat="42.89976" lon="0.94882">
        <ele>1715.61</ele>
        <time>2019-01-06T10:48:30Z</time>
      </trkpt>
      <trkpt lat="42.89976" lon="0.94877">
        <ele>1715.61</ele>
        <time>2019-01-06T10:48:40Z</time>
      </trkpt>
      <trkpt lat="42.89976" lon="0.94863">
        <ele>1714.17</ele>
        <time>2019-01-06T10:48:56Z</time>
      </trkpt>
      <trkpt lat="42.89976" lon="0.94859">
        <ele>1714.17</ele>
        <time>2019-01-06T10:49:00Z</time>
      </trkpt>
      <trkpt lat="42.89977" lon="0.94856">
        <ele>1714.17</ele>
        <time>2019-01-06T10:49:02Z</time>
      </trkpt>
      <trkpt lat="42.8998" lon="0.94845">
        <ele>1714.65</ele>
        <time>2019-01-06T10:49:14Z</time>
      </trkpt>
      <trkpt lat="42.89981" lon="0.94836">
        <ele>1716.09</ele>
        <time>2019-01-06T10:49:35Z</time>
      </trkpt>
      <trkpt lat="42.89981" lon="0.94825">
        <ele>1717.53</ele>
        <time>2019-01-06T10:49:51Z</time>
      </trkpt>
      <trkpt lat="42.89979" lon="0.94816">
        <ele>1718.01</ele>
        <time>2019-01-06T10:50:00Z</time>
      </trkpt>
      <trkpt lat="42.89979" lon="0.94805">
        <ele>1718.01</ele>
        <time>2019-01-06T10:50:16Z</time>
      </trkpt>
      <trkpt lat="42.89977" lon="0.94803">
        <ele>1718.49</ele>
        <time>2019-01-06T10:50:33Z</time>
      </trkpt>
      <trkpt lat="42.89978" lon="0.94796">
        <ele>1718.01</ele>
        <time>2019-01-06T10:50:58Z</time>
      </trkpt>
      <trkpt lat="42.89974" lon="0.9478">
        <ele>1717.53</ele>
        <time>2019-01-06T10:51:14Z</time>
      </trkpt>
      <trkpt lat="42.8997" lon="0.94766">
        <ele>1718.49</ele>
        <time>2019-01-06T10:51:31Z</time>
      </trkpt>
      <trkpt lat="42.89968" lon="0.94753">
        <ele>1718.01</ele>
        <time>2019-01-06T10:51:49Z</time>
      </trkpt>
      <trkpt lat="42.89967" lon="0.94742">
        <ele>1715.13</ele>
        <time>2019-01-06T10:52:06Z</time>
      </trkpt>
      <trkpt lat="42.89964" lon="0.94728">
        <ele>1713.69</ele>
        <time>2019-01-06T10:52:21Z</time>
      </trkpt>
      <trkpt lat="42.89964" lon="0.94718">
        <ele>1714.65</ele>
        <time>2019-01-06T10:52:36Z</time>
      </trkpt>
      <trkpt lat="42.89959" lon="0.94711">
        <ele>1715.13</ele>
        <time>2019-01-06T10:52:48Z</time>
      </trkpt>
      <trkpt lat="42.89959" lon="0.94708">
        <ele>1715.13</ele>
        <time>2019-01-06T10:52:51Z</time>
      </trkpt>
      <trkpt lat="42.89959" lon="0.94701">
        <ele>1715.13</ele>
        <time>2019-01-06T10:52:57Z</time>
      </trkpt>
      <trkpt lat="42.89959" lon="0.94686">
        <ele>1715.61</ele>
        <time>2019-01-06T10:53:12Z</time>
      </trkpt>
      <trkpt lat="42.89959" lon="0.94681">
        <ele>1716.57</ele>
        <time>2019-01-06T10:53:16Z</time>
      </trkpt>
      <trkpt lat="42.89959" lon="0.94675">
        <ele>1717.05</ele>
        <time>2019-01-06T10:53:20Z</time>
      </trkpt>
      <trkpt lat="42.8996" lon="0.94667">
        <ele>1717.05</ele>
        <time>2019-01-06T10:53:27Z</time>
      </trkpt>
      <trkpt lat="42.8996" lon="0.94657">
        <ele>1716.57</ele>
        <time>2019-01-06T10:53:34Z</time>
      </trkpt>
      <trkpt lat="42.89955" lon="0.94643">
        <ele>1717.05</ele>
        <time>2019-01-06T10:53:48Z</time>
      </trkpt>
      <trkpt lat="42.89954" lon="0.94639">
        <ele>1717.53</ele>
        <time>2019-01-06T10:53:52Z</time>
      </trkpt>
      <trkpt lat="42.8995" lon="0.94633">
        <ele>1718.01</ele>
        <time>2019-01-06T10:53:57Z</time>
      </trkpt>
      <trkpt lat="42.89951" lon="0.94619">
        <ele>1718.97</ele>
        <time>2019-01-06T10:54:10Z</time>
      </trkpt>
      <trkpt lat="42.89947" lon="0.94605">
        <ele>1721.38</ele>
        <time>2019-01-06T10:54:26Z</time>
      </trkpt>
      <trkpt lat="42.89946" lon="0.94598">
        <ele>1721.38</ele>
        <time>2019-01-06T10:54:34Z</time>
      </trkpt>
      <trkpt lat="42.89947" lon="0.94586">
        <ele>1720.42</ele>
        <time>2019-01-06T10:54:52Z</time>
      </trkpt>
      <trkpt lat="42.89947" lon="0.94581">
        <ele>1723.3</ele>
        <time>2019-01-06T10:55:07Z</time>
      </trkpt>
      <trkpt lat="42.89948" lon="0.94577">
        <ele>1724.26</ele>
        <time>2019-01-06T10:55:25Z</time>
      </trkpt>
      <trkpt lat="42.89951" lon="0.94569">
        <ele>1724.26</ele>
        <time>2019-01-06T10:55:38Z</time>
      </trkpt>
      <trkpt lat="42.89951" lon="0.9456">
        <ele>1723.78</ele>
        <time>2019-01-06T10:55:50Z</time>
      </trkpt>
      <trkpt lat="42.89951" lon="0.94559">
        <ele>1723.78</ele>
        <time>2019-01-06T10:55:51Z</time>
      </trkpt>
      <trkpt lat="42.89951" lon="0.94546">
        <ele>1723.3</ele>
        <time>2019-01-06T10:56:06Z</time>
      </trkpt>
      <trkpt lat="42.89953" lon="0.94538">
        <ele>1721.86</ele>
        <time>2019-01-06T10:56:21Z</time>
      </trkpt>
      <trkpt lat="42.8995" lon="0.9453">
        <ele>1720.42</ele>
        <time>2019-01-06T10:56:34Z</time>
      </trkpt>
      <trkpt lat="42.89951" lon="0.94529">
        <ele>1719.94</ele>
        <time>2019-01-06T10:56:35Z</time>
      </trkpt>
      <trkpt lat="42.89955" lon="0.94511">
        <ele>1717.53</ele>
        <time>2019-01-06T10:56:45Z</time>
      </trkpt>
      <trkpt lat="42.89959" lon="0.94496">
        <ele>1715.61</ele>
        <time>2019-01-06T10:56:54Z</time>
      </trkpt>
      <trkpt lat="42.89959" lon="0.94493">
        <ele>1715.61</ele>
        <time>2019-01-06T10:56:56Z</time>
      </trkpt>
      <trkpt lat="42.89954" lon="0.94482">
        <ele>1717.05</ele>
        <time>2019-01-06T10:57:09Z</time>
      </trkpt>
      <trkpt lat="42.89959" lon="0.94466">
        <ele>1719.94</ele>
        <time>2019-01-06T10:57:25Z</time>
      </trkpt>
      <trkpt lat="42.8996" lon="0.94451">
        <ele>1720.42</ele>
        <time>2019-01-06T10:57:38Z</time>
      </trkpt>
      <trkpt lat="42.89957" lon="0.94435">
        <ele>1722.34</ele>
        <time>2019-01-06T10:58:00Z</time>
      </trkpt>
      <trkpt lat="42.89955" lon="0.94422">
        <ele>1723.3</ele>
        <time>2019-01-06T10:58:16Z</time>
      </trkpt>
      <trkpt lat="42.89951" lon="0.94406">
        <ele>1725.22</ele>
        <time>2019-01-06T10:58:33Z</time>
      </trkpt>
      <trkpt lat="42.89951" lon="0.94404">
        <ele>1725.22</ele>
        <time>2019-01-06T10:58:34Z</time>
      </trkpt>
      <trkpt lat="42.89951" lon="0.944">
        <ele>1725.7</ele>
        <time>2019-01-06T10:58:37Z</time>
      </trkpt>
      <trkpt lat="42.89949" lon="0.94393">
        <ele>1726.18</ele>
        <time>2019-01-06T10:58:42Z</time>
      </trkpt>
      <trkpt lat="42.89948" lon="0.9438">
        <ele>1726.67</ele>
        <time>2019-01-06T10:58:53Z</time>
      </trkpt>
      <trkpt lat="42.8995" lon="0.9437">
        <ele>1727.63</ele>
        <time>2019-01-06T10:59:07Z</time>
      </trkpt>
      <trkpt lat="42.89951" lon="0.94362">
        <ele>1730.51</ele>
        <time>2019-01-06T10:59:25Z</time>
      </trkpt>
      <trkpt lat="42.89947" lon="0.94351">
        <ele>1733.39</ele>
        <time>2019-01-06T10:59:39Z</time>
      </trkpt>
      <trkpt lat="42.89947" lon="0.94334">
        <ele>1735.32</ele>
        <time>2019-01-06T10:59:55Z</time>
      </trkpt>
      <trkpt lat="42.89943" lon="0.94324">
        <ele>1736.28</ele>
        <time>2019-01-06T11:00:12Z</time>
      </trkpt>
      <trkpt lat="42.89941" lon="0.94313">
        <ele>1735.8</ele>
        <time>2019-01-06T11:00:27Z</time>
      </trkpt>
      <trkpt lat="42.89938" lon="0.94304">
        <ele>1734.84</ele>
        <time>2019-01-06T11:00:42Z</time>
      </trkpt>
      <trkpt lat="42.89938" lon="0.94293">
        <ele>1734.36</ele>
        <time>2019-01-06T11:00:56Z</time>
      </trkpt>
      <trkpt lat="42.89942" lon="0.94282">
        <ele>1733.88</ele>
        <time>2019-01-06T11:01:07Z</time>
      </trkpt>
      <trkpt lat="42.89944" lon="0.94277">
        <ele>1733.88</ele>
        <time>2019-01-06T11:01:11Z</time>
      </trkpt>
      <trkpt lat="42.89947" lon="0.94264">
        <ele>1732.91</ele>
        <time>2019-01-06T11:01:30Z</time>
      </trkpt>
      <trkpt lat="42.89948" lon="0.94257">
        <ele>1731.95</ele>
        <time>2019-01-06T11:01:48Z</time>
      </trkpt>
      <trkpt lat="42.89948" lon="0.94257">
        <ele>1731.95</ele>
        <time>2019-01-06T11:02:07Z</time>
      </trkpt>
      <trkpt lat="42.89951" lon="0.94246">
        <ele>1733.39</ele>
        <time>2019-01-06T11:02:29Z</time>
      </trkpt>
      <trkpt lat="42.89949" lon="0.94252">
        <ele>1733.88</ele>
        <time>2019-01-06T11:02:50Z</time>
      </trkpt>
      <trkpt lat="42.89951" lon="0.94258">
        <ele>1732.43</ele>
        <time>2019-01-06T11:03:04Z</time>
      </trkpt>
      <trkpt lat="42.89951" lon="0.94256">
        <ele>1732.43</ele>
        <time>2019-01-06T11:03:25Z</time>
      </trkpt>
      <trkpt lat="42.8995" lon="0.94252">
        <ele>1733.39</ele>
        <time>2019-01-06T11:03:41Z</time>
      </trkpt>
      <trkpt lat="42.89946" lon="0.94249">
        <ele>1732.91</ele>
        <time>2019-01-06T11:03:55Z</time>
      </trkpt>
      <trkpt lat="42.89947" lon="0.94245">
        <ele>1731.95</ele>
        <time>2019-01-06T11:04:07Z</time>
      </trkpt>
      <trkpt lat="42.89948" lon="0.94245">
        <ele>1730.99</ele>
        <time>2019-01-06T11:04:21Z</time>
      </trkpt>
      <trkpt lat="42.89947" lon="0.94243">
        <ele>1731.47</ele>
        <time>2019-01-06T11:04:51Z</time>
      </trkpt>
      <trkpt lat="42.89948" lon="0.94244">
        <ele>1730.99</ele>
        <time>2019-01-06T11:05:11Z</time>
      </trkpt>
      <trkpt lat="42.89947" lon="0.94244">
        <ele>1731.47</ele>
        <time>2019-01-06T11:05:55Z</time>
      </trkpt>
      <trkpt lat="42.89947" lon="0.94244">
        <ele>1731.95</ele>
        <time>2019-01-06T11:06:42Z</time>
      </trkpt>
      <trkpt lat="42.89947" lon="0.94243">
        <ele>1731.47</ele>
        <time>2019-01-06T11:07:54Z</time>
      </trkpt>
      <trkpt lat="42.89949" lon="0.94243">
        <ele>1731.47</ele>
        <time>2019-01-06T11:08:57Z</time>
      </trkpt>
      <trkpt lat="42.89946" lon="0.94243">
        <ele>1731.47</ele>
        <time>2019-01-06T11:10:05Z</time>
      </trkpt>
      <trkpt lat="42.89947" lon="0.94242">
        <ele>1731.47</ele>
        <time>2019-01-06T11:11:18Z</time>
      </trkpt>
      <trkpt lat="42.89947" lon="0.94243">
        <ele>1731.95</ele>
        <time>2019-01-06T11:12:17Z</time>
      </trkpt>
      <trkpt lat="42.89948" lon="0.94243">
        <ele>1731.95</ele>
        <time>2019-01-06T11:13:22Z</time>
      </trkpt>
      <trkpt lat="42.89949" lon="0.94242">
        <ele>1731.95</ele>
        <time>2019-01-06T11:14:38Z</time>
      </trkpt>
      <trkpt lat="42.89949" lon="0.94242">
        <ele>1731.95</ele>
        <time>2019-01-06T11:15:32Z</time>
      </trkpt>
      <trkpt lat="42.89947" lon="0.94243">
        <ele>1732.43</ele>
        <time>2019-01-06T11:16:41Z</time>
      </trkpt>
      <trkpt lat="42.89948" lon="0.94242">
        <ele>1732.43</ele>
        <time>2019-01-06T11:17:45Z</time>
      </trkpt>
      <trkpt lat="42.89946" lon="0.94243">
        <ele>1732.91</ele>
        <time>2019-01-06T11:18:58Z</time>
      </trkpt>
      <trkpt lat="42.89946" lon="0.94242">
        <ele>1732.91</ele>
        <time>2019-01-06T11:20:32Z</time>
      </trkpt>
      <trkpt lat="42.89946" lon="0.94243">
        <ele>1733.39</ele>
        <time>2019-01-06T11:21:09Z</time>
      </trkpt>
      <trkpt lat="42.89948" lon="0.94242">
        <ele>1733.39</ele>
        <time>2019-01-06T11:21:50Z</time>
      </trkpt>
      <trkpt lat="42.89946" lon="0.94243">
        <ele>1733.39</ele>
        <time>2019-01-06T11:22:36Z</time>
      </trkpt>
      <trkpt lat="42.89947" lon="0.94243">
        <ele>1732.91</ele>
        <time>2019-01-06T11:25:55Z</time>
      </trkpt>
      <trkpt lat="42.89946" lon="0.94243">
        <ele>1733.39</ele>
        <time>2019-01-06T11:29:19Z</time>
      </trkpt>
      <trkpt lat="42.89946" lon="0.94243">
        <ele>1733.88</ele>
        <time>2019-01-06T11:31:52Z</time>
      </trkpt>
      <trkpt lat="42.89947" lon="0.94244">
        <ele>1733.88</ele>
        <time>2019-01-06T11:34:51Z</time>
      </trkpt>
      <trkpt lat="42.89948" lon="0.94245">
        <ele>1734.36</ele>
        <time>2019-01-06T11:36:34Z</time>
      </trkpt>
      <trkpt lat="42.89948" lon="0.94245">
        <ele>1734.36</ele>
        <time>2019-01-06T11:39:04Z</time>
      </trkpt>
      <trkpt lat="42.89948" lon="0.94245">
        <ele>1734.84</ele>
        <time>2019-01-06T11:40:58Z</time>
      </trkpt>
      <trkpt lat="42.89948" lon="0.94246">
        <ele>1734.84</ele>
        <time>2019-01-06T11:43:27Z</time>
      </trkpt>
      <trkpt lat="42.89948" lon="0.94245">
        <ele>1735.32</ele>
        <time>2019-01-06T11:45:55Z</time>
      </trkpt>
      <trkpt lat="42.89946" lon="0.94244">
        <ele>1734.84</ele>
        <time>2019-01-06T11:47:32Z</time>
      </trkpt>
      <trkpt lat="42.89944" lon="0.94242">
        <ele>1735.32</ele>
        <time>2019-01-06T11:48:05Z</time>
      </trkpt>
      <trkpt lat="42.89945" lon="0.94244">
        <ele>1734.84</ele>
        <time>2019-01-06T11:49:44Z</time>
      </trkpt>
      <trkpt lat="42.89945" lon="0.94244">
        <ele>1734.84</ele>
        <time>2019-01-06T11:50:36Z</time>
      </trkpt>
      <trkpt lat="42.89945" lon="0.94243">
        <ele>1734.84</ele>
        <time>2019-01-06T11:51:49Z</time>
      </trkpt>
      <trkpt lat="42.89945" lon="0.94244">
        <ele>1734.84</ele>
        <time>2019-01-06T11:52:31Z</time>
      </trkpt>
      <trkpt lat="42.89945" lon="0.94244">
        <ele>1735.32</ele>
        <time>2019-01-06T11:53:25Z</time>
      </trkpt>
      <trkpt lat="42.89947" lon="0.94244">
        <ele>1735.8</ele>
        <time>2019-01-06T11:54:04Z</time>
      </trkpt>
      <trkpt lat="42.89947" lon="0.94244">
        <ele>1735.8</ele>
        <time>2019-01-06T11:54:41Z</time>
      </trkpt>
      <trkpt lat="42.89945" lon="0.94244">
        <ele>1735.8</ele>
        <time>2019-01-06T11:55:29Z</time>
      </trkpt>
      <trkpt lat="42.89946" lon="0.94243">
        <ele>1735.8</ele>
        <time>2019-01-06T11:58:21Z</time>
      </trkpt>
      <trkpt lat="42.89947" lon="0.94242">
        <ele>1735.8</ele>
        <time>2019-01-06T12:00:53Z</time>
      </trkpt>
      <trkpt lat="42.89948" lon="0.94243">
        <ele>1735.8</ele>
        <time>2019-01-06T12:03:10Z</time>
      </trkpt>
      <trkpt lat="42.89947" lon="0.94243">
        <ele>1735.8</ele>
        <time>2019-01-06T12:05:06Z</time>
      </trkpt>
      <trkpt lat="42.89947" lon="0.94244">
        <ele>1735.32</ele>
        <time>2019-01-06T12:07:05Z</time>
      </trkpt>
      <trkpt lat="42.89947" lon="0.94244">
        <ele>1735.32</ele>
        <time>2019-01-06T12:09:19Z</time>
      </trkpt>
      <trkpt lat="42.89947" lon="0.94243">
        <ele>1735.32</ele>
        <time>2019-01-06T12:11:43Z</time>
      </trkpt>
      <trkpt lat="42.89948" lon="0.94243">
        <ele>1735.32</ele>
        <time>2019-01-06T12:13:34Z</time>
      </trkpt>
      <trkpt lat="42.89946" lon="0.94243">
        <ele>1735.8</ele>
        <time>2019-01-06T12:14:45Z</time>
      </trkpt>
      <trkpt lat="42.89945" lon="0.94242">
        <ele>1735.8</ele>
        <time>2019-01-06T12:15:30Z</time>
      </trkpt>
      <trkpt lat="42.89943" lon="0.94242">
        <ele>1735.32</ele>
        <time>2019-01-06T12:16:41Z</time>
      </trkpt>
      <trkpt lat="42.89942" lon="0.94243">
        <ele>1735.32</ele>
        <time>2019-01-06T12:17:34Z</time>
      </trkpt>
      <trkpt lat="42.89941" lon="0.94243">
        <ele>1734.84</ele>
        <time>2019-01-06T12:18:01Z</time>
      </trkpt>
      <trkpt lat="42.89931" lon="0.94241">
        <ele>1733.39</ele>
        <time>2019-01-06T12:18:19Z</time>
      </trkpt>
      <trkpt lat="42.89922" lon="0.94239">
        <ele>1730.03</ele>
        <time>2019-01-06T12:18:34Z</time>
      </trkpt>
      <trkpt lat="42.89915" lon="0.94238">
        <ele>1727.15</ele>
        <time>2019-01-06T12:18:45Z</time>
      </trkpt>
      <trkpt lat="42.89908" lon="0.94239">
        <ele>1723.78</ele>
        <time>2019-01-06T12:18:56Z</time>
      </trkpt>
      <trkpt lat="42.89901" lon="0.94238">
        <ele>1720.9</ele>
        <time>2019-01-06T12:19:07Z</time>
      </trkpt>
      <trkpt lat="42.89894" lon="0.9424">
        <ele>1717.53</ele>
        <time>2019-01-06T12:19:17Z</time>
      </trkpt>
      <trkpt lat="42.89888" lon="0.94239">
        <ele>1714.17</ele>
        <time>2019-01-06T12:19:27Z</time>
      </trkpt>
      <trkpt lat="42.89882" lon="0.94237">
        <ele>1711.28</ele>
        <time>2019-01-06T12:19:37Z</time>
      </trkpt>
      <trkpt lat="42.89876" lon="0.94238">
        <ele>1708.4</ele>
        <time>2019-01-06T12:19:51Z</time>
      </trkpt>
      <trkpt lat="42.8987" lon="0.94238">
        <ele>1706</ele>
        <time>2019-01-06T12:20:02Z</time>
      </trkpt>
      <trkpt lat="42.89862" lon="0.9424">
        <ele>1702.63</ele>
        <time>2019-01-06T12:20:14Z</time>
      </trkpt>
      <trkpt lat="42.89856" lon="0.94233">
        <ele>1699.75</ele>
        <time>2019-01-06T12:20:25Z</time>
      </trkpt>
      <trkpt lat="42.89853" lon="0.94225">
        <ele>1696.38</ele>
        <time>2019-01-06T12:20:34Z</time>
      </trkpt>
      <trkpt lat="42.89851" lon="0.94215">
        <ele>1693.5</ele>
        <time>2019-01-06T12:20:43Z</time>
      </trkpt>
      <trkpt lat="42.8985" lon="0.94207">
        <ele>1690.62</ele>
        <time>2019-01-06T12:20:50Z</time>
      </trkpt>
      <trkpt lat="42.8985" lon="0.94204">
        <ele>1690.14</ele>
        <time>2019-01-06T12:20:52Z</time>
      </trkpt>
      <trkpt lat="42.8985" lon="0.94202">
        <ele>1689.17</ele>
        <time>2019-01-06T12:20:54Z</time>
      </trkpt>
      <trkpt lat="42.89848" lon="0.94193">
        <ele>1685.81</ele>
        <time>2019-01-06T12:21:09Z</time>
      </trkpt>
      <trkpt lat="42.89844" lon="0.9419">
        <ele>1682.93</ele>
        <time>2019-01-06T12:21:23Z</time>
      </trkpt>
      <trkpt lat="42.89841" lon="0.94187">
        <ele>1679.56</ele>
        <time>2019-01-06T12:21:33Z</time>
      </trkpt>
      <trkpt lat="42.89838" lon="0.94188">
        <ele>1676.68</ele>
        <time>2019-01-06T12:21:44Z</time>
      </trkpt>
      <trkpt lat="42.8983" lon="0.94195">
        <ele>1674.27</ele>
        <time>2019-01-06T12:21:59Z</time>
      </trkpt>
      <trkpt lat="42.8982" lon="0.94203">
        <ele>1671.39</ele>
        <time>2019-01-06T12:22:18Z</time>
      </trkpt>
      <trkpt lat="42.89813" lon="0.94205">
        <ele>1668.02</ele>
        <time>2019-01-06T12:22:29Z</time>
      </trkpt>
      <trkpt lat="42.89808" lon="0.94204">
        <ele>1664.66</ele>
        <time>2019-01-06T12:22:40Z</time>
      </trkpt>
      <trkpt lat="42.89803" lon="0.94208">
        <ele>1662.74</ele>
        <time>2019-01-06T12:22:47Z</time>
      </trkpt>
      <trkpt lat="42.89797" lon="0.94212">
        <ele>1659.37</ele>
        <time>2019-01-06T12:23:01Z</time>
      </trkpt>
      <trkpt lat="42.89795" lon="0.94204">
        <ele>1656.01</ele>
        <time>2019-01-06T12:23:10Z</time>
      </trkpt>
      <trkpt lat="42.8979" lon="0.94202">
        <ele>1652.64</ele>
        <time>2019-01-06T12:23:22Z</time>
      </trkpt>
      <trkpt lat="42.89785" lon="0.94202">
        <ele>1649.28</ele>
        <time>2019-01-06T12:23:32Z</time>
      </trkpt>
      <trkpt lat="42.89781" lon="0.94198">
        <ele>1646.4</ele>
        <time>2019-01-06T12:23:43Z</time>
      </trkpt>
      <trkpt lat="42.89778" lon="0.94194">
        <ele>1643.03</ele>
        <time>2019-01-06T12:23:52Z</time>
      </trkpt>
      <trkpt lat="42.89772" lon="0.94191">
        <ele>1640.15</ele>
        <time>2019-01-06T12:24:05Z</time>
      </trkpt>
      <trkpt lat="42.89771" lon="0.9419">
        <ele>1636.78</ele>
        <time>2019-01-06T12:24:15Z</time>
      </trkpt>
      <trkpt lat="42.89768" lon="0.9419">
        <ele>1634.86</ele>
        <time>2019-01-06T12:24:42Z</time>
      </trkpt>
      <trkpt lat="42.89762" lon="0.94186">
        <ele>1631.49</ele>
        <time>2019-01-06T12:25:00Z</time>
      </trkpt>
      <trkpt lat="42.89757" lon="0.94182">
        <ele>1628.61</ele>
        <time>2019-01-06T12:25:14Z</time>
      </trkpt>
      <trkpt lat="42.89756" lon="0.94176">
        <ele>1625.25</ele>
        <time>2019-01-06T12:25:27Z</time>
      </trkpt>
      <trkpt lat="42.8975" lon="0.94181">
        <ele>1622.36</ele>
        <time>2019-01-06T12:25:44Z</time>
      </trkpt>
      <trkpt lat="42.89746" lon="0.94177">
        <ele>1619.48</ele>
        <time>2019-01-06T12:25:58Z</time>
      </trkpt>
      <trkpt lat="42.89742" lon="0.94177">
        <ele>1617.07</ele>
        <time>2019-01-06T12:26:10Z</time>
      </trkpt>
      <trkpt lat="42.89738" lon="0.94177">
        <ele>1613.71</ele>
        <time>2019-01-06T12:26:28Z</time>
      </trkpt>
      <trkpt lat="42.89732" lon="0.94174">
        <ele>1610.35</ele>
        <time>2019-01-06T12:26:43Z</time>
      </trkpt>
      <trkpt lat="42.89729" lon="0.9417">
        <ele>1606.98</ele>
        <time>2019-01-06T12:26:57Z</time>
      </trkpt>
      <trkpt lat="42.89723" lon="0.94171">
        <ele>1603.62</ele>
        <time>2019-01-06T12:27:14Z</time>
      </trkpt>
      <trkpt lat="42.89716" lon="0.94172">
        <ele>1600.73</ele>
        <time>2019-01-06T12:27:28Z</time>
      </trkpt>
      <trkpt lat="42.8971" lon="0.94174">
        <ele>1597.37</ele>
        <time>2019-01-06T12:27:41Z</time>
      </trkpt>
      <trkpt lat="42.89708" lon="0.94176">
        <ele>1596.41</ele>
        <time>2019-01-06T12:27:47Z</time>
      </trkpt>
      <trkpt lat="42.89703" lon="0.94181">
        <ele>1594.48</ele>
        <time>2019-01-06T12:27:53Z</time>
      </trkpt>
      <trkpt lat="42.89693" lon="0.94192">
        <ele>1591.12</ele>
        <time>2019-01-06T12:28:06Z</time>
      </trkpt>
      <trkpt lat="42.89691" lon="0.94192">
        <ele>1590.64</ele>
        <time>2019-01-06T12:28:08Z</time>
      </trkpt>
      <trkpt lat="42.89679" lon="0.94191">
        <ele>1587.75</ele>
        <time>2019-01-06T12:28:22Z</time>
      </trkpt>
      <trkpt lat="42.89669" lon="0.94194">
        <ele>1584.39</ele>
        <time>2019-01-06T12:28:32Z</time>
      </trkpt>
      <trkpt lat="42.89666" lon="0.94196">
        <ele>1583.43</ele>
        <time>2019-01-06T12:28:36Z</time>
      </trkpt>
      <trkpt lat="42.89653" lon="0.94203">
        <ele>1580.54</ele>
        <time>2019-01-06T12:28:49Z</time>
      </trkpt>
      <trkpt lat="42.89636" lon="0.94201">
        <ele>1577.66</ele>
        <time>2019-01-06T12:29:05Z</time>
      </trkpt>
      <trkpt lat="42.89633" lon="0.942">
        <ele>1577.18</ele>
        <time>2019-01-06T12:29:08Z</time>
      </trkpt>
      <trkpt lat="42.89623" lon="0.94198">
        <ele>1575.26</ele>
        <time>2019-01-06T12:29:23Z</time>
      </trkpt>
      <trkpt lat="42.89621" lon="0.94197">
        <ele>1574.3</ele>
        <time>2019-01-06T12:29:49Z</time>
      </trkpt>
      <trkpt lat="42.89625" lon="0.94199">
        <ele>1574.78</ele>
        <time>2019-01-06T12:30:26Z</time>
      </trkpt>
      <trkpt lat="42.89625" lon="0.94196">
        <ele>1574.78</ele>
        <time>2019-01-06T12:30:49Z</time>
      </trkpt>
      <trkpt lat="42.89627" lon="0.94199">
        <ele>1574.3</ele>
        <time>2019-01-06T12:31:10Z</time>
      </trkpt>
      <trkpt lat="42.89627" lon="0.94199">
        <ele>1574.78</ele>
        <time>2019-01-06T12:32:05Z</time>
      </trkpt>
      <trkpt lat="42.89629" lon="0.94199">
        <ele>1574.78</ele>
        <time>2019-01-06T12:32:43Z</time>
      </trkpt>
      <trkpt lat="42.89627" lon="0.94197">
        <ele>1574.3</ele>
        <time>2019-01-06T12:33:30Z</time>
      </trkpt>
      <trkpt lat="42.89628" lon="0.94199">
        <ele>1574.78</ele>
        <time>2019-01-06T12:34:32Z</time>
      </trkpt>
      <trkpt lat="42.89629" lon="0.94198">
        <ele>1574.78</ele>
        <time>2019-01-06T12:35:12Z</time>
      </trkpt>
      <trkpt lat="42.8963" lon="0.94199">
        <ele>1574.78</ele>
        <time>2019-01-06T12:36:28Z</time>
      </trkpt>
      <trkpt lat="42.89631" lon="0.94199">
        <ele>1574.78</ele>
        <time>2019-01-06T12:36:55Z</time>
      </trkpt>
      <trkpt lat="42.89629" lon="0.94199">
        <ele>1575.26</ele>
        <time>2019-01-06T12:37:48Z</time>
      </trkpt>
      <trkpt lat="42.89631" lon="0.94197">
        <ele>1575.74</ele>
        <time>2019-01-06T12:38:03Z</time>
      </trkpt>
      <trkpt lat="42.89629" lon="0.94198">
        <ele>1576.22</ele>
        <time>2019-01-06T12:38:20Z</time>
      </trkpt>
      <trkpt lat="42.89621" lon="0.94195">
        <ele>1576.22</ele>
        <time>2019-01-06T12:38:27Z</time>
      </trkpt>
      <trkpt lat="42.89622" lon="0.94199">
        <ele>1576.22</ele>
        <time>2019-01-06T12:38:30Z</time>
      </trkpt>
      <trkpt lat="42.8961" lon="0.94203">
        <ele>1576.22</ele>
        <time>2019-01-06T12:38:39Z</time>
      </trkpt>
      <trkpt lat="42.89612" lon="0.94204">
        <ele>1576.22</ele>
        <time>2019-01-06T12:38:41Z</time>
      </trkpt>
      <trkpt lat="42.89613" lon="0.94218">
        <ele>1576.22</ele>
        <time>2019-01-06T12:38:50Z</time>
      </trkpt>
      <trkpt lat="42.89612" lon="0.94219">
        <ele>1575.74</ele>
        <time>2019-01-06T12:38:58Z</time>
      </trkpt>
      <trkpt lat="42.89608" lon="0.94216">
        <ele>1574.78</ele>
        <time>2019-01-06T12:39:01Z</time>
      </trkpt>
      <trkpt lat="42.89606" lon="0.94218">
        <ele>1574.78</ele>
        <time>2019-01-06T12:39:03Z</time>
      </trkpt>
      <trkpt lat="42.89603" lon="0.94217">
        <ele>1574.78</ele>
        <time>2019-01-06T12:39:11Z</time>
      </trkpt>
      <trkpt lat="42.896" lon="0.94219">
        <ele>1575.74</ele>
        <time>2019-01-06T12:39:19Z</time>
      </trkpt>
      <trkpt lat="42.89602" lon="0.94213">
        <ele>1574.78</ele>
        <time>2019-01-06T12:39:30Z</time>
      </trkpt>
      <trkpt lat="42.89598" lon="0.94207">
        <ele>1575.74</ele>
        <time>2019-01-06T12:39:38Z</time>
      </trkpt>
      <trkpt lat="42.896" lon="0.94208">
        <ele>1576.22</ele>
        <time>2019-01-06T12:39:40Z</time>
      </trkpt>
      <trkpt lat="42.89618" lon="0.94206">
        <ele>1576.22</ele>
        <time>2019-01-06T12:39:55Z</time>
      </trkpt>
      <trkpt lat="42.89628" lon="0.94204">
        <ele>1575.74</ele>
        <time>2019-01-06T12:40:06Z</time>
      </trkpt>
      <trkpt lat="42.89628" lon="0.94208">
        <ele>1575.74</ele>
        <time>2019-01-06T12:40:09Z</time>
      </trkpt>
      <trkpt lat="42.8963" lon="0.94218">
        <ele>1575.26</ele>
        <time>2019-01-06T12:40:15Z</time>
      </trkpt>
      <trkpt lat="42.89633" lon="0.94225">
        <ele>1575.26</ele>
        <time>2019-01-06T12:40:20Z</time>
      </trkpt>
      <trkpt lat="42.89638" lon="0.94234">
        <ele>1574.78</ele>
        <time>2019-01-06T12:40:26Z</time>
      </trkpt>
      <trkpt lat="42.89641" lon="0.94248">
        <ele>1571.89</ele>
        <time>2019-01-06T12:40:37Z</time>
      </trkpt>
      <trkpt lat="42.89632" lon="0.94253">
        <ele>1568.53</ele>
        <time>2019-01-06T12:40:48Z</time>
      </trkpt>
      <trkpt lat="42.89626" lon="0.94259">
        <ele>1565.16</ele>
        <time>2019-01-06T12:40:57Z</time>
      </trkpt>
      <trkpt lat="42.89626" lon="0.94268">
        <ele>1562.28</ele>
        <time>2019-01-06T12:41:05Z</time>
      </trkpt>
      <trkpt lat="42.89626" lon="0.94275">
        <ele>1560.84</ele>
        <time>2019-01-06T12:41:09Z</time>
      </trkpt>
      <trkpt lat="42.89624" lon="0.94282">
        <ele>1556.99</ele>
        <time>2019-01-06T12:41:19Z</time>
      </trkpt>
      <trkpt lat="42.89624" lon="0.94291">
        <ele>1554.11</ele>
        <time>2019-01-06T12:41:30Z</time>
      </trkpt>
      <trkpt lat="42.89625" lon="0.94304">
        <ele>1551.22</ele>
        <time>2019-01-06T12:41:43Z</time>
      </trkpt>
      <trkpt lat="42.89626" lon="0.94313">
        <ele>1547.86</ele>
        <time>2019-01-06T12:41:54Z</time>
      </trkpt>
      <trkpt lat="42.89627" lon="0.94326">
        <ele>1544.5</ele>
        <time>2019-01-06T12:42:08Z</time>
      </trkpt>
      <trkpt lat="42.89628" lon="0.94335">
        <ele>1542.57</ele>
        <time>2019-01-06T12:42:15Z</time>
      </trkpt>
      <trkpt lat="42.89632" lon="0.94344">
        <ele>1539.21</ele>
        <time>2019-01-06T12:42:26Z</time>
      </trkpt>
      <trkpt lat="42.89634" lon="0.94348">
        <ele>1537.77</ele>
        <time>2019-01-06T12:42:30Z</time>
      </trkpt>
      <trkpt lat="42.89632" lon="0.9436">
        <ele>1534.88</ele>
        <time>2019-01-06T12:42:45Z</time>
      </trkpt>
      <trkpt lat="42.89633" lon="0.94363">
        <ele>1534.4</ele>
        <time>2019-01-06T12:42:47Z</time>
      </trkpt>
      <trkpt lat="42.89634" lon="0.94374">
        <ele>1532</ele>
        <time>2019-01-06T12:43:02Z</time>
      </trkpt>
      <trkpt lat="42.89635" lon="0.94381">
        <ele>1531.52</ele>
        <time>2019-01-06T12:43:18Z</time>
      </trkpt>
      <trkpt lat="42.89635" lon="0.94385">
        <ele>1530.56</ele>
        <time>2019-01-06T12:43:37Z</time>
      </trkpt>
      <trkpt lat="42.89635" lon="0.94395">
        <ele>1530.56</ele>
        <time>2019-01-06T12:43:42Z</time>
      </trkpt>
      <trkpt lat="42.89635" lon="0.944">
        <ele>1530.56</ele>
        <time>2019-01-06T12:43:44Z</time>
      </trkpt>
      <trkpt lat="42.89625" lon="0.94417">
        <ele>1528.15</ele>
        <time>2019-01-06T12:43:52Z</time>
      </trkpt>
      <trkpt lat="42.89625" lon="0.9443">
        <ele>1523.83</ele>
        <time>2019-01-06T12:44:00Z</time>
      </trkpt>
      <trkpt lat="42.89625" lon="0.94437">
        <ele>1521.9</ele>
        <time>2019-01-06T12:44:04Z</time>
      </trkpt>
      <trkpt lat="42.89623" lon="0.9444">
        <ele>1520.94</ele>
        <time>2019-01-06T12:44:07Z</time>
      </trkpt>
      <trkpt lat="42.89622" lon="0.94443">
        <ele>1519.98</ele>
        <time>2019-01-06T12:44:09Z</time>
      </trkpt>
      <trkpt lat="42.8962" lon="0.94456">
        <ele>1517.58</ele>
        <time>2019-01-06T12:44:17Z</time>
      </trkpt>
      <trkpt lat="42.89617" lon="0.94461">
        <ele>1515.66</ele>
        <time>2019-01-06T12:44:20Z</time>
      </trkpt>
      <trkpt lat="42.89616" lon="0.94468">
        <ele>1513.25</ele>
        <time>2019-01-06T12:44:25Z</time>
      </trkpt>
      <trkpt lat="42.89618" lon="0.94477">
        <ele>1510.85</ele>
        <time>2019-01-06T12:44:34Z</time>
      </trkpt>
      <trkpt lat="42.89616" lon="0.94485">
        <ele>1509.89</ele>
        <time>2019-01-06T12:44:40Z</time>
      </trkpt>
      <trkpt lat="42.89616" lon="0.94493">
        <ele>1508.93</ele>
        <time>2019-01-06T12:44:47Z</time>
      </trkpt>
      <trkpt lat="42.89616" lon="0.94504">
        <ele>1507</ele>
        <time>2019-01-06T12:44:56Z</time>
      </trkpt>
      <trkpt lat="42.89614" lon="0.94508">
        <ele>1506.52</ele>
        <time>2019-01-06T12:45:00Z</time>
      </trkpt>
      <trkpt lat="42.89612" lon="0.94521">
        <ele>1504.6</ele>
        <time>2019-01-06T12:45:11Z</time>
      </trkpt>
      <trkpt lat="42.89611" lon="0.9453">
        <ele>1503.16</ele>
        <time>2019-01-06T12:45:23Z</time>
      </trkpt>
      <trkpt lat="42.89609" lon="0.94537">
        <ele>1502.2</ele>
        <time>2019-01-06T12:45:39Z</time>
      </trkpt>
      <trkpt lat="42.89609" lon="0.94539">
        <ele>1502.2</ele>
        <time>2019-01-06T12:45:41Z</time>
      </trkpt>
      <trkpt lat="42.89609" lon="0.94547">
        <ele>1502.2</ele>
        <time>2019-01-06T12:45:56Z</time>
      </trkpt>
      <trkpt lat="42.89608" lon="0.94551">
        <ele>1501.72</ele>
        <time>2019-01-06T12:46:28Z</time>
      </trkpt>
      <trkpt lat="42.89603" lon="0.94554">
        <ele>1501.72</ele>
        <time>2019-01-06T12:46:48Z</time>
      </trkpt>
      <trkpt lat="42.89602" lon="0.94561">
        <ele>1500.76</ele>
        <time>2019-01-06T12:46:59Z</time>
      </trkpt>
      <trkpt lat="42.89597" lon="0.94561">
        <ele>1497.87</ele>
        <time>2019-01-06T12:47:17Z</time>
      </trkpt>
      <trkpt lat="42.89594" lon="0.94567">
        <ele>1497.39</ele>
        <time>2019-01-06T12:47:25Z</time>
      </trkpt>
      <trkpt lat="42.89589" lon="0.94581">
        <ele>1494.03</ele>
        <time>2019-01-06T12:47:39Z</time>
      </trkpt>
      <trkpt lat="42.89584" lon="0.94591">
        <ele>1491.62</ele>
        <time>2019-01-06T12:47:50Z</time>
      </trkpt>
      <trkpt lat="42.89583" lon="0.94596">
        <ele>1491.14</ele>
        <time>2019-01-06T12:47:53Z</time>
      </trkpt>
      <trkpt lat="42.89582" lon="0.94602">
        <ele>1490.18</ele>
        <time>2019-01-06T12:47:57Z</time>
      </trkpt>
      <trkpt lat="42.89575" lon="0.94608">
        <ele>1488.26</ele>
        <time>2019-01-06T12:48:03Z</time>
      </trkpt>
      <trkpt lat="42.89571" lon="0.94624">
        <ele>1485.37</ele>
        <time>2019-01-06T12:48:12Z</time>
      </trkpt>
      <trkpt lat="42.89564" lon="0.94632">
        <ele>1484.41</ele>
        <time>2019-01-06T12:48:20Z</time>
      </trkpt>
      <trkpt lat="42.89547" lon="0.94656">
        <ele>1482.01</ele>
        <time>2019-01-06T12:48:33Z</time>
      </trkpt>
      <trkpt lat="42.89542" lon="0.94669">
        <ele>1479.13</ele>
        <time>2019-01-06T12:48:42Z</time>
      </trkpt>
      <trkpt lat="42.89539" lon="0.94673">
        <ele>1478.65</ele>
        <time>2019-01-06T12:48:46Z</time>
      </trkpt>
      <trkpt lat="42.89532" lon="0.94688">
        <ele>1477.68</ele>
        <time>2019-01-06T12:48:58Z</time>
      </trkpt>
      <trkpt lat="42.89525" lon="0.94703">
        <ele>1477.2</ele>
        <time>2019-01-06T12:49:10Z</time>
      </trkpt>
      <trkpt lat="42.89523" lon="0.94713">
        <ele>1476.24</ele>
        <time>2019-01-06T12:49:16Z</time>
      </trkpt>
      <trkpt lat="42.89514" lon="0.94732">
        <ele>1473.84</ele>
        <time>2019-01-06T12:49:27Z</time>
      </trkpt>
      <trkpt lat="42.89512" lon="0.94736">
        <ele>1473.84</ele>
        <time>2019-01-06T12:49:29Z</time>
      </trkpt>
      <trkpt lat="42.89508" lon="0.94743">
        <ele>1472.88</ele>
        <time>2019-01-06T12:49:34Z</time>
      </trkpt>
      <trkpt lat="42.89504" lon="0.94751">
        <ele>1472.4</ele>
        <time>2019-01-06T12:49:39Z</time>
      </trkpt>
      <trkpt lat="42.89501" lon="0.94764">
        <ele>1471.44</ele>
        <time>2019-01-06T12:49:46Z</time>
      </trkpt>
      <trkpt lat="42.89496" lon="0.94773">
        <ele>1470.47</ele>
        <time>2019-01-06T12:50:00Z</time>
      </trkpt>
      <trkpt lat="42.89493" lon="0.94773">
        <ele>1469.99</ele>
        <time>2019-01-06T12:50:20Z</time>
      </trkpt>
      <trkpt lat="42.89494" lon="0.9477">
        <ele>1469.99</ele>
        <time>2019-01-06T12:50:52Z</time>
      </trkpt>
      <trkpt lat="42.89497" lon="0.94775">
        <ele>1469.99</ele>
        <time>2019-01-06T12:51:17Z</time>
      </trkpt>
      <trkpt lat="42.89499" lon="0.94777">
        <ele>1470.47</ele>
        <time>2019-01-06T12:51:37Z</time>
      </trkpt>
      <trkpt lat="42.89499" lon="0.94776">
        <ele>1469.99</ele>
        <time>2019-01-06T12:51:54Z</time>
      </trkpt>
      <trkpt lat="42.89498" lon="0.94777">
        <ele>1469.99</ele>
        <time>2019-01-06T12:52:11Z</time>
      </trkpt>
      <trkpt lat="42.89495" lon="0.9478">
        <ele>1469.99</ele>
        <time>2019-01-06T12:52:28Z</time>
      </trkpt>
      <trkpt lat="42.89494" lon="0.94784">
        <ele>1469.51</ele>
        <time>2019-01-06T12:52:45Z</time>
      </trkpt>
      <trkpt lat="42.89492" lon="0.94786">
        <ele>1469.03</ele>
        <time>2019-01-06T12:53:03Z</time>
      </trkpt>
      <trkpt lat="42.89492" lon="0.94785">
        <ele>1469.03</ele>
        <time>2019-01-06T12:53:28Z</time>
      </trkpt>
      <trkpt lat="42.8949" lon="0.9479">
        <ele>1469.03</ele>
        <time>2019-01-06T12:53:58Z</time>
      </trkpt>
      <trkpt lat="42.89491" lon="0.94796">
        <ele>1469.03</ele>
        <time>2019-01-06T12:54:19Z</time>
      </trkpt>
      <trkpt lat="42.89495" lon="0.94802">
        <ele>1469.51</ele>
        <time>2019-01-06T12:54:33Z</time>
      </trkpt>
      <trkpt lat="42.89498" lon="0.94812">
        <ele>1471.92</ele>
        <time>2019-01-06T12:54:49Z</time>
      </trkpt>
      <trkpt lat="42.89503" lon="0.94824">
        <ele>1472.4</ele>
        <time>2019-01-06T12:55:11Z</time>
      </trkpt>
      <trkpt lat="42.89514" lon="0.94836">
        <ele>1473.84</ele>
        <time>2019-01-06T12:55:29Z</time>
      </trkpt>
      <trkpt lat="42.89516" lon="0.94834">
        <ele>1474.8</ele>
        <time>2019-01-06T12:55:48Z</time>
      </trkpt>
      <trkpt lat="42.89514" lon="0.94841">
        <ele>1474.8</ele>
        <time>2019-01-06T12:56:08Z</time>
      </trkpt>
      <trkpt lat="42.89511" lon="0.94839">
        <ele>1474.8</ele>
        <time>2019-01-06T12:56:25Z</time>
      </trkpt>
      <trkpt lat="42.89514" lon="0.94837">
        <ele>1475.28</ele>
        <time>2019-01-06T12:57:02Z</time>
      </trkpt>
      <trkpt lat="42.89515" lon="0.94843">
        <ele>1475.28</ele>
        <time>2019-01-06T12:57:18Z</time>
      </trkpt>
      <trkpt lat="42.89514" lon="0.94843">
        <ele>1475.28</ele>
        <time>2019-01-06T12:57:36Z</time>
      </trkpt>
      <trkpt lat="42.89515" lon="0.94846">
        <ele>1475.28</ele>
        <time>2019-01-06T12:57:55Z</time>
      </trkpt>
      <trkpt lat="42.89517" lon="0.94845">
        <ele>1475.76</ele>
        <time>2019-01-06T12:58:13Z</time>
      </trkpt>
      <trkpt lat="42.89516" lon="0.94845">
        <ele>1475.28</ele>
        <time>2019-01-06T12:58:30Z</time>
      </trkpt>
      <trkpt lat="42.89516" lon="0.94842">
        <ele>1475.76</ele>
        <time>2019-01-06T12:58:47Z</time>
      </trkpt>
      <trkpt lat="42.89517" lon="0.94844">
        <ele>1475.28</ele>
        <time>2019-01-06T12:59:05Z</time>
      </trkpt>
      <trkpt lat="42.89518" lon="0.9484">
        <ele>1475.28</ele>
        <time>2019-01-06T12:59:27Z</time>
      </trkpt>
      <trkpt lat="42.89513" lon="0.94839">
        <ele>1475.76</ele>
        <time>2019-01-06T13:00:04Z</time>
      </trkpt>
      <trkpt lat="42.89515" lon="0.94838">
        <ele>1475.76</ele>
        <time>2019-01-06T13:00:27Z</time>
      </trkpt>
      <trkpt lat="42.89514" lon="0.9484">
        <ele>1475.76</ele>
        <time>2019-01-06T13:00:48Z</time>
      </trkpt>
      <trkpt lat="42.89515" lon="0.94837">
        <ele>1475.76</ele>
        <time>2019-01-06T13:01:11Z</time>
      </trkpt>
      <trkpt lat="42.89513" lon="0.94841">
        <ele>1475.76</ele>
        <time>2019-01-06T13:01:37Z</time>
      </trkpt>
      <trkpt lat="42.89515" lon="0.94843">
        <ele>1475.76</ele>
        <time>2019-01-06T13:01:41Z</time>
      </trkpt>
      <trkpt lat="42.89514" lon="0.94854">
        <ele>1475.28</ele>
        <time>2019-01-06T13:01:48Z</time>
      </trkpt>
      <trkpt lat="42.89518" lon="0.94871">
        <ele>1473.84</ele>
        <time>2019-01-06T13:02:02Z</time>
      </trkpt>
      <trkpt lat="42.89518" lon="0.94872">
        <ele>1473.84</ele>
        <time>2019-01-06T13:02:03Z</time>
      </trkpt>
      <trkpt lat="42.89523" lon="0.94892">
        <ele>1474.8</ele>
        <time>2019-01-06T13:02:20Z</time>
      </trkpt>
      <trkpt lat="42.89524" lon="0.94921">
        <ele>1475.76</ele>
        <time>2019-01-06T13:02:38Z</time>
      </trkpt>
      <trkpt lat="42.89525" lon="0.94933">
        <ele>1475.76</ele>
        <time>2019-01-06T13:02:45Z</time>
      </trkpt>
      <trkpt lat="42.89528" lon="0.94963">
        <ele>1478.16</ele>
        <time>2019-01-06T13:03:09Z</time>
      </trkpt>
      <trkpt lat="42.89527" lon="0.94982">
        <ele>1480.57</ele>
        <time>2019-01-06T13:03:38Z</time>
      </trkpt>
      <trkpt lat="42.89529" lon="0.95014">
        <ele>1482.01</ele>
        <time>2019-01-06T13:04:09Z</time>
      </trkpt>
      <trkpt lat="42.8953" lon="0.95016">
        <ele>1482.01</ele>
        <time>2019-01-06T13:04:10Z</time>
      </trkpt>
      <trkpt lat="42.89532" lon="0.95044">
        <ele>1482.49</ele>
        <time>2019-01-06T13:04:20Z</time>
      </trkpt>
      <trkpt lat="42.89533" lon="0.95056">
        <ele>1483.45</ele>
        <time>2019-01-06T13:04:27Z</time>
      </trkpt>
      <trkpt lat="42.89543" lon="0.95081">
        <ele>1485.37</ele>
        <time>2019-01-06T13:04:51Z</time>
      </trkpt>
      <trkpt lat="42.8955" lon="0.95111">
        <ele>1485.85</ele>
        <time>2019-01-06T13:05:10Z</time>
      </trkpt>
      <trkpt lat="42.89552" lon="0.95117">
        <ele>1485.85</ele>
        <time>2019-01-06T13:05:13Z</time>
      </trkpt>
      <trkpt lat="42.89554" lon="0.95132">
        <ele>1486.34</ele>
        <time>2019-01-06T13:05:22Z</time>
      </trkpt>
      <trkpt lat="42.89572" lon="0.9516">
        <ele>1486.82</ele>
        <time>2019-01-06T13:05:43Z</time>
      </trkpt>
      <trkpt lat="42.89587" lon="0.95192">
        <ele>1486.82</ele>
        <time>2019-01-06T13:06:04Z</time>
      </trkpt>
      <trkpt lat="42.89604" lon="0.95214">
        <ele>1489.22</ele>
        <time>2019-01-06T13:06:27Z</time>
      </trkpt>
      <trkpt lat="42.89604" lon="0.95215">
        <ele>1489.22</ele>
        <time>2019-01-06T13:06:28Z</time>
      </trkpt>
      <trkpt lat="42.89616" lon="0.95233">
        <ele>1489.22</ele>
        <time>2019-01-06T13:06:40Z</time>
      </trkpt>
      <trkpt lat="42.89629" lon="0.95246">
        <ele>1489.7</ele>
        <time>2019-01-06T13:06:55Z</time>
      </trkpt>
      <trkpt lat="42.89636" lon="0.95268">
        <ele>1490.18</ele>
        <time>2019-01-06T13:07:11Z</time>
      </trkpt>
      <trkpt lat="42.89651" lon="0.95281">
        <ele>1489.22</ele>
        <time>2019-01-06T13:07:25Z</time>
      </trkpt>
      <trkpt lat="42.89653" lon="0.95292">
        <ele>1490.66</ele>
        <time>2019-01-06T13:07:42Z</time>
      </trkpt>
      <trkpt lat="42.89662" lon="0.95305">
        <ele>1492.1</ele>
        <time>2019-01-06T13:08:02Z</time>
      </trkpt>
      <trkpt lat="42.89668" lon="0.95322">
        <ele>1494.03</ele>
        <time>2019-01-06T13:08:20Z</time>
      </trkpt>
      <trkpt lat="42.89685" lon="0.95357">
        <ele>1496.43</ele>
        <time>2019-01-06T13:08:43Z</time>
      </trkpt>
      <trkpt lat="42.89688" lon="0.95384">
        <ele>1497.39</ele>
        <time>2019-01-06T13:08:58Z</time>
      </trkpt>
      <trkpt lat="42.8969" lon="0.95427">
        <ele>1498.35</ele>
        <time>2019-01-06T13:09:30Z</time>
      </trkpt>
      <trkpt lat="42.89693" lon="0.95426">
        <ele>1500.76</ele>
        <time>2019-01-06T13:10:01Z</time>
      </trkpt>
      <trkpt lat="42.89695" lon="0.95419">
        <ele>1503.64</ele>
        <time>2019-01-06T13:10:16Z</time>
      </trkpt>
      <trkpt lat="42.89696" lon="0.95419">
        <ele>1504.12</ele>
        <time>2019-01-06T13:10:18Z</time>
      </trkpt>
      <trkpt lat="42.89703" lon="0.95421">
        <ele>1507</ele>
        <time>2019-01-06T13:10:35Z</time>
      </trkpt>
      <trkpt lat="42.8971" lon="0.95428">
        <ele>1510.37</ele>
        <time>2019-01-06T13:10:54Z</time>
      </trkpt>
      <trkpt lat="42.8971" lon="0.95428">
        <ele>1511.81</ele>
        <time>2019-01-06T13:11:01Z</time>
      </trkpt>
      <trkpt lat="42.89713" lon="0.95428">
        <ele>1513.25</ele>
        <time>2019-01-06T13:11:27Z</time>
      </trkpt>
      <trkpt lat="42.89715" lon="0.95432">
        <ele>1514.21</ele>
        <time>2019-01-06T13:11:47Z</time>
      </trkpt>
      <trkpt lat="42.89707" lon="0.95431">
        <ele>1513.73</ele>
        <time>2019-01-06T13:11:57Z</time>
      </trkpt>
      <trkpt lat="42.89706" lon="0.95432">
        <ele>1513.73</ele>
        <time>2019-01-06T13:12:09Z</time>
      </trkpt>
      <trkpt lat="42.89706" lon="0.95435">
        <ele>1513.25</ele>
        <time>2019-01-06T13:12:20Z</time>
      </trkpt>
      <trkpt lat="42.89708" lon="0.9543">
        <ele>1513.25</ele>
        <time>2019-01-06T13:12:47Z</time>
      </trkpt>
      <trkpt lat="42.89709" lon="0.95435">
        <ele>1513.25</ele>
        <time>2019-01-06T13:12:58Z</time>
      </trkpt>
      <trkpt lat="42.89706" lon="0.95437">
        <ele>1512.77</ele>
        <time>2019-01-06T13:13:07Z</time>
      </trkpt>
      <trkpt lat="42.89704" lon="0.95437">
        <ele>1512.77</ele>
        <time>2019-01-06T13:13:09Z</time>
      </trkpt>
      <trkpt lat="42.89703" lon="0.95439">
        <ele>1512.29</ele>
        <time>2019-01-06T13:13:12Z</time>
      </trkpt>
      <trkpt lat="42.897" lon="0.95447">
        <ele>1509.41</ele>
        <time>2019-01-06T13:13:27Z</time>
      </trkpt>
      <trkpt lat="42.89698" lon="0.95458">
        <ele>1506.04</ele>
        <time>2019-01-06T13:13:42Z</time>
      </trkpt>
      <trkpt lat="42.89703" lon="0.95471">
        <ele>1503.16</ele>
        <time>2019-01-06T13:14:06Z</time>
      </trkpt>
      <trkpt lat="42.89699" lon="0.95504">
        <ele>1503.64</ele>
        <time>2019-01-06T13:14:30Z</time>
      </trkpt>
      <trkpt lat="42.89699" lon="0.95536">
        <ele>1503.16</ele>
        <time>2019-01-06T13:14:55Z</time>
      </trkpt>
      <trkpt lat="42.89703" lon="0.95572">
        <ele>1504.6</ele>
        <time>2019-01-06T13:15:21Z</time>
      </trkpt>
      <trkpt lat="42.89703" lon="0.95605">
        <ele>1507.48</ele>
        <time>2019-01-06T13:15:50Z</time>
      </trkpt>
      <trkpt lat="42.89709" lon="0.95632">
        <ele>1509.41</ele>
        <time>2019-01-06T13:16:15Z</time>
      </trkpt>
      <trkpt lat="42.89708" lon="0.95639">
        <ele>1509.41</ele>
        <time>2019-01-06T13:16:33Z</time>
      </trkpt>
      <trkpt lat="42.89716" lon="0.95651">
        <ele>1509.41</ele>
        <time>2019-01-06T13:16:53Z</time>
      </trkpt>
      <trkpt lat="42.89734" lon="0.95675">
        <ele>1509.41</ele>
        <time>2019-01-06T13:17:11Z</time>
      </trkpt>
      <trkpt lat="42.89742" lon="0.9569">
        <ele>1510.37</ele>
        <time>2019-01-06T13:17:32Z</time>
      </trkpt>
      <trkpt lat="42.89746" lon="0.95714">
        <ele>1510.85</ele>
        <time>2019-01-06T13:17:50Z</time>
      </trkpt>
      <trkpt lat="42.89757" lon="0.95747">
        <ele>1511.81</ele>
        <time>2019-01-06T13:18:16Z</time>
      </trkpt>
      <trkpt lat="42.89761" lon="0.95765">
        <ele>1511.33</ele>
        <time>2019-01-06T13:18:30Z</time>
      </trkpt>
      <trkpt lat="42.89759" lon="0.95792">
        <ele>1510.85</ele>
        <time>2019-01-06T13:18:49Z</time>
      </trkpt>
      <trkpt lat="42.89755" lon="0.95798">
        <ele>1510.85</ele>
        <time>2019-01-06T13:18:55Z</time>
      </trkpt>
      <trkpt lat="42.89754" lon="0.95827">
        <ele>1509.41</ele>
        <time>2019-01-06T13:19:14Z</time>
      </trkpt>
      <trkpt lat="42.89747" lon="0.95857">
        <ele>1507.48</ele>
        <time>2019-01-06T13:19:38Z</time>
      </trkpt>
      <trkpt lat="42.89739" lon="0.95882">
        <ele>1504.12</ele>
        <time>2019-01-06T13:19:53Z</time>
      </trkpt>
      <trkpt lat="42.8973" lon="0.95912">
        <ele>1501.72</ele>
        <time>2019-01-06T13:20:14Z</time>
      </trkpt>
      <trkpt lat="42.89724" lon="0.95932">
        <ele>1500.76</ele>
        <time>2019-01-06T13:20:29Z</time>
      </trkpt>
      <trkpt lat="42.8972" lon="0.95937">
        <ele>1500.27</ele>
        <time>2019-01-06T13:20:33Z</time>
      </trkpt>
      <trkpt lat="42.89711" lon="0.95959">
        <ele>1499.79</ele>
        <time>2019-01-06T13:20:48Z</time>
      </trkpt>
      <trkpt lat="42.89696" lon="0.95987">
        <ele>1499.31</ele>
        <time>2019-01-06T13:21:07Z</time>
      </trkpt>
      <trkpt lat="42.89685" lon="0.96007">
        <ele>1499.31</ele>
        <time>2019-01-06T13:21:25Z</time>
      </trkpt>
      <trkpt lat="42.89669" lon="0.96035">
        <ele>1499.31</ele>
        <time>2019-01-06T13:21:43Z</time>
      </trkpt>
      <trkpt lat="42.89669" lon="0.9604">
        <ele>1499.31</ele>
        <time>2019-01-06T13:21:46Z</time>
      </trkpt>
      <trkpt lat="42.89665" lon="0.9605">
        <ele>1499.79</ele>
        <time>2019-01-06T13:21:53Z</time>
      </trkpt>
      <trkpt lat="42.89655" lon="0.9609">
        <ele>1501.24</ele>
        <time>2019-01-06T13:22:15Z</time>
      </trkpt>
      <trkpt lat="42.89664" lon="0.96117">
        <ele>1503.64</ele>
        <time>2019-01-06T13:22:36Z</time>
      </trkpt>
      <trkpt lat="42.8967" lon="0.96143">
        <ele>1505.56</ele>
        <time>2019-01-06T13:22:59Z</time>
      </trkpt>
      <trkpt lat="42.89689" lon="0.96179">
        <ele>1505.56</ele>
        <time>2019-01-06T13:23:26Z</time>
      </trkpt>
      <trkpt lat="42.89695" lon="0.96209">
        <ele>1505.56</ele>
        <time>2019-01-06T13:23:45Z</time>
      </trkpt>
      <trkpt lat="42.89697" lon="0.96238">
        <ele>1507.48</ele>
        <time>2019-01-06T13:24:04Z</time>
      </trkpt>
      <trkpt lat="42.89698" lon="0.96244">
        <ele>1507.48</ele>
        <time>2019-01-06T13:24:07Z</time>
      </trkpt>
      <trkpt lat="42.89712" lon="0.96287">
        <ele>1507.97</ele>
        <time>2019-01-06T13:24:32Z</time>
      </trkpt>
      <trkpt lat="42.89713" lon="0.96314">
        <ele>1508.93</ele>
        <time>2019-01-06T13:24:51Z</time>
      </trkpt>
      <trkpt lat="42.89713" lon="0.96321">
        <ele>1510.37</ele>
        <time>2019-01-06T13:25:13Z</time>
      </trkpt>
      <trkpt lat="42.89712" lon="0.96334">
        <ele>1510.37</ele>
        <time>2019-01-06T13:25:19Z</time>
      </trkpt>
      <trkpt lat="42.89715" lon="0.96373">
        <ele>1513.25</ele>
        <time>2019-01-06T13:25:43Z</time>
      </trkpt>
      <trkpt lat="42.8973" lon="0.9641">
        <ele>1513.73</ele>
        <time>2019-01-06T13:26:05Z</time>
      </trkpt>
      <trkpt lat="42.89739" lon="0.9642">
        <ele>1511.81</ele>
        <time>2019-01-06T13:26:19Z</time>
      </trkpt>
      <trkpt lat="42.8975" lon="0.96437">
        <ele>1512.77</ele>
        <time>2019-01-06T13:26:38Z</time>
      </trkpt>
      <trkpt lat="42.89756" lon="0.96446">
        <ele>1513.25</ele>
        <time>2019-01-06T13:26:48Z</time>
      </trkpt>
      <trkpt lat="42.89758" lon="0.96449">
        <ele>1513.73</ele>
        <time>2019-01-06T13:26:50Z</time>
      </trkpt>
      <trkpt lat="42.89775" lon="0.96464">
        <ele>1516.62</ele>
        <time>2019-01-06T13:27:08Z</time>
      </trkpt>
      <trkpt lat="42.8978" lon="0.96467">
        <ele>1517.1</ele>
        <time>2019-01-06T13:27:15Z</time>
      </trkpt>
      <trkpt lat="42.89783" lon="0.9647">
        <ele>1517.1</ele>
        <time>2019-01-06T13:27:18Z</time>
      </trkpt>
      <trkpt lat="42.89791" lon="0.9648">
        <ele>1518.06</ele>
        <time>2019-01-06T13:27:32Z</time>
      </trkpt>
      <trkpt lat="42.89797" lon="0.9649">
        <ele>1520.94</ele>
        <time>2019-01-06T13:27:46Z</time>
      </trkpt>
      <trkpt lat="42.89804" lon="0.96498">
        <ele>1523.35</ele>
        <time>2019-01-06T13:28:03Z</time>
      </trkpt>
      <trkpt lat="42.898" lon="0.96497">
        <ele>1523.35</ele>
        <time>2019-01-06T13:28:14Z</time>
      </trkpt>
      <trkpt lat="42.89806" lon="0.965">
        <ele>1523.35</ele>
        <time>2019-01-06T13:28:37Z</time>
      </trkpt>
      <trkpt lat="42.89805" lon="0.96504">
        <ele>1523.35</ele>
        <time>2019-01-06T13:28:43Z</time>
      </trkpt>
      <trkpt lat="42.89806" lon="0.96505">
        <ele>1523.35</ele>
        <time>2019-01-06T13:28:49Z</time>
      </trkpt>
      <trkpt lat="42.8981" lon="0.965">
        <ele>1522.87</ele>
        <time>2019-01-06T13:29:17Z</time>
      </trkpt>
      <trkpt lat="42.89811" lon="0.965">
        <ele>1522.39</ele>
        <time>2019-01-06T13:29:38Z</time>
      </trkpt>
      <trkpt lat="42.89805" lon="0.96508">
        <ele>1521.9</ele>
        <time>2019-01-06T13:29:57Z</time>
      </trkpt>
      <trkpt lat="42.89815" lon="0.96497">
        <ele>1521.9</ele>
        <time>2019-01-06T13:30:23Z</time>
      </trkpt>
      <trkpt lat="42.89814" lon="0.96503">
        <ele>1521.9</ele>
        <time>2019-01-06T13:30:29Z</time>
      </trkpt>
      <trkpt lat="42.89809" lon="0.96507">
        <ele>1522.39</ele>
        <time>2019-01-06T13:30:33Z</time>
      </trkpt>
      <trkpt lat="42.89812" lon="0.9651">
        <ele>1522.39</ele>
        <time>2019-01-06T13:31:05Z</time>
      </trkpt>
      <trkpt lat="42.89812" lon="0.96517">
        <ele>1522.39</ele>
        <time>2019-01-06T13:31:13Z</time>
      </trkpt>
      <trkpt lat="42.89814" lon="0.96523">
        <ele>1522.39</ele>
        <time>2019-01-06T13:31:17Z</time>
      </trkpt>
      <trkpt lat="42.89818" lon="0.96544">
        <ele>1521.42</ele>
        <time>2019-01-06T13:31:33Z</time>
      </trkpt>
      <trkpt lat="42.89816" lon="0.96557">
        <ele>1519.5</ele>
        <time>2019-01-06T13:31:48Z</time>
      </trkpt>
      <trkpt lat="42.89816" lon="0.96573">
        <ele>1518.06</ele>
        <time>2019-01-06T13:32:00Z</time>
      </trkpt>
      <trkpt lat="42.89824" lon="0.96596">
        <ele>1517.58</ele>
        <time>2019-01-06T13:32:20Z</time>
      </trkpt>
      <trkpt lat="42.89825" lon="0.9662">
        <ele>1518.54</ele>
        <time>2019-01-06T13:32:40Z</time>
      </trkpt>
      <trkpt lat="42.89825" lon="0.96635">
        <ele>1519.5</ele>
        <time>2019-01-06T13:32:59Z</time>
      </trkpt>
      <trkpt lat="42.89826" lon="0.96642">
        <ele>1519.02</ele>
        <time>2019-01-06T13:33:19Z</time>
      </trkpt>
      <trkpt lat="42.89828" lon="0.96648">
        <ele>1519.02</ele>
        <time>2019-01-06T13:33:23Z</time>
      </trkpt>
      <trkpt lat="42.89832" lon="0.96677">
        <ele>1517.58</ele>
        <time>2019-01-06T13:33:41Z</time>
      </trkpt>
      <trkpt lat="42.89833" lon="0.9668">
        <ele>1517.58</ele>
        <time>2019-01-06T13:33:43Z</time>
      </trkpt>
      <trkpt lat="42.8983" lon="0.96703">
        <ele>1515.18</ele>
        <time>2019-01-06T13:33:59Z</time>
      </trkpt>
      <trkpt lat="42.8983" lon="0.96707">
        <ele>1515.18</ele>
        <time>2019-01-06T13:34:02Z</time>
      </trkpt>
      <trkpt lat="42.89828" lon="0.96719">
        <ele>1514.69</ele>
        <time>2019-01-06T13:34:11Z</time>
      </trkpt>
      <trkpt lat="42.89826" lon="0.96745">
        <ele>1512.29</ele>
        <time>2019-01-06T13:34:29Z</time>
      </trkpt>
      <trkpt lat="42.89826" lon="0.9675">
        <ele>1511.81</ele>
        <time>2019-01-06T13:34:32Z</time>
      </trkpt>
      <trkpt lat="42.89824" lon="0.96765">
        <ele>1511.33</ele>
        <time>2019-01-06T13:34:42Z</time>
      </trkpt>
      <trkpt lat="42.89822" lon="0.96771">
        <ele>1511.33</ele>
        <time>2019-01-06T13:34:46Z</time>
      </trkpt>
      <trkpt lat="42.8982" lon="0.96779">
        <ele>1510.37</ele>
        <time>2019-01-06T13:34:53Z</time>
      </trkpt>
      <trkpt lat="42.89818" lon="0.96789">
        <ele>1508.93</ele>
        <time>2019-01-06T13:35:02Z</time>
      </trkpt>
      <trkpt lat="42.89814" lon="0.96817">
        <ele>1507</ele>
        <time>2019-01-06T13:35:21Z</time>
      </trkpt>
      <trkpt lat="42.89813" lon="0.96818">
        <ele>1507</ele>
        <time>2019-01-06T13:35:22Z</time>
      </trkpt>
      <trkpt lat="42.89811" lon="0.96826">
        <ele>1506.52</ele>
        <time>2019-01-06T13:35:27Z</time>
      </trkpt>
      <trkpt lat="42.89803" lon="0.96843">
        <ele>1506.04</ele>
        <time>2019-01-06T13:35:44Z</time>
      </trkpt>
      <trkpt lat="42.89803" lon="0.96844">
        <ele>1506.04</ele>
        <time>2019-01-06T13:35:45Z</time>
      </trkpt>
      <trkpt lat="42.89804" lon="0.96872">
        <ele>1502.68</ele>
        <time>2019-01-06T13:36:05Z</time>
      </trkpt>
      <trkpt lat="42.89803" lon="0.96878">
        <ele>1501.72</ele>
        <time>2019-01-06T13:36:09Z</time>
      </trkpt>
      <trkpt lat="42.89801" lon="0.96885">
        <ele>1500.76</ele>
        <time>2019-01-06T13:36:14Z</time>
      </trkpt>
      <trkpt lat="42.898" lon="0.9689">
        <ele>1499.79</ele>
        <time>2019-01-06T13:36:18Z</time>
      </trkpt>
      <trkpt lat="42.89799" lon="0.96906">
        <ele>1497.39</ele>
        <time>2019-01-06T13:36:30Z</time>
      </trkpt>
      <trkpt lat="42.89797" lon="0.96911">
        <ele>1497.39</ele>
        <time>2019-01-06T13:36:34Z</time>
      </trkpt>
      <trkpt lat="42.89796" lon="0.96917">
        <ele>1497.39</ele>
        <time>2019-01-06T13:36:38Z</time>
      </trkpt>
      <trkpt lat="42.89796" lon="0.96924">
        <ele>1497.39</ele>
        <time>2019-01-06T13:36:44Z</time>
      </trkpt>
      <trkpt lat="42.89796" lon="0.96948">
        <ele>1496.91</ele>
        <time>2019-01-06T13:37:00Z</time>
      </trkpt>
      <trkpt lat="42.89796" lon="0.96958">
        <ele>1495.47</ele>
        <time>2019-01-06T13:37:06Z</time>
      </trkpt>
      <trkpt lat="42.89798" lon="0.96964">
        <ele>1494.99</ele>
        <time>2019-01-06T13:37:10Z</time>
      </trkpt>
      <trkpt lat="42.89792" lon="0.96982">
        <ele>1494.51</ele>
        <time>2019-01-06T13:37:23Z</time>
      </trkpt>
      <trkpt lat="42.8979" lon="0.96986">
        <ele>1494.51</ele>
        <time>2019-01-06T13:37:26Z</time>
      </trkpt>
      <trkpt lat="42.89784" lon="0.96997">
        <ele>1494.51</ele>
        <time>2019-01-06T13:37:34Z</time>
      </trkpt>
      <trkpt lat="42.89771" lon="0.97014">
        <ele>1494.03</ele>
        <time>2019-01-06T13:37:51Z</time>
      </trkpt>
      <trkpt lat="42.89759" lon="0.97027">
        <ele>1493.55</ele>
        <time>2019-01-06T13:38:05Z</time>
      </trkpt>
      <trkpt lat="42.89756" lon="0.97032">
        <ele>1493.06</ele>
        <time>2019-01-06T13:38:09Z</time>
      </trkpt>
      <trkpt lat="42.89744" lon="0.97051">
        <ele>1490.18</ele>
        <time>2019-01-06T13:38:26Z</time>
      </trkpt>
      <trkpt lat="42.89735" lon="0.97069">
        <ele>1488.26</ele>
        <time>2019-01-06T13:38:38Z</time>
      </trkpt>
      <trkpt lat="42.89725" lon="0.97087">
        <ele>1487.3</ele>
        <time>2019-01-06T13:38:52Z</time>
      </trkpt>
      <trkpt lat="42.89725" lon="0.97088">
        <ele>1486.82</ele>
        <time>2019-01-06T13:38:53Z</time>
      </trkpt>
      <trkpt lat="42.89712" lon="0.97101">
        <ele>1484.41</ele>
        <time>2019-01-06T13:39:07Z</time>
      </trkpt>
      <trkpt lat="42.89707" lon="0.97105">
        <ele>1482.97</ele>
        <time>2019-01-06T13:39:13Z</time>
      </trkpt>
      <trkpt lat="42.89699" lon="0.97117">
        <ele>1480.57</ele>
        <time>2019-01-06T13:39:32Z</time>
      </trkpt>
      <trkpt lat="42.89697" lon="0.97119">
        <ele>1480.57</ele>
        <time>2019-01-06T13:39:35Z</time>
      </trkpt>
      <trkpt lat="42.89696" lon="0.97123">
        <ele>1478.65</ele>
        <time>2019-01-06T13:40:02Z</time>
      </trkpt>
      <trkpt lat="42.89699" lon="0.97122">
        <ele>1478.16</ele>
        <time>2019-01-06T13:40:12Z</time>
      </trkpt>
      <trkpt lat="42.89698" lon="0.97119">
        <ele>1478.16</ele>
        <time>2019-01-06T13:40:20Z</time>
      </trkpt>
      <trkpt lat="42.89704" lon="0.97123">
        <ele>1478.65</ele>
        <time>2019-01-06T13:40:33Z</time>
      </trkpt>
      <trkpt lat="42.89705" lon="0.97125">
        <ele>1478.65</ele>
        <time>2019-01-06T13:40:42Z</time>
      </trkpt>
      <trkpt lat="42.89699" lon="0.97125">
        <ele>1478.65</ele>
        <time>2019-01-06T13:40:59Z</time>
      </trkpt>
      <trkpt lat="42.89699" lon="0.97129">
        <ele>1478.65</ele>
        <time>2019-01-06T13:41:18Z</time>
      </trkpt>
      <trkpt lat="42.89695" lon="0.97127">
        <ele>1478.16</ele>
        <time>2019-01-06T13:41:55Z</time>
      </trkpt>
      <trkpt lat="42.89696" lon="0.9713">
        <ele>1478.16</ele>
        <time>2019-01-06T13:42:02Z</time>
      </trkpt>
      <trkpt lat="42.89682" lon="0.97137">
        <ele>1478.16</ele>
        <time>2019-01-06T13:42:43Z</time>
      </trkpt>
      <trkpt lat="42.89662" lon="0.97129">
        <ele>1478.65</ele>
        <time>2019-01-06T13:43:02Z</time>
      </trkpt>
      <trkpt lat="42.89645" lon="0.97123">
        <ele>1479.61</ele>
        <time>2019-01-06T13:43:18Z</time>
      </trkpt>
      <trkpt lat="42.89637" lon="0.97125">
        <ele>1478.16</ele>
        <time>2019-01-06T13:43:39Z</time>
      </trkpt>
      <trkpt lat="42.89622" lon="0.97125">
        <ele>1477.2</ele>
        <time>2019-01-06T13:43:52Z</time>
      </trkpt>
      <trkpt lat="42.89595" lon="0.97123">
        <ele>1475.28</ele>
        <time>2019-01-06T13:44:16Z</time>
      </trkpt>
      <trkpt lat="42.89575" lon="0.97122">
        <ele>1472.88</ele>
        <time>2019-01-06T13:44:35Z</time>
      </trkpt>
      <trkpt lat="42.89562" lon="0.97126">
        <ele>1470.47</ele>
        <time>2019-01-06T13:44:46Z</time>
      </trkpt>
      <trkpt lat="42.89545" lon="0.97134">
        <ele>1467.11</ele>
        <time>2019-01-06T13:45:00Z</time>
      </trkpt>
      <trkpt lat="42.89544" lon="0.97134">
        <ele>1466.63</ele>
        <time>2019-01-06T13:45:01Z</time>
      </trkpt>
      <trkpt lat="42.89534" lon="0.97132">
        <ele>1463.26</ele>
        <time>2019-01-06T13:45:16Z</time>
      </trkpt>
      <trkpt lat="42.89523" lon="0.97131">
        <ele>1460.38</ele>
        <time>2019-01-06T13:45:32Z</time>
      </trkpt>
      <trkpt lat="42.89518" lon="0.97129">
        <ele>1459.42</ele>
        <time>2019-01-06T13:45:37Z</time>
      </trkpt>
      <trkpt lat="42.8951" lon="0.97138">
        <ele>1457.98</ele>
        <time>2019-01-06T13:45:45Z</time>
      </trkpt>
      <trkpt lat="42.89498" lon="0.97135">
        <ele>1454.61</ele>
        <time>2019-01-06T13:45:59Z</time>
      </trkpt>
      <trkpt lat="42.89486" lon="0.97133">
        <ele>1451.73</ele>
        <time>2019-01-06T13:46:10Z</time>
      </trkpt>
      <trkpt lat="42.89476" lon="0.97128">
        <ele>1448.36</ele>
        <time>2019-01-06T13:46:21Z</time>
      </trkpt>
      <trkpt lat="42.89475" lon="0.97128">
        <ele>1448.36</ele>
        <time>2019-01-06T13:46:22Z</time>
      </trkpt>
      <trkpt lat="42.89467" lon="0.97131">
        <ele>1445.96</ele>
        <time>2019-01-06T13:46:28Z</time>
      </trkpt>
      <trkpt lat="42.89454" lon="0.97129">
        <ele>1443.08</ele>
        <time>2019-01-06T13:46:40Z</time>
      </trkpt>
      <trkpt lat="42.89453" lon="0.97129">
        <ele>1442.6</ele>
        <time>2019-01-06T13:46:41Z</time>
      </trkpt>
      <trkpt lat="42.89433" lon="0.97126">
        <ele>1440.19</ele>
        <time>2019-01-06T13:46:56Z</time>
      </trkpt>
      <trkpt lat="42.89422" lon="0.9713">
        <ele>1439.23</ele>
        <time>2019-01-06T13:47:09Z</time>
      </trkpt>
      <trkpt lat="42.89411" lon="0.97137">
        <ele>1437.31</ele>
        <time>2019-01-06T13:47:23Z</time>
      </trkpt>
      <trkpt lat="42.89402" lon="0.97151">
        <ele>1434.91</ele>
        <time>2019-01-06T13:47:34Z</time>
      </trkpt>
      <trkpt lat="42.89397" lon="0.97165">
        <ele>1434.42</ele>
        <time>2019-01-06T13:47:43Z</time>
      </trkpt>
      <trkpt lat="42.89387" lon="0.97185">
        <ele>1434.42</ele>
        <time>2019-01-06T13:48:01Z</time>
      </trkpt>
      <trkpt lat="42.89382" lon="0.97215">
        <ele>1433.46</ele>
        <time>2019-01-06T13:48:22Z</time>
      </trkpt>
      <trkpt lat="42.89376" lon="0.97238">
        <ele>1430.1</ele>
        <time>2019-01-06T13:48:40Z</time>
      </trkpt>
      <trkpt lat="42.89373" lon="0.97248">
        <ele>1429.14</ele>
        <time>2019-01-06T13:48:48Z</time>
      </trkpt>
      <trkpt lat="42.89371" lon="0.97255">
        <ele>1428.66</ele>
        <time>2019-01-06T13:48:51Z</time>
      </trkpt>
      <trkpt lat="42.89367" lon="0.97273">
        <ele>1427.21</ele>
        <time>2019-01-06T13:49:06Z</time>
      </trkpt>
      <trkpt lat="42.89358" lon="0.97293">
        <ele>1425.29</ele>
        <time>2019-01-06T13:49:25Z</time>
      </trkpt>
      <trkpt lat="42.89357" lon="0.97295">
        <ele>1424.81</ele>
        <time>2019-01-06T13:49:26Z</time>
      </trkpt>
      <trkpt lat="42.89352" lon="0.97311">
        <ele>1423.37</ele>
        <time>2019-01-06T13:49:38Z</time>
      </trkpt>
      <trkpt lat="42.8935" lon="0.97319">
        <ele>1422.41</ele>
        <time>2019-01-06T13:49:43Z</time>
      </trkpt>
      <trkpt lat="42.89349" lon="0.97323">
        <ele>1421.93</ele>
        <time>2019-01-06T13:49:46Z</time>
      </trkpt>
      <trkpt lat="42.89343" lon="0.97352">
        <ele>1420</ele>
        <time>2019-01-06T13:50:06Z</time>
      </trkpt>
      <trkpt lat="42.89339" lon="0.97364">
        <ele>1418.56</ele>
        <time>2019-01-06T13:50:21Z</time>
      </trkpt>
      <trkpt lat="42.89333" lon="0.97382">
        <ele>1416.16</ele>
        <time>2019-01-06T13:50:35Z</time>
      </trkpt>
      <trkpt lat="42.89331" lon="0.97388">
        <ele>1415.2</ele>
        <time>2019-01-06T13:50:40Z</time>
      </trkpt>
      <trkpt lat="42.89329" lon="0.97399">
        <ele>1414.24</ele>
        <time>2019-01-06T13:50:47Z</time>
      </trkpt>
      <trkpt lat="42.89324" lon="0.97417">
        <ele>1411.83</ele>
        <time>2019-01-06T13:50:58Z</time>
      </trkpt>
      <trkpt lat="42.89317" lon="0.97444">
        <ele>1409.43</ele>
        <time>2019-01-06T13:51:15Z</time>
      </trkpt>
      <trkpt lat="42.89317" lon="0.97445">
        <ele>1409.43</ele>
        <time>2019-01-06T13:51:16Z</time>
      </trkpt>
      <trkpt lat="42.89314" lon="0.9746">
        <ele>1408.95</ele>
        <time>2019-01-06T13:51:24Z</time>
      </trkpt>
      <trkpt lat="42.89311" lon="0.97476">
        <ele>1408.47</ele>
        <time>2019-01-06T13:51:34Z</time>
      </trkpt>
      <trkpt lat="42.89309" lon="0.97483">
        <ele>1407.99</ele>
        <time>2019-01-06T13:51:38Z</time>
      </trkpt>
      <trkpt lat="42.89308" lon="0.97491">
        <ele>1407.99</ele>
        <time>2019-01-06T13:51:43Z</time>
      </trkpt>
      <trkpt lat="42.89305" lon="0.975">
        <ele>1407.51</ele>
        <time>2019-01-06T13:51:48Z</time>
      </trkpt>
      <trkpt lat="42.89302" lon="0.97517">
        <ele>1407.03</ele>
        <time>2019-01-06T13:51:58Z</time>
      </trkpt>
      <trkpt lat="42.89301" lon="0.97543">
        <ele>1406.55</ele>
        <time>2019-01-06T13:52:14Z</time>
      </trkpt>
      <trkpt lat="42.89305" lon="0.97564">
        <ele>1406.07</ele>
        <time>2019-01-06T13:52:28Z</time>
      </trkpt>
      <trkpt lat="42.89306" lon="0.9759">
        <ele>1404.62</ele>
        <time>2019-01-06T13:52:43Z</time>
      </trkpt>
      <trkpt lat="42.89305" lon="0.97597">
        <ele>1404.62</ele>
        <time>2019-01-06T13:52:47Z</time>
      </trkpt>
      <trkpt lat="42.89304" lon="0.97613">
        <ele>1404.62</ele>
        <time>2019-01-06T13:52:57Z</time>
      </trkpt>
      <trkpt lat="42.89302" lon="0.97623">
        <ele>1404.62</ele>
        <time>2019-01-06T13:53:04Z</time>
      </trkpt>
      <trkpt lat="42.89301" lon="0.9764">
        <ele>1405.58</ele>
        <time>2019-01-06T13:53:19Z</time>
      </trkpt>
      <trkpt lat="42.89302" lon="0.97641">
        <ele>1405.58</ele>
        <time>2019-01-06T13:53:43Z</time>
      </trkpt>
      <trkpt lat="42.89302" lon="0.9764">
        <ele>1405.1</ele>
        <time>2019-01-06T13:54:07Z</time>
      </trkpt>
      <trkpt lat="42.89301" lon="0.97643">
        <ele>1405.58</ele>
        <time>2019-01-06T13:54:35Z</time>
      </trkpt>
      <trkpt lat="42.89302" lon="0.97649">
        <ele>1405.1</ele>
        <time>2019-01-06T13:55:06Z</time>
      </trkpt>
      <trkpt lat="42.89301" lon="0.9767">
        <ele>1404.14</ele>
        <time>2019-01-06T13:55:22Z</time>
      </trkpt>
      <trkpt lat="42.89301" lon="0.97693">
        <ele>1403.18</ele>
        <time>2019-01-06T13:55:39Z</time>
      </trkpt>
      <trkpt lat="42.89302" lon="0.97707">
        <ele>1403.18</ele>
        <time>2019-01-06T13:55:49Z</time>
      </trkpt>
      <trkpt lat="42.89302" lon="0.97717">
        <ele>1402.7</ele>
        <time>2019-01-06T13:55:56Z</time>
      </trkpt>
      <trkpt lat="42.89303" lon="0.97728">
        <ele>1402.22</ele>
        <time>2019-01-06T13:56:03Z</time>
      </trkpt>
      <trkpt lat="42.89304" lon="0.97737">
        <ele>1402.22</ele>
        <time>2019-01-06T13:56:08Z</time>
      </trkpt>
      <trkpt lat="42.89306" lon="0.97746">
        <ele>1402.22</ele>
        <time>2019-01-06T13:56:13Z</time>
      </trkpt>
      <trkpt lat="42.89308" lon="0.97769">
        <ele>1401.26</ele>
        <time>2019-01-06T13:56:28Z</time>
      </trkpt>
      <trkpt lat="42.89311" lon="0.97781">
        <ele>1400.3</ele>
        <time>2019-01-06T13:56:37Z</time>
      </trkpt>
      <trkpt lat="42.89319" lon="0.97801">
        <ele>1397.89</ele>
        <time>2019-01-06T13:56:54Z</time>
      </trkpt>
      <trkpt lat="42.89326" lon="0.97813">
        <ele>1395.97</ele>
        <time>2019-01-06T13:57:04Z</time>
      </trkpt>
      <trkpt lat="42.89329" lon="0.9782">
        <ele>1395.49</ele>
        <time>2019-01-06T13:57:09Z</time>
      </trkpt>
      <trkpt lat="42.89332" lon="0.97831">
        <ele>1395.01</ele>
        <time>2019-01-06T13:57:16Z</time>
      </trkpt>
      <trkpt lat="42.89336" lon="0.9785">
        <ele>1393.09</ele>
        <time>2019-01-06T13:57:30Z</time>
      </trkpt>
      <trkpt lat="42.89336" lon="0.9786">
        <ele>1392.61</ele>
        <time>2019-01-06T13:57:38Z</time>
      </trkpt>
      <trkpt lat="42.89339" lon="0.97872">
        <ele>1392.13</ele>
        <time>2019-01-06T13:57:46Z</time>
      </trkpt>
      <trkpt lat="42.89342" lon="0.97897">
        <ele>1389.72</ele>
        <time>2019-01-06T13:58:03Z</time>
      </trkpt>
      <trkpt lat="42.89341" lon="0.97927">
        <ele>1388.76</ele>
        <time>2019-01-06T13:58:22Z</time>
      </trkpt>
      <trkpt lat="42.89341" lon="0.97957">
        <ele>1387.8</ele>
        <time>2019-01-06T13:58:41Z</time>
      </trkpt>
      <trkpt lat="42.89344" lon="0.97987">
        <ele>1386.84</ele>
        <time>2019-01-06T13:58:59Z</time>
      </trkpt>
      <trkpt lat="42.89348" lon="0.98009">
        <ele>1386.84</ele>
        <time>2019-01-06T13:59:14Z</time>
      </trkpt>
      <trkpt lat="42.89352" lon="0.98036">
        <ele>1385.4</ele>
        <time>2019-01-06T13:59:32Z</time>
      </trkpt>
      <trkpt lat="42.89358" lon="0.98054">
        <ele>1384.92</ele>
        <time>2019-01-06T13:59:43Z</time>
      </trkpt>
      <trkpt lat="42.89361" lon="0.98066">
        <ele>1384.92</ele>
        <time>2019-01-06T13:59:51Z</time>
      </trkpt>
      <trkpt lat="42.89363" lon="0.98088">
        <ele>1384.44</ele>
        <time>2019-01-06T14:00:11Z</time>
      </trkpt>
      <trkpt lat="42.89365" lon="0.98096">
        <ele>1384.44</ele>
        <time>2019-01-06T14:00:32Z</time>
      </trkpt>
      <trkpt lat="42.89364" lon="0.98099">
        <ele>1383.96</ele>
        <time>2019-01-06T14:00:45Z</time>
      </trkpt>
      <trkpt lat="42.89366" lon="0.98106">
        <ele>1383.96</ele>
        <time>2019-01-06T14:00:51Z</time>
      </trkpt>
      <trkpt lat="42.89372" lon="0.9812">
        <ele>1384.92</ele>
        <time>2019-01-06T14:01:10Z</time>
      </trkpt>
      <trkpt lat="42.89371" lon="0.9812">
        <ele>1385.4</ele>
        <time>2019-01-06T14:01:39Z</time>
      </trkpt>
      <trkpt lat="42.89371" lon="0.98122">
        <ele>1384.44</ele>
        <time>2019-01-06T14:02:21Z</time>
      </trkpt>
      <trkpt lat="42.89372" lon="0.98121">
        <ele>1384.44</ele>
        <time>2019-01-06T14:03:41Z</time>
      </trkpt>
      <trkpt lat="42.89373" lon="0.98119">
        <ele>1384.44</ele>
        <time>2019-01-06T14:04:33Z</time>
      </trkpt>
      <trkpt lat="42.89371" lon="0.98123">
        <ele>1384.44</ele>
        <time>2019-01-06T14:05:01Z</time>
      </trkpt>
      <trkpt lat="42.89371" lon="0.98127">
        <ele>1384.44</ele>
        <time>2019-01-06T14:05:48Z</time>
      </trkpt>
      <trkpt lat="42.89372" lon="0.98125">
        <ele>1384.44</ele>
        <time>2019-01-06T14:06:15Z</time>
      </trkpt>
      <trkpt lat="42.8937" lon="0.98129">
        <ele>1384.44</ele>
        <time>2019-01-06T14:06:38Z</time>
      </trkpt>
      <trkpt lat="42.8937" lon="0.98126">
        <ele>1384.44</ele>
        <time>2019-01-06T14:07:08Z</time>
      </trkpt>
      <trkpt lat="42.89371" lon="0.98128">
        <ele>1384.44</ele>
        <time>2019-01-06T14:07:41Z</time>
      </trkpt>
      <trkpt lat="42.89369" lon="0.98129">
        <ele>1383.96</ele>
        <time>2019-01-06T14:08:13Z</time>
      </trkpt>
      <trkpt lat="42.89369" lon="0.9813">
        <ele>1383.96</ele>
        <time>2019-01-06T14:08:38Z</time>
      </trkpt>
      <trkpt lat="42.89373" lon="0.98122">
        <ele>1383.96</ele>
        <time>2019-01-06T14:09:11Z</time>
      </trkpt>
      <trkpt lat="42.89374" lon="0.98121">
        <ele>1383.96</ele>
        <time>2019-01-06T14:09:42Z</time>
      </trkpt>
      <trkpt lat="42.89373" lon="0.98122">
        <ele>1383.96</ele>
        <time>2019-01-06T14:09:58Z</time>
      </trkpt>
      <trkpt lat="42.89373" lon="0.9812">
        <ele>1383.96</ele>
        <time>2019-01-06T14:10:29Z</time>
      </trkpt>
      <trkpt lat="42.89373" lon="0.98122">
        <ele>1383.96</ele>
        <time>2019-01-06T14:10:52Z</time>
      </trkpt>
      <trkpt lat="42.89375" lon="0.98116">
        <ele>1383.47</ele>
        <time>2019-01-06T14:11:29Z</time>
      </trkpt>
      <trkpt lat="42.89373" lon="0.9812">
        <ele>1383.47</ele>
        <time>2019-01-06T14:11:39Z</time>
      </trkpt>
      <trkpt lat="42.89371" lon="0.98123">
        <ele>1383.47</ele>
        <time>2019-01-06T14:11:42Z</time>
      </trkpt>
      <trkpt lat="42.89372" lon="0.98122">
        <ele>1385.4</ele>
        <time>2019-01-06T14:12:06Z</time>
      </trkpt>
      <trkpt lat="42.89373" lon="0.98123">
        <ele>1384.92</ele>
        <time>2019-01-06T14:12:44Z</time>
      </trkpt>
      <trkpt lat="42.89372" lon="0.98126">
        <ele>1385.4</ele>
        <time>2019-01-06T14:13:27Z</time>
      </trkpt>
      <trkpt lat="42.89375" lon="0.98126">
        <ele>1385.4</ele>
        <time>2019-01-06T14:13:43Z</time>
      </trkpt>
      <trkpt lat="42.89377" lon="0.98126">
        <ele>1385.4</ele>
        <time>2019-01-06T14:14:11Z</time>
      </trkpt>
      <trkpt lat="42.89373" lon="0.9813">
        <ele>1384.92</ele>
        <time>2019-01-06T14:14:34Z</time>
      </trkpt>
      <trkpt lat="42.89376" lon="0.98129">
        <ele>1384.44</ele>
        <time>2019-01-06T14:14:59Z</time>
      </trkpt>
      <trkpt lat="42.89373" lon="0.98132">
        <ele>1384.44</ele>
        <time>2019-01-06T14:15:34Z</time>
      </trkpt>
      <trkpt lat="42.89361" lon="0.98137">
        <ele>1382.99</ele>
        <time>2019-01-06T14:15:54Z</time>
      </trkpt>
      <trkpt lat="42.89351" lon="0.98136">
        <ele>1380.11</ele>
        <time>2019-01-06T14:16:15Z</time>
      </trkpt>
      <trkpt lat="42.89335" lon="0.98146">
        <ele>1377.71</ele>
        <time>2019-01-06T14:16:31Z</time>
      </trkpt>
      <trkpt lat="42.89324" lon="0.98149">
        <ele>1375.3</ele>
        <time>2019-01-06T14:16:46Z</time>
      </trkpt>
      <trkpt lat="42.8932" lon="0.98141">
        <ele>1374.82</ele>
        <time>2019-01-06T14:16:52Z</time>
      </trkpt>
      <trkpt lat="42.89302" lon="0.9814">
        <ele>1371.94</ele>
        <time>2019-01-06T14:17:08Z</time>
      </trkpt>
      <trkpt lat="42.89283" lon="0.98136">
        <ele>1369.54</ele>
        <time>2019-01-06T14:17:25Z</time>
      </trkpt>
      <trkpt lat="42.89259" lon="0.98136">
        <ele>1366.17</ele>
        <time>2019-01-06T14:17:48Z</time>
      </trkpt>
      <trkpt lat="42.89258" lon="0.98136">
        <ele>1366.17</ele>
        <time>2019-01-06T14:17:49Z</time>
      </trkpt>
      <trkpt lat="42.89239" lon="0.98134">
        <ele>1364.25</ele>
        <time>2019-01-06T14:18:04Z</time>
      </trkpt>
      <trkpt lat="42.89223" lon="0.98131">
        <ele>1363.77</ele>
        <time>2019-01-06T14:18:18Z</time>
      </trkpt>
      <trkpt lat="42.89223" lon="0.98131">
        <ele>1363.77</ele>
        <time>2019-01-06T14:18:19Z</time>
      </trkpt>
      <trkpt lat="42.89204" lon="0.98125">
        <ele>1363.77</ele>
        <time>2019-01-06T14:18:36Z</time>
      </trkpt>
      <trkpt lat="42.89197" lon="0.98122">
        <ele>1363.29</ele>
        <time>2019-01-06T14:18:43Z</time>
      </trkpt>
      <trkpt lat="42.89176" lon="0.98113">
        <ele>1361.36</ele>
        <time>2019-01-06T14:19:04Z</time>
      </trkpt>
      <trkpt lat="42.89168" lon="0.98108">
        <ele>1361.36</ele>
        <time>2019-01-06T14:19:12Z</time>
      </trkpt>
      <trkpt lat="42.8916" lon="0.9811">
        <ele>1360.88</ele>
        <time>2019-01-06T14:19:19Z</time>
      </trkpt>
      <trkpt lat="42.89148" lon="0.98115">
        <ele>1360.4</ele>
        <time>2019-01-06T14:19:37Z</time>
      </trkpt>
      <trkpt lat="42.89144" lon="0.98124">
        <ele>1360.4</ele>
        <time>2019-01-06T14:19:45Z</time>
      </trkpt>
      <trkpt lat="42.89144" lon="0.98137">
        <ele>1359.44</ele>
        <time>2019-01-06T14:19:59Z</time>
      </trkpt>
      <trkpt lat="42.89136" lon="0.98152">
        <ele>1358.48</ele>
        <time>2019-01-06T14:20:13Z</time>
      </trkpt>
      <trkpt lat="42.89124" lon="0.98178">
        <ele>1358</ele>
        <time>2019-01-06T14:20:29Z</time>
      </trkpt>
      <trkpt lat="42.89116" lon="0.98198">
        <ele>1357.52</ele>
        <time>2019-01-06T14:20:42Z</time>
      </trkpt>
      <trkpt lat="42.89103" lon="0.98226">
        <ele>1357.04</ele>
        <time>2019-01-06T14:21:00Z</time>
      </trkpt>
      <trkpt lat="42.89095" lon="0.9825">
        <ele>1356.56</ele>
        <time>2019-01-06T14:21:15Z</time>
      </trkpt>
      <trkpt lat="42.89093" lon="0.9826">
        <ele>1356.08</ele>
        <time>2019-01-06T14:21:21Z</time>
      </trkpt>
      <trkpt lat="42.89091" lon="0.98266">
        <ele>1356.08</ele>
        <time>2019-01-06T14:21:25Z</time>
      </trkpt>
      <trkpt lat="42.8909" lon="0.98271">
        <ele>1356.56</ele>
        <time>2019-01-06T14:21:28Z</time>
      </trkpt>
      <trkpt lat="42.8909" lon="0.98279">
        <ele>1357.04</ele>
        <time>2019-01-06T14:21:32Z</time>
      </trkpt>
      <trkpt lat="42.89088" lon="0.98299">
        <ele>1356.56</ele>
        <time>2019-01-06T14:21:50Z</time>
      </trkpt>
      <trkpt lat="42.89087" lon="0.98312">
        <ele>1356.08</ele>
        <time>2019-01-06T14:22:00Z</time>
      </trkpt>
      <trkpt lat="42.89087" lon="0.98334">
        <ele>1354.15</ele>
        <time>2019-01-06T14:22:15Z</time>
      </trkpt>
      <trkpt lat="42.89086" lon="0.9834">
        <ele>1353.19</ele>
        <time>2019-01-06T14:22:20Z</time>
      </trkpt>
      <trkpt lat="42.89086" lon="0.98343">
        <ele>1353.19</ele>
        <time>2019-01-06T14:22:22Z</time>
      </trkpt>
      <trkpt lat="42.89086" lon="0.98382">
        <ele>1351.27</ele>
        <time>2019-01-06T14:22:42Z</time>
      </trkpt>
      <trkpt lat="42.89085" lon="0.98421">
        <ele>1349.83</ele>
        <time>2019-01-06T14:23:03Z</time>
      </trkpt>
      <trkpt lat="42.89087" lon="0.98439">
        <ele>1347.91</ele>
        <time>2019-01-06T14:23:13Z</time>
      </trkpt>
      <trkpt lat="42.89087" lon="0.9847">
        <ele>1345.98</ele>
        <time>2019-01-06T14:23:30Z</time>
      </trkpt>
      <trkpt lat="42.89087" lon="0.98505">
        <ele>1343.58</ele>
        <time>2019-01-06T14:23:49Z</time>
      </trkpt>
      <trkpt lat="42.89091" lon="0.98545">
        <ele>1340.22</ele>
        <time>2019-01-06T14:24:12Z</time>
      </trkpt>
      <trkpt lat="42.89091" lon="0.98547">
        <ele>1340.22</ele>
        <time>2019-01-06T14:24:14Z</time>
      </trkpt>
      <trkpt lat="42.89093" lon="0.98584">
        <ele>1337.81</ele>
        <time>2019-01-06T14:24:34Z</time>
      </trkpt>
      <trkpt lat="42.89094" lon="0.98621">
        <ele>1335.41</ele>
        <time>2019-01-06T14:24:53Z</time>
      </trkpt>
      <trkpt lat="42.89095" lon="0.98654">
        <ele>1333.97</ele>
        <time>2019-01-06T14:25:13Z</time>
      </trkpt>
      <trkpt lat="42.89095" lon="0.98684">
        <ele>1332.04</ele>
        <time>2019-01-06T14:25:31Z</time>
      </trkpt>
      <trkpt lat="42.89095" lon="0.98692">
        <ele>1331.08</ele>
        <time>2019-01-06T14:25:36Z</time>
      </trkpt>
      <trkpt lat="42.89097" lon="0.98726">
        <ele>1328.68</ele>
        <time>2019-01-06T14:25:55Z</time>
      </trkpt>
      <trkpt lat="42.891" lon="0.98767">
        <ele>1325.8</ele>
        <time>2019-01-06T14:26:18Z</time>
      </trkpt>
      <trkpt lat="42.89103" lon="0.988">
        <ele>1323.39</ele>
        <time>2019-01-06T14:26:39Z</time>
      </trkpt>
      <trkpt lat="42.89106" lon="0.98824">
        <ele>1320.99</ele>
        <time>2019-01-06T14:26:54Z</time>
      </trkpt>
      <trkpt lat="42.89111" lon="0.98855">
        <ele>1319.07</ele>
        <time>2019-01-06T14:27:13Z</time>
      </trkpt>
      <trkpt lat="42.89112" lon="0.98881">
        <ele>1316.66</ele>
        <time>2019-01-06T14:27:31Z</time>
      </trkpt>
      <trkpt lat="42.89115" lon="0.98911">
        <ele>1313.78</ele>
        <time>2019-01-06T14:27:49Z</time>
      </trkpt>
      <trkpt lat="42.89116" lon="0.98935">
        <ele>1312.34</ele>
        <time>2019-01-06T14:28:04Z</time>
      </trkpt>
      <trkpt lat="42.89118" lon="0.98963">
        <ele>1311.38</ele>
        <time>2019-01-06T14:28:22Z</time>
      </trkpt>
      <trkpt lat="42.89117" lon="0.98972">
        <ele>1310.9</ele>
        <time>2019-01-06T14:28:29Z</time>
      </trkpt>
      <trkpt lat="42.89119" lon="0.99004">
        <ele>1310.41</ele>
        <time>2019-01-06T14:28:48Z</time>
      </trkpt>
      <trkpt lat="42.89117" lon="0.99026">
        <ele>1309.93</ele>
        <time>2019-01-06T14:29:00Z</time>
      </trkpt>
      <trkpt lat="42.89117" lon="0.99046">
        <ele>1308.97</ele>
        <time>2019-01-06T14:29:11Z</time>
      </trkpt>
      <trkpt lat="42.89117" lon="0.99064">
        <ele>1308.01</ele>
        <time>2019-01-06T14:29:23Z</time>
      </trkpt>
      <trkpt lat="42.89116" lon="0.99096">
        <ele>1306.09</ele>
        <time>2019-01-06T14:29:42Z</time>
      </trkpt>
      <trkpt lat="42.89116" lon="0.99111">
        <ele>1305.61</ele>
        <time>2019-01-06T14:29:50Z</time>
      </trkpt>
      <trkpt lat="42.89113" lon="0.9915">
        <ele>1303.69</ele>
        <time>2019-01-06T14:30:11Z</time>
      </trkpt>
      <trkpt lat="42.89112" lon="0.99186">
        <ele>1301.76</ele>
        <time>2019-01-06T14:30:30Z</time>
      </trkpt>
      <trkpt lat="42.89111" lon="0.9922">
        <ele>1298.88</ele>
        <time>2019-01-06T14:30:49Z</time>
      </trkpt>
      <trkpt lat="42.89114" lon="0.99248">
        <ele>1295.99</ele>
        <time>2019-01-06T14:31:06Z</time>
      </trkpt>
      <trkpt lat="42.89116" lon="0.99253">
        <ele>1295.51</ele>
        <time>2019-01-06T14:31:14Z</time>
      </trkpt>
      <trkpt lat="42.89122" lon="0.99281">
        <ele>1294.07</ele>
        <time>2019-01-06T14:31:31Z</time>
      </trkpt>
      <trkpt lat="42.89122" lon="0.99284">
        <ele>1292.63</ele>
        <time>2019-01-06T14:31:37Z</time>
      </trkpt>
      <trkpt lat="42.89123" lon="0.99291">
        <ele>1292.63</ele>
        <time>2019-01-06T14:31:42Z</time>
      </trkpt>
      <trkpt lat="42.89128" lon="0.9932">
        <ele>1290.23</ele>
        <time>2019-01-06T14:31:57Z</time>
      </trkpt>
      <trkpt lat="42.89133" lon="0.99351">
        <ele>1288.3</ele>
        <time>2019-01-06T14:32:14Z</time>
      </trkpt>
      <trkpt lat="42.89135" lon="0.99383">
        <ele>1285.42</ele>
        <time>2019-01-06T14:32:31Z</time>
      </trkpt>
      <trkpt lat="42.89136" lon="0.9942">
        <ele>1282.54</ele>
        <time>2019-01-06T14:32:50Z</time>
      </trkpt>
      <trkpt lat="42.89135" lon="0.99443">
        <ele>1279.17</ele>
        <time>2019-01-06T14:33:03Z</time>
      </trkpt>
      <trkpt lat="42.89139" lon="0.99471">
        <ele>1276.29</ele>
        <time>2019-01-06T14:33:19Z</time>
      </trkpt>
      <trkpt lat="42.8914" lon="0.99493">
        <ele>1273.4</ele>
        <time>2019-01-06T14:33:32Z</time>
      </trkpt>
      <trkpt lat="42.89135" lon="0.99498">
        <ele>1270.04</ele>
        <time>2019-01-06T14:33:46Z</time>
      </trkpt>
      <trkpt lat="42.89133" lon="0.99494">
        <ele>1267.16</ele>
        <time>2019-01-06T14:34:05Z</time>
      </trkpt>
      <trkpt lat="42.89131" lon="0.99493">
        <ele>1267.16</ele>
        <time>2019-01-06T14:34:38Z</time>
      </trkpt>
      <trkpt lat="42.89134" lon="0.9949">
        <ele>1267.16</ele>
        <time>2019-01-06T14:35:13Z</time>
      </trkpt>
      <trkpt lat="42.89132" lon="0.9949">
        <ele>1267.16</ele>
        <time>2019-01-06T14:35:44Z</time>
      </trkpt>
      <trkpt lat="42.89132" lon="0.99489">
        <ele>1267.16</ele>
        <time>2019-01-06T14:36:14Z</time>
      </trkpt>
      <trkpt lat="42.89134" lon="0.99492">
        <ele>1267.16</ele>
        <time>2019-01-06T14:36:59Z</time>
      </trkpt>
      <trkpt lat="42.89133" lon="0.99493">
        <ele>1266.67</ele>
        <time>2019-01-06T14:37:47Z</time>
      </trkpt>
      <trkpt lat="42.89134" lon="0.99495">
        <ele>1266.19</ele>
        <time>2019-01-06T14:38:30Z</time>
      </trkpt>
      <trkpt lat="42.89133" lon="0.99493">
        <ele>1266.19</ele>
        <time>2019-01-06T14:39:17Z</time>
      </trkpt>
      <trkpt lat="42.89132" lon="0.99493">
        <ele>1266.67</ele>
        <time>2019-01-06T14:40:07Z</time>
      </trkpt>
      <trkpt lat="42.89133" lon="0.99491">
        <ele>1266.67</ele>
        <time>2019-01-06T14:41:19Z</time>
      </trkpt>
      <trkpt lat="42.89133" lon="0.99491">
        <ele>1266.67</ele>
        <time>2019-01-06T14:42:21Z</time>
      </trkpt>
      <trkpt lat="42.89131" lon="0.9949">
        <ele>1266.19</ele>
        <time>2019-01-06T14:42:51Z</time>
      </trkpt>
      <trkpt lat="42.89124" lon="0.99483">
        <ele>1265.23</ele>
        <time>2019-01-06T14:43:13Z</time>
      </trkpt>
      <trkpt lat="42.89125" lon="0.99481">
        <ele>1265.23</ele>
        <time>2019-01-06T14:43:57Z</time>
      </trkpt>
      <trkpt lat="42.89119" lon="0.99479">
        <ele>1265.23</ele>
        <time>2019-01-06T14:44:25Z</time>
      </trkpt>
      <trkpt lat="42.89118" lon="0.99478">
        <ele>1265.23</ele>
        <time>2019-01-06T14:44:27Z</time>
      </trkpt>
      <trkpt lat="42.89115" lon="0.9947">
        <ele>1263.79</ele>
        <time>2019-01-06T14:44:40Z</time>
      </trkpt>
      <trkpt lat="42.89117" lon="0.99469">
        <ele>1262.83</ele>
        <time>2019-01-06T14:45:11Z</time>
      </trkpt>
      <trkpt lat="42.89114" lon="0.99469">
        <ele>1262.35</ele>
        <time>2019-01-06T14:47:18Z</time>
      </trkpt>
      <trkpt lat="42.89116" lon="0.99469">
        <ele>1262.35</ele>
        <time>2019-01-06T14:48:24Z</time>
      </trkpt>
      <trkpt lat="42.89115" lon="0.9947">
        <ele>1263.31</ele>
        <time>2019-01-06T14:49:05Z</time>
      </trkpt>
      <trkpt lat="42.89111" lon="0.99469">
        <ele>1263.31</ele>
        <time>2019-01-06T14:49:20Z</time>
      </trkpt>
      <trkpt lat="42.89103" lon="0.9945">
        <ele>1261.87</ele>
        <time>2019-01-06T14:49:33Z</time>
      </trkpt>
      <trkpt lat="42.89101" lon="0.99449">
        <ele>1261.87</ele>
        <time>2019-01-06T14:49:36Z</time>
      </trkpt>
      <trkpt lat="42.89101" lon="0.99451">
        <ele>1261.87</ele>
        <time>2019-01-06T14:49:38Z</time>
      </trkpt>
      <trkpt lat="42.891" lon="0.99458">
        <ele>1260.43</ele>
        <time>2019-01-06T14:49:43Z</time>
      </trkpt>
      <trkpt lat="42.89099" lon="0.99466">
        <ele>1258.98</ele>
        <time>2019-01-06T14:49:48Z</time>
      </trkpt>
      <trkpt lat="42.89095" lon="0.99464">
        <ele>1257.06</ele>
        <time>2019-01-06T14:49:54Z</time>
      </trkpt>
      <trkpt lat="42.89087" lon="0.99447">
        <ele>1254.18</ele>
        <time>2019-01-06T14:50:04Z</time>
      </trkpt>
      <trkpt lat="42.89083" lon="0.99441">
        <ele>1252.25</ele>
        <time>2019-01-06T14:50:09Z</time>
      </trkpt>
      <trkpt lat="42.89071" lon="0.9941">
        <ele>1248.89</ele>
        <time>2019-01-06T14:50:27Z</time>
      </trkpt>
      <trkpt lat="42.89063" lon="0.99393">
        <ele>1246.01</ele>
        <time>2019-01-06T14:50:38Z</time>
      </trkpt>
      <trkpt lat="42.89055" lon="0.9937">
        <ele>1242.64</ele>
        <time>2019-01-06T14:50:52Z</time>
      </trkpt>
      <trkpt lat="42.89048" lon="0.99351">
        <ele>1240.24</ele>
        <time>2019-01-06T14:51:07Z</time>
      </trkpt>
      <trkpt lat="42.89049" lon="0.99357">
        <ele>1239.28</ele>
        <time>2019-01-06T14:51:28Z</time>
      </trkpt>
      <trkpt lat="42.8905" lon="0.99361">
        <ele>1239.28</ele>
        <time>2019-01-06T14:51:31Z</time>
      </trkpt>
      <trkpt lat="42.89047" lon="0.9938">
        <ele>1237.35</ele>
        <time>2019-01-06T14:51:48Z</time>
      </trkpt>
      <trkpt lat="42.89046" lon="0.99388">
        <ele>1235.43</ele>
        <time>2019-01-06T14:51:57Z</time>
      </trkpt>
      <trkpt lat="42.89045" lon="0.99392">
        <ele>1234.47</ele>
        <time>2019-01-06T14:52:00Z</time>
      </trkpt>
      <trkpt lat="42.89043" lon="0.99417">
        <ele>1231.59</ele>
        <time>2019-01-06T14:52:17Z</time>
      </trkpt>
      <trkpt lat="42.89042" lon="0.99424">
        <ele>1229.18</ele>
        <time>2019-01-06T14:52:30Z</time>
      </trkpt>
      <trkpt lat="42.89039" lon="0.99425">
        <ele>1229.18</ele>
        <time>2019-01-06T14:52:35Z</time>
      </trkpt>
      <trkpt lat="42.8903" lon="0.99405">
        <ele>1225.82</ele>
        <time>2019-01-06T14:52:50Z</time>
      </trkpt>
      <trkpt lat="42.89025" lon="0.9939">
        <ele>1222.93</ele>
        <time>2019-01-06T14:53:05Z</time>
      </trkpt>
      <trkpt lat="42.89022" lon="0.9937">
        <ele>1221.97</ele>
        <time>2019-01-06T14:53:23Z</time>
      </trkpt>
      <trkpt lat="42.89016" lon="0.9936">
        <ele>1221.49</ele>
        <time>2019-01-06T14:53:43Z</time>
      </trkpt>
      <trkpt lat="42.89018" lon="0.99352">
        <ele>1221.97</ele>
        <time>2019-01-06T14:54:02Z</time>
      </trkpt>
      <trkpt lat="42.89023" lon="0.99351">
        <ele>1222.45</ele>
        <time>2019-01-06T14:54:34Z</time>
      </trkpt>
      <trkpt lat="42.89027" lon="0.99349">
        <ele>1221.97</ele>
        <time>2019-01-06T14:55:10Z</time>
      </trkpt>
      <trkpt lat="42.89022" lon="0.99335">
        <ele>1222.45</ele>
        <time>2019-01-06T14:55:23Z</time>
      </trkpt>
      <trkpt lat="42.89025" lon="0.99323">
        <ele>1221.97</ele>
        <time>2019-01-06T14:55:40Z</time>
      </trkpt>
      <trkpt lat="42.89021" lon="0.99315">
        <ele>1221.97</ele>
        <time>2019-01-06T14:56:12Z</time>
      </trkpt>
      <trkpt lat="42.89022" lon="0.99311">
        <ele>1221.97</ele>
        <time>2019-01-06T14:56:54Z</time>
      </trkpt>
      <trkpt lat="42.8903" lon="0.99322">
        <ele>1221.97</ele>
        <time>2019-01-06T14:57:30Z</time>
      </trkpt>
      <trkpt lat="42.89031" lon="0.99323">
        <ele>1221.97</ele>
        <time>2019-01-06T14:58:09Z</time>
      </trkpt>
      <trkpt lat="42.89029" lon="0.99325">
        <ele>1222.45</ele>
        <time>2019-01-06T14:58:38Z</time>
      </trkpt>
      <trkpt lat="42.8902" lon="0.99322">
        <ele>1222.45</ele>
        <time>2019-01-06T14:58:56Z</time>
      </trkpt>
      <trkpt lat="42.89021" lon="0.99323">
        <ele>1222.45</ele>
        <time>2019-01-06T14:59:18Z</time>
      </trkpt>
      <trkpt lat="42.89027" lon="0.99322">
        <ele>1221.97</ele>
        <time>2019-01-06T14:59:53Z</time>
      </trkpt>
      <trkpt lat="42.89029" lon="0.99322">
        <ele>1221.97</ele>
        <time>2019-01-06T15:00:23Z</time>
      </trkpt>
      <trkpt lat="42.89026" lon="0.99324">
        <ele>1221.97</ele>
        <time>2019-01-06T15:00:51Z</time>
      </trkpt>
      <trkpt lat="42.89025" lon="0.99325">
        <ele>1222.45</ele>
        <time>2019-01-06T15:01:21Z</time>
      </trkpt>
      <trkpt lat="42.89025" lon="0.99325">
        <ele>1221.97</ele>
        <time>2019-01-06T15:02:01Z</time>
      </trkpt>
      <trkpt lat="42.89024" lon="0.99327">
        <ele>1221.97</ele>
        <time>2019-01-06T15:02:18Z</time>
      </trkpt>
      <trkpt lat="42.89023" lon="0.99332">
        <ele>1221.97</ele>
        <time>2019-01-06T15:02:56Z</time>
      </trkpt>
      <trkpt lat="42.89021" lon="0.99338">
        <ele>1222.45</ele>
        <time>2019-01-06T15:03:10Z</time>
      </trkpt>
      <trkpt lat="42.89018" lon="0.99336">
        <ele>1222.93</ele>
        <time>2019-01-06T15:03:39Z</time>
      </trkpt>
      <trkpt lat="42.89013" lon="0.99322">
        <ele>1221.49</ele>
        <time>2019-01-06T15:03:54Z</time>
      </trkpt>
      <trkpt lat="42.89011" lon="0.99317">
        <ele>1221.01</ele>
        <time>2019-01-06T15:03:58Z</time>
      </trkpt>
      <trkpt lat="42.89008" lon="0.99305">
        <ele>1218.61</ele>
        <time>2019-01-06T15:04:09Z</time>
      </trkpt>
      <trkpt lat="42.89008" lon="0.99292">
        <ele>1218.13</ele>
        <time>2019-01-06T15:04:22Z</time>
      </trkpt>
      <trkpt lat="42.89005" lon="0.9928">
        <ele>1217.65</ele>
        <time>2019-01-06T15:04:31Z</time>
      </trkpt>
      <trkpt lat="42.89004" lon="0.99275">
        <ele>1217.65</ele>
        <time>2019-01-06T15:04:35Z</time>
      </trkpt>
      <trkpt lat="42.89001" lon="0.99259">
        <ele>1215.24</ele>
        <time>2019-01-06T15:04:51Z</time>
      </trkpt>
      <trkpt lat="42.88999" lon="0.99244">
        <ele>1212.36</ele>
        <time>2019-01-06T15:05:06Z</time>
      </trkpt>
      <trkpt lat="42.88994" lon="0.99237">
        <ele>1209</ele>
        <time>2019-01-06T15:05:17Z</time>
      </trkpt>
      <trkpt lat="42.88988" lon="0.9923">
        <ele>1206.11</ele>
        <time>2019-01-06T15:05:31Z</time>
      </trkpt>
      <trkpt lat="42.88984" lon="0.99222">
        <ele>1203.23</ele>
        <time>2019-01-06T15:05:44Z</time>
      </trkpt>
      <trkpt lat="42.88984" lon="0.99215">
        <ele>1201.79</ele>
        <time>2019-01-06T15:05:50Z</time>
      </trkpt>
      <trkpt lat="42.88984" lon="0.99202">
        <ele>1200.34</ele>
        <time>2019-01-06T15:05:59Z</time>
      </trkpt>
      <trkpt lat="42.88982" lon="0.992">
        <ele>1199.86</ele>
        <time>2019-01-06T15:06:01Z</time>
      </trkpt>
      <trkpt lat="42.88977" lon="0.99181">
        <ele>1196.98</ele>
        <time>2019-01-06T15:06:18Z</time>
      </trkpt>
      <trkpt lat="42.88972" lon="0.99161">
        <ele>1193.61</ele>
        <time>2019-01-06T15:06:33Z</time>
      </trkpt>
      <trkpt lat="42.8897" lon="0.99157">
        <ele>1193.13</ele>
        <time>2019-01-06T15:06:37Z</time>
      </trkpt>
      <trkpt lat="42.88964" lon="0.99138">
        <ele>1189.77</ele>
        <time>2019-01-06T15:06:52Z</time>
      </trkpt>
      <trkpt lat="42.88961" lon="0.99123">
        <ele>1186.4</ele>
        <time>2019-01-06T15:07:05Z</time>
      </trkpt>
      <trkpt lat="42.88958" lon="0.9912">
        <ele>1184.96</ele>
        <time>2019-01-06T15:07:14Z</time>
      </trkpt>
      <trkpt lat="42.88955" lon="0.99112">
        <ele>1184.96</ele>
        <time>2019-01-06T15:07:20Z</time>
      </trkpt>
      <trkpt lat="42.88955" lon="0.99095">
        <ele>1183.04</ele>
        <time>2019-01-06T15:07:35Z</time>
      </trkpt>
      <trkpt lat="42.88955" lon="0.99094">
        <ele>1182.56</ele>
        <time>2019-01-06T15:07:36Z</time>
      </trkpt>
      <trkpt lat="42.88953" lon="0.99089">
        <ele>1182.08</ele>
        <time>2019-01-06T15:07:40Z</time>
      </trkpt>
      <trkpt lat="42.88952" lon="0.99084">
        <ele>1181.6</ele>
        <time>2019-01-06T15:07:44Z</time>
      </trkpt>
      <trkpt lat="42.88952" lon="0.99079">
        <ele>1180.64</ele>
        <time>2019-01-06T15:07:48Z</time>
      </trkpt>
      <trkpt lat="42.88949" lon="0.99071">
        <ele>1179.67</ele>
        <time>2019-01-06T15:07:53Z</time>
      </trkpt>
      <trkpt lat="42.88941" lon="0.99055">
        <ele>1177.75</ele>
        <time>2019-01-06T15:08:05Z</time>
      </trkpt>
      <trkpt lat="42.88931" lon="0.9904">
        <ele>1175.35</ele>
        <time>2019-01-06T15:08:19Z</time>
      </trkpt>
      <trkpt lat="42.88927" lon="0.99032">
        <ele>1174.39</ele>
        <time>2019-01-06T15:08:25Z</time>
      </trkpt>
      <trkpt lat="42.88926" lon="0.99024">
        <ele>1174.39</ele>
        <time>2019-01-06T15:08:29Z</time>
      </trkpt>
      <trkpt lat="42.88924" lon="0.99008">
        <ele>1172.95</ele>
        <time>2019-01-06T15:08:40Z</time>
      </trkpt>
      <trkpt lat="42.88919" lon="0.98994">
        <ele>1171.5</ele>
        <time>2019-01-06T15:08:51Z</time>
      </trkpt>
      <trkpt lat="42.88914" lon="0.98981">
        <ele>1171.02</ele>
        <time>2019-01-06T15:08:59Z</time>
      </trkpt>
      <trkpt lat="42.88905" lon="0.98955">
        <ele>1169.58</ele>
        <time>2019-01-06T15:09:15Z</time>
      </trkpt>
      <trkpt lat="42.88896" lon="0.98936">
        <ele>1168.14</ele>
        <time>2019-01-06T15:09:31Z</time>
      </trkpt>
      <trkpt lat="42.88893" lon="0.98908">
        <ele>1166.7</ele>
        <time>2019-01-06T15:09:46Z</time>
      </trkpt>
      <trkpt lat="42.88886" lon="0.98882">
        <ele>1166.7</ele>
        <time>2019-01-06T15:10:06Z</time>
      </trkpt>
      <trkpt lat="42.88878" lon="0.9886">
        <ele>1165.74</ele>
        <time>2019-01-06T15:10:19Z</time>
      </trkpt>
      <trkpt lat="42.88869" lon="0.98836">
        <ele>1164.77</ele>
        <time>2019-01-06T15:10:36Z</time>
      </trkpt>
      <trkpt lat="42.88868" lon="0.98832">
        <ele>1164.77</ele>
        <time>2019-01-06T15:10:39Z</time>
      </trkpt>
      <trkpt lat="42.88859" lon="0.98807">
        <ele>1163.81</ele>
        <time>2019-01-06T15:10:55Z</time>
      </trkpt>
      <trkpt lat="42.88844" lon="0.98794">
        <ele>1160.45</ele>
        <time>2019-01-06T15:11:12Z</time>
      </trkpt>
      <trkpt lat="42.88834" lon="0.98788">
        <ele>1157.56</ele>
        <time>2019-01-06T15:11:24Z</time>
      </trkpt>
      <trkpt lat="42.88826" lon="0.98783">
        <ele>1156.12</ele>
        <time>2019-01-06T15:11:30Z</time>
      </trkpt>
      <trkpt lat="42.88805" lon="0.98775">
        <ele>1152.76</ele>
        <time>2019-01-06T15:11:44Z</time>
      </trkpt>
      <trkpt lat="42.88788" lon="0.98782">
        <ele>1149.39</ele>
        <time>2019-01-06T15:11:58Z</time>
      </trkpt>
      <trkpt lat="42.88785" lon="0.98785">
        <ele>1148.43</ele>
        <time>2019-01-06T15:12:01Z</time>
      </trkpt>
      <trkpt lat="42.88774" lon="0.98792">
        <ele>1146.03</ele>
        <time>2019-01-06T15:12:16Z</time>
      </trkpt>
      <trkpt lat="42.88772" lon="0.98794">
        <ele>1145.55</ele>
        <time>2019-01-06T15:12:18Z</time>
      </trkpt>
      <trkpt lat="42.88763" lon="0.98804">
        <ele>1144.11</ele>
        <time>2019-01-06T15:12:30Z</time>
      </trkpt>
      <trkpt lat="42.8876" lon="0.98807">
        <ele>1143.63</ele>
        <time>2019-01-06T15:12:33Z</time>
      </trkpt>
      <trkpt lat="42.88756" lon="0.98811">
        <ele>1142.66</ele>
        <time>2019-01-06T15:12:37Z</time>
      </trkpt>
      <trkpt lat="42.88742" lon="0.98817">
        <ele>1139.78</ele>
        <time>2019-01-06T15:12:48Z</time>
      </trkpt>
      <trkpt lat="42.88735" lon="0.98819">
        <ele>1137.86</ele>
        <time>2019-01-06T15:12:54Z</time>
      </trkpt>
      <trkpt lat="42.88717" lon="0.98828">
        <ele>1134.97</ele>
        <time>2019-01-06T15:13:10Z</time>
      </trkpt>
      <trkpt lat="42.88706" lon="0.98839">
        <ele>1131.61</ele>
        <time>2019-01-06T15:13:23Z</time>
      </trkpt>
      <trkpt lat="42.88684" lon="0.98849">
        <ele>1128.73</ele>
        <time>2019-01-06T15:13:42Z</time>
      </trkpt>
      <trkpt lat="42.88671" lon="0.98837">
        <ele>1126.8</ele>
        <time>2019-01-06T15:13:56Z</time>
      </trkpt>
      <trkpt lat="42.88657" lon="0.98833">
        <ele>1124.4</ele>
        <time>2019-01-06T15:14:09Z</time>
      </trkpt>
      <trkpt lat="42.88645" lon="0.98833">
        <ele>1121.03</ele>
        <time>2019-01-06T15:14:21Z</time>
      </trkpt>
      <trkpt lat="42.8864" lon="0.98834">
        <ele>1120.07</ele>
        <time>2019-01-06T15:14:25Z</time>
      </trkpt>
      <trkpt lat="42.88634" lon="0.98833">
        <ele>1119.11</ele>
        <time>2019-01-06T15:14:31Z</time>
      </trkpt>
      <trkpt lat="42.88631" lon="0.98832">
        <ele>1118.63</ele>
        <time>2019-01-06T15:14:33Z</time>
      </trkpt>
      <trkpt lat="42.88626" lon="0.98833">
        <ele>1117.67</ele>
        <time>2019-01-06T15:14:37Z</time>
      </trkpt>
      <trkpt lat="42.88613" lon="0.98831">
        <ele>1114.31</ele>
        <time>2019-01-06T15:14:55Z</time>
      </trkpt>
      <trkpt lat="42.88606" lon="0.98822">
        <ele>1110.94</ele>
        <time>2019-01-06T15:15:10Z</time>
      </trkpt>
      <trkpt lat="42.88604" lon="0.98817">
        <ele>1108.54</ele>
        <time>2019-01-06T15:15:33Z</time>
      </trkpt>
      <trkpt lat="42.88592" lon="0.98811">
        <ele>1107.1</ele>
        <time>2019-01-06T15:15:46Z</time>
      </trkpt>
      <trkpt lat="42.8859" lon="0.98808">
        <ele>1106.13</ele>
        <time>2019-01-06T15:15:49Z</time>
      </trkpt>
      <trkpt lat="42.88587" lon="0.98804">
        <ele>1105.17</ele>
        <time>2019-01-06T15:15:53Z</time>
      </trkpt>
      <trkpt lat="42.88577" lon="0.98796">
        <ele>1101.81</ele>
        <time>2019-01-06T15:16:08Z</time>
      </trkpt>
      <trkpt lat="42.88573" lon="0.98789">
        <ele>1098.44</ele>
        <time>2019-01-06T15:16:19Z</time>
      </trkpt>
      <trkpt lat="42.88571" lon="0.98788">
        <ele>1097.48</ele>
        <time>2019-01-06T15:16:22Z</time>
      </trkpt>
      <trkpt lat="42.88567" lon="0.98782">
        <ele>1094.12</ele>
        <time>2019-01-06T15:16:34Z</time>
      </trkpt>
      <trkpt lat="42.88564" lon="0.98773">
        <ele>1091.71</ele>
        <time>2019-01-06T15:16:56Z</time>
      </trkpt>
      <trkpt lat="42.8856" lon="0.98759">
        <ele>1088.83</ele>
        <time>2019-01-06T15:17:12Z</time>
      </trkpt>
      <trkpt lat="42.88557" lon="0.98749">
        <ele>1085.95</ele>
        <time>2019-01-06T15:17:23Z</time>
      </trkpt>
      <trkpt lat="42.8855" lon="0.9874">
        <ele>1082.58</ele>
        <time>2019-01-06T15:17:33Z</time>
      </trkpt>
      <trkpt lat="42.88546" lon="0.98727">
        <ele>1079.22</ele>
        <time>2019-01-06T15:17:45Z</time>
      </trkpt>
      <trkpt lat="42.88541" lon="0.98711">
        <ele>1075.85</ele>
        <time>2019-01-06T15:17:58Z</time>
      </trkpt>
      <trkpt lat="42.88539" lon="0.98706">
        <ele>1074.89</ele>
        <time>2019-01-06T15:18:02Z</time>
      </trkpt>
      <trkpt lat="42.88535" lon="0.98691">
        <ele>1071.53</ele>
        <time>2019-01-06T15:18:14Z</time>
      </trkpt>
      <trkpt lat="42.88531" lon="0.98681">
        <ele>1068.16</ele>
        <time>2019-01-06T15:18:24Z</time>
      </trkpt>
      <trkpt lat="42.88531" lon="0.98675">
        <ele>1065.76</ele>
        <time>2019-01-06T15:19:05Z</time>
      </trkpt>
      <trkpt lat="42.88528" lon="0.9867">
        <ele>1065.28</ele>
        <time>2019-01-06T15:19:53Z</time>
      </trkpt>
      <trkpt lat="42.88523" lon="0.98665">
        <ele>1064.8</ele>
        <time>2019-01-06T15:20:31Z</time>
      </trkpt>
      <trkpt lat="42.88519" lon="0.98661">
        <ele>1061.43</ele>
        <time>2019-01-06T15:20:43Z</time>
      </trkpt>
      <trkpt lat="42.88515" lon="0.98651">
        <ele>1058.55</ele>
        <time>2019-01-06T15:20:55Z</time>
      </trkpt>
      <trkpt lat="42.8851" lon="0.98637">
        <ele>1055.18</ele>
        <time>2019-01-06T15:21:08Z</time>
      </trkpt>
      <trkpt lat="42.8851" lon="0.98623">
        <ele>1052.3</ele>
        <time>2019-01-06T15:21:20Z</time>
      </trkpt>
      <trkpt lat="42.88507" lon="0.98605">
        <ele>1049.42</ele>
        <time>2019-01-06T15:21:35Z</time>
      </trkpt>
      <trkpt lat="42.88506" lon="0.98593">
        <ele>1046.05</ele>
        <time>2019-01-06T15:21:47Z</time>
      </trkpt>
      <trkpt lat="42.88504" lon="0.9858">
        <ele>1043.17</ele>
        <time>2019-01-06T15:21:58Z</time>
      </trkpt>
      <trkpt lat="42.88503" lon="0.98567">
        <ele>1039.8</ele>
        <time>2019-01-06T15:22:11Z</time>
      </trkpt>
      <trkpt lat="42.885" lon="0.98552">
        <ele>1036.92</ele>
        <time>2019-01-06T15:22:26Z</time>
      </trkpt>
      <trkpt lat="42.885" lon="0.98536">
        <ele>1033.55</ele>
        <time>2019-01-06T15:22:40Z</time>
      </trkpt>
      <trkpt lat="42.88497" lon="0.98523">
        <ele>1030.67</ele>
        <time>2019-01-06T15:22:54Z</time>
      </trkpt>
      <trkpt lat="42.88493" lon="0.98513">
        <ele>1027.79</ele>
        <time>2019-01-06T15:23:03Z</time>
      </trkpt>
      <trkpt lat="42.8849" lon="0.98503">
        <ele>1024.42</ele>
        <time>2019-01-06T15:23:20Z</time>
      </trkpt>
      <trkpt lat="42.88488" lon="0.9849">
        <ele>1021.54</ele>
        <time>2019-01-06T15:23:35Z</time>
      </trkpt>
      <trkpt lat="42.88488" lon="0.98477">
        <ele>1018.17</ele>
        <time>2019-01-06T15:23:49Z</time>
      </trkpt>
      <trkpt lat="42.88487" lon="0.98469">
        <ele>1014.81</ele>
        <time>2019-01-06T15:23:59Z</time>
      </trkpt>
      <trkpt lat="42.8848" lon="0.98466">
        <ele>1011.44</ele>
        <time>2019-01-06T15:24:13Z</time>
      </trkpt>
      <trkpt lat="42.88476" lon="0.98457">
        <ele>1008.56</ele>
        <time>2019-01-06T15:24:27Z</time>
      </trkpt>
      <trkpt lat="42.88471" lon="0.98448">
        <ele>1005.2</ele>
        <time>2019-01-06T15:24:39Z</time>
      </trkpt>
      <trkpt lat="42.88469" lon="0.98439">
        <ele>1002.31</ele>
        <time>2019-01-06T15:24:50Z</time>
      </trkpt>
      <trkpt lat="42.88462" lon="0.98432">
        <ele>999.43</ele>
        <time>2019-01-06T15:25:03Z</time>
      </trkpt>
      <trkpt lat="42.8846" lon="0.98421">
        <ele>995.58</ele>
        <time>2019-01-06T15:25:14Z</time>
      </trkpt>
      <trkpt lat="42.88456" lon="0.98417">
        <ele>992.7</ele>
        <time>2019-01-06T15:25:27Z</time>
      </trkpt>
      <trkpt lat="42.88455" lon="0.98406">
        <ele>989.81</ele>
        <time>2019-01-06T15:25:39Z</time>
      </trkpt>
      <trkpt lat="42.88457" lon="0.98392">
        <ele>986.45</ele>
        <time>2019-01-06T15:25:51Z</time>
      </trkpt>
      <trkpt lat="42.88459" lon="0.9838">
        <ele>983.57</ele>
        <time>2019-01-06T15:26:07Z</time>
      </trkpt>
      <trkpt lat="42.88461" lon="0.98365">
        <ele>980.2</ele>
        <time>2019-01-06T15:26:21Z</time>
      </trkpt>
      <trkpt lat="42.88457" lon="0.98361">
        <ele>977.32</ele>
        <time>2019-01-06T15:26:34Z</time>
      </trkpt>
      <trkpt lat="42.88454" lon="0.98354">
        <ele>975.39</ele>
        <time>2019-01-06T15:26:43Z</time>
      </trkpt>
      <trkpt lat="42.88445" lon="0.98345">
        <ele>972.99</ele>
        <time>2019-01-06T15:27:04Z</time>
      </trkpt>
      <trkpt lat="42.88443" lon="0.98345">
        <ele>972.51</ele>
        <time>2019-01-06T15:27:06Z</time>
      </trkpt>
      <trkpt lat="42.88438" lon="0.98342">
        <ele>970.59</ele>
        <time>2019-01-06T15:27:14Z</time>
      </trkpt>
      <trkpt lat="42.88445" lon="0.98323">
        <ele>968.18</ele>
        <time>2019-01-06T15:27:32Z</time>
      </trkpt>
      <trkpt lat="42.88442" lon="0.9831">
        <ele>964.82</ele>
        <time>2019-01-06T15:27:46Z</time>
      </trkpt>
      <trkpt lat="42.8844" lon="0.98299">
        <ele>961.46</ele>
        <time>2019-01-06T15:27:57Z</time>
      </trkpt>
      <trkpt lat="42.88443" lon="0.98292">
        <ele>958.57</ele>
        <time>2019-01-06T15:28:06Z</time>
      </trkpt>
      <trkpt lat="42.8844" lon="0.98285">
        <ele>956.65</ele>
        <time>2019-01-06T15:28:25Z</time>
      </trkpt>
      <trkpt lat="42.88442" lon="0.98274">
        <ele>956.17</ele>
        <time>2019-01-06T15:28:40Z</time>
      </trkpt>
      <trkpt lat="42.88438" lon="0.98277">
        <ele>956.17</ele>
        <time>2019-01-06T15:28:55Z</time>
      </trkpt>
      <trkpt lat="42.88439" lon="0.98276">
        <ele>955.21</ele>
        <time>2019-01-06T15:29:27Z</time>
      </trkpt>
      <trkpt lat="42.88439" lon="0.98278">
        <ele>955.21</ele>
        <time>2019-01-06T15:29:37Z</time>
      </trkpt>
      <trkpt lat="42.88434" lon="0.98276">
        <ele>954.73</ele>
        <time>2019-01-06T15:29:45Z</time>
      </trkpt>
      <trkpt lat="42.88436" lon="0.98271">
        <ele>954.25</ele>
        <time>2019-01-06T15:29:50Z</time>
      </trkpt>
      <trkpt lat="42.88439" lon="0.98261">
        <ele>954.25</ele>
        <time>2019-01-06T15:30:23Z</time>
      </trkpt>
      <trkpt lat="42.88438" lon="0.98261">
        <ele>954.25</ele>
        <time>2019-01-06T15:30:28Z</time>
      </trkpt>
      <trkpt lat="42.88433" lon="0.98284">
        <ele>953.28</ele>
        <time>2019-01-06T15:30:45Z</time>
      </trkpt>
      <trkpt lat="42.88432" lon="0.98292">
        <ele>952.32</ele>
        <time>2019-01-06T15:30:52Z</time>
      </trkpt>
      <trkpt lat="42.88427" lon="0.98293">
        <ele>951.36</ele>
        <time>2019-01-06T15:30:56Z</time>
      </trkpt>
      <trkpt lat="42.88421" lon="0.98291">
        <ele>949.44</ele>
        <time>2019-01-06T15:31:02Z</time>
      </trkpt>
      <trkpt lat="42.88418" lon="0.98307">
        <ele>947.04</ele>
        <time>2019-01-06T15:31:15Z</time>
      </trkpt>
      <trkpt lat="42.88422" lon="0.98308">
        <ele>945.59</ele>
        <time>2019-01-06T15:31:39Z</time>
      </trkpt>
      <trkpt lat="42.88422" lon="0.98306">
        <ele>945.11</ele>
        <time>2019-01-06T15:31:55Z</time>
      </trkpt>
      <trkpt lat="42.88409" lon="0.98298">
        <ele>945.11</ele>
        <time>2019-01-06T15:32:37Z</time>
      </trkpt>
      <trkpt lat="42.88417" lon="0.98298">
        <ele>945.11</ele>
        <time>2019-01-06T15:33:28Z</time>
      </trkpt>
      <trkpt lat="42.88408" lon="0.98291">
        <ele>945.11</ele>
        <time>2019-01-06T15:34:24Z</time>
      </trkpt>
      <trkpt lat="42.88412" lon="0.98295">
        <ele>945.11</ele>
        <time>2019-01-06T15:35:32Z</time>
      </trkpt>
      <trkpt lat="42.88406" lon="0.98297">
        <ele>945.11</ele>
        <time>2019-01-06T15:37:06Z</time>
      </trkpt>
      <trkpt lat="42.88409" lon="0.98299">
        <ele>945.11</ele>
        <time>2019-01-06T15:37:53Z</time>
      </trkpt>
      <trkpt lat="42.88409" lon="0.98295">
        <ele>945.11</ele>
        <time>2019-01-06T15:38:32Z</time>
      </trkpt>
      <trkpt lat="42.88417" lon="0.98294">
        <ele>944.15</ele>
        <time>2019-01-06T15:39:30Z</time>
      </trkpt>
      <trkpt lat="42.88418" lon="0.98297">
        <ele>944.15</ele>
        <time>2019-01-06T15:39:36Z</time>
      </trkpt>
    </trkseg>
  </trk>
</gpx>